<?xml version="1.0" encoding="UTF-8"?>
<gpx version="1.1" creator="https://www.youtrack.es" xsi:schemaLocation="http://www.topografix.com/GPX/1/1 http://www.topografix.com/GPX/1/1/gpx.xsd http://www.garmin.com/xmlschemas/GpxExtensions/v3 http://www.garmin.com/xmlschemas/GpxExtensionsv3.xsd http://www.garmin.com/xmlschemas/TrackPointExtension/v1 http://www.garmin.com/xmlschemas/TrackPointExtensionv1.xsd" xmlns:gpxtpx="http://www.garmin.com/xmlschemas/TrackPointExtension/v1" xmlns:gpxx="http://www.garmin.com/xmlschemas/GpxExtensions/v3" xmlns:xsi="http://www.w3.org/2001/XMLSchema-instance">
  <metadata>
    <link href="https://www.youtrack.es">
      <text>YouTrack.es</text>
    </link>
    <time>2026-05-08T09:05:58Z</time>
  </metadata>
  <trk>
    <src>https://www.youtrack.es</src>
    <link href="https://www.youtrack.es/ruta/1354-cervi-raspes">
      <text>YouTrack.es</text>
    </link>
    <trkseg>
      <trkpt lat="42.478324" lon="0.867732">
        <ele>2106.68</ele>
        <time>2012-06-20T05:27:07Z</time>
      </trkpt>
      <trkpt lat="42.478314" lon="0.867728">
        <ele>2106.66</ele>
        <time>2012-06-20T05:27:08Z</time>
      </trkpt>
      <trkpt lat="42.478273" lon="0.867667">
        <ele>2107.23</ele>
        <time>2012-06-20T05:27:16Z</time>
      </trkpt>
      <trkpt lat="42.478266" lon="0.867667">
        <ele>2107.21</ele>
        <time>2012-06-20T05:27:17Z</time>
      </trkpt>
      <trkpt lat="42.478231" lon="0.867672">
        <ele>2108.10</ele>
        <time>2012-06-20T05:27:21Z</time>
      </trkpt>
      <trkpt lat="42.478178" lon="0.867697">
        <ele>2108.73</ele>
        <time>2012-06-20T05:27:28Z</time>
      </trkpt>
      <trkpt lat="42.478154" lon="0.867705">
        <ele>2109.03</ele>
        <time>2012-06-20T05:27:31Z</time>
      </trkpt>
      <trkpt lat="42.478056" lon="0.867716">
        <ele>2109.71</ele>
        <time>2012-06-20T05:27:41Z</time>
      </trkpt>
      <trkpt lat="42.477958" lon="0.867706">
        <ele>2109.54</ele>
        <time>2012-06-20T05:27:50Z</time>
      </trkpt>
      <trkpt lat="42.477928" lon="0.867712">
        <ele>2109.54</ele>
        <time>2012-06-20T05:27:53Z</time>
      </trkpt>
      <trkpt lat="42.477884" lon="0.867713">
        <ele>2109.89</ele>
        <time>2012-06-20T05:27:58Z</time>
      </trkpt>
      <trkpt lat="42.477811" lon="0.867703">
        <ele>2110.44</ele>
        <time>2012-06-20T05:28:06Z</time>
      </trkpt>
      <trkpt lat="42.477788" lon="0.867693">
        <ele>2110.90</ele>
        <time>2012-06-20T05:28:09Z</time>
      </trkpt>
      <trkpt lat="42.477769" lon="0.867674">
        <ele>2111.02</ele>
        <time>2012-06-20T05:28:12Z</time>
      </trkpt>
      <trkpt lat="42.477706" lon="0.867656">
        <ele>2111.81</ele>
        <time>2012-06-20T05:28:19Z</time>
      </trkpt>
      <trkpt lat="42.477697" lon="0.867657">
        <ele>2111.84</ele>
        <time>2012-06-20T05:28:20Z</time>
      </trkpt>
      <trkpt lat="42.477541" lon="0.867619">
        <ele>2112.79</ele>
        <time>2012-06-20T05:28:37Z</time>
      </trkpt>
      <trkpt lat="42.477482" lon="0.867597">
        <ele>2113.16</ele>
        <time>2012-06-20T05:28:43Z</time>
      </trkpt>
      <trkpt lat="42.477429" lon="0.867581">
        <ele>2114.23</ele>
        <time>2012-06-20T05:28:50Z</time>
      </trkpt>
      <trkpt lat="42.477396" lon="0.867563">
        <ele>2114.63</ele>
        <time>2012-06-20T05:28:54Z</time>
      </trkpt>
      <trkpt lat="42.477204" lon="0.867502">
        <ele>2117.37</ele>
        <time>2012-06-20T05:29:14Z</time>
      </trkpt>
      <trkpt lat="42.477176" lon="0.867499">
        <ele>2117.74</ele>
        <time>2012-06-20T05:29:17Z</time>
      </trkpt>
      <trkpt lat="42.477086" lon="0.867505">
        <ele>2118.11</ele>
        <time>2012-06-20T05:29:26Z</time>
      </trkpt>
      <trkpt lat="42.477005" lon="0.867543">
        <ele>2118.62</ele>
        <time>2012-06-20T05:29:34Z</time>
      </trkpt>
      <trkpt lat="42.476974" lon="0.867567">
        <ele>2119.00</ele>
        <time>2012-06-20T05:29:38Z</time>
      </trkpt>
      <trkpt lat="42.476959" lon="0.867583">
        <ele>2119.11</ele>
        <time>2012-06-20T05:29:40Z</time>
      </trkpt>
      <trkpt lat="42.476909" lon="0.867623">
        <ele>2119.66</ele>
        <time>2012-06-20T05:29:46Z</time>
      </trkpt>
      <trkpt lat="42.476896" lon="0.867643">
        <ele>2119.74</ele>
        <time>2012-06-20T05:29:48Z</time>
      </trkpt>
      <trkpt lat="42.476879" lon="0.867656">
        <ele>2119.76</ele>
        <time>2012-06-20T05:29:50Z</time>
      </trkpt>
      <trkpt lat="42.476857" lon="0.867682">
        <ele>2120.07</ele>
        <time>2012-06-20T05:29:53Z</time>
      </trkpt>
      <trkpt lat="42.476791" lon="0.867813">
        <ele>2121.49</ele>
        <time>2012-06-20T05:30:05Z</time>
      </trkpt>
      <trkpt lat="42.476757" lon="0.867904">
        <ele>2122.43</ele>
        <time>2012-06-20T05:30:13Z</time>
      </trkpt>
      <trkpt lat="42.476745" lon="0.867928">
        <ele>2122.32</ele>
        <time>2012-06-20T05:30:15Z</time>
      </trkpt>
      <trkpt lat="42.476699" lon="0.868071">
        <ele>2124.62</ele>
        <time>2012-06-20T05:30:27Z</time>
      </trkpt>
      <trkpt lat="42.476681" lon="0.868116">
        <ele>2124.84</ele>
        <time>2012-06-20T05:30:31Z</time>
      </trkpt>
      <trkpt lat="42.476592" lon="0.868237">
        <ele>2125.41</ele>
        <time>2012-06-20T05:30:43Z</time>
      </trkpt>
      <trkpt lat="42.476499" lon="0.868313">
        <ele>2126.51</ele>
        <time>2012-06-20T05:30:54Z</time>
      </trkpt>
      <trkpt lat="42.476474" lon="0.868327">
        <ele>2126.62</ele>
        <time>2012-06-20T05:30:57Z</time>
      </trkpt>
      <trkpt lat="42.476404" lon="0.868359">
        <ele>2127.91</ele>
        <time>2012-06-20T05:31:05Z</time>
      </trkpt>
      <trkpt lat="42.476373" lon="0.868379">
        <ele>2128.58</ele>
        <time>2012-06-20T05:31:09Z</time>
      </trkpt>
      <trkpt lat="42.476353" lon="0.868395">
        <ele>2129.08</ele>
        <time>2012-06-20T05:31:12Z</time>
      </trkpt>
      <trkpt lat="42.476337" lon="0.868401">
        <ele>2129.16</ele>
        <time>2012-06-20T05:31:14Z</time>
      </trkpt>
      <trkpt lat="42.476258" lon="0.868450">
        <ele>2130.77</ele>
        <time>2012-06-20T05:31:24Z</time>
      </trkpt>
      <trkpt lat="42.476139" lon="0.868550">
        <ele>2131.84</ele>
        <time>2012-06-20T05:31:38Z</time>
      </trkpt>
      <trkpt lat="42.476117" lon="0.868572">
        <ele>2132.16</ele>
        <time>2012-06-20T05:31:41Z</time>
      </trkpt>
      <trkpt lat="42.476091" lon="0.868607">
        <ele>2132.61</ele>
        <time>2012-06-20T05:31:45Z</time>
      </trkpt>
      <trkpt lat="42.476082" lon="0.868611">
        <ele>2132.82</ele>
        <time>2012-06-20T05:31:46Z</time>
      </trkpt>
      <trkpt lat="42.476012" lon="0.868673">
        <ele>2134.21</ele>
        <time>2012-06-20T05:31:55Z</time>
      </trkpt>
      <trkpt lat="42.475996" lon="0.868679">
        <ele>2134.88</ele>
        <time>2012-06-20T05:31:57Z</time>
      </trkpt>
      <trkpt lat="42.475975" lon="0.868698">
        <ele>2134.98</ele>
        <time>2012-06-20T05:32:00Z</time>
      </trkpt>
      <trkpt lat="42.475889" lon="0.868759">
        <ele>2136.03</ele>
        <time>2012-06-20T05:32:10Z</time>
      </trkpt>
      <trkpt lat="42.475873" lon="0.868762">
        <ele>2136.38</ele>
        <time>2012-06-20T05:32:12Z</time>
      </trkpt>
      <trkpt lat="42.475816" lon="0.868802">
        <ele>2136.66</ele>
        <time>2012-06-20T05:32:18Z</time>
      </trkpt>
      <trkpt lat="42.475781" lon="0.868832">
        <ele>2137.10</ele>
        <time>2012-06-20T05:32:22Z</time>
      </trkpt>
      <trkpt lat="42.475699" lon="0.868885">
        <ele>2137.87</ele>
        <time>2012-06-20T05:32:32Z</time>
      </trkpt>
      <trkpt lat="42.475691" lon="0.868894">
        <ele>2137.87</ele>
        <time>2012-06-20T05:32:33Z</time>
      </trkpt>
      <trkpt lat="42.475650" lon="0.868921">
        <ele>2138.56</ele>
        <time>2012-06-20T05:32:38Z</time>
      </trkpt>
      <trkpt lat="42.475626" lon="0.868930">
        <ele>2139.12</ele>
        <time>2012-06-20T05:32:41Z</time>
      </trkpt>
      <trkpt lat="42.475608" lon="0.868929">
        <ele>2139.51</ele>
        <time>2012-06-20T05:32:43Z</time>
      </trkpt>
      <trkpt lat="42.475576" lon="0.868944">
        <ele>2140.29</ele>
        <time>2012-06-20T05:32:47Z</time>
      </trkpt>
      <trkpt lat="42.475561" lon="0.868947">
        <ele>2140.75</ele>
        <time>2012-06-20T05:32:49Z</time>
      </trkpt>
      <trkpt lat="42.475539" lon="0.868958">
        <ele>2141.33</ele>
        <time>2012-06-20T05:32:52Z</time>
      </trkpt>
      <trkpt lat="42.475510" lon="0.868961">
        <ele>2142.33</ele>
        <time>2012-06-20T05:32:56Z</time>
      </trkpt>
      <trkpt lat="42.475480" lon="0.868970">
        <ele>2143.13</ele>
        <time>2012-06-20T05:33:00Z</time>
      </trkpt>
      <trkpt lat="42.475456" lon="0.868974">
        <ele>2143.77</ele>
        <time>2012-06-20T05:33:03Z</time>
      </trkpt>
      <trkpt lat="42.475420" lon="0.868964">
        <ele>2144.66</ele>
        <time>2012-06-20T05:33:08Z</time>
      </trkpt>
      <trkpt lat="42.475405" lon="0.868929">
        <ele>2145.24</ele>
        <time>2012-06-20T05:33:12Z</time>
      </trkpt>
      <trkpt lat="42.475419" lon="0.868862">
        <ele>2145.80</ele>
        <time>2012-06-20T05:33:18Z</time>
      </trkpt>
      <trkpt lat="42.475431" lon="0.868820">
        <ele>2146.32</ele>
        <time>2012-06-20T05:33:22Z</time>
      </trkpt>
      <trkpt lat="42.475440" lon="0.868804">
        <ele>2146.71</ele>
        <time>2012-06-20T05:33:24Z</time>
      </trkpt>
      <trkpt lat="42.475456" lon="0.868764">
        <ele>2146.68</ele>
        <time>2012-06-20T05:33:28Z</time>
      </trkpt>
      <trkpt lat="42.475465" lon="0.868729">
        <ele>2147.21</ele>
        <time>2012-06-20T05:33:31Z</time>
      </trkpt>
      <trkpt lat="42.475497" lon="0.868636">
        <ele>2148.24</ele>
        <time>2012-06-20T05:33:39Z</time>
      </trkpt>
      <trkpt lat="42.475498" lon="0.868610">
        <ele>2148.29</ele>
        <time>2012-06-20T05:33:41Z</time>
      </trkpt>
      <trkpt lat="42.475538" lon="0.868480">
        <ele>2149.03</ele>
        <time>2012-06-20T05:33:53Z</time>
      </trkpt>
      <trkpt lat="42.475576" lon="0.868293">
        <ele>2149.13</ele>
        <time>2012-06-20T05:34:08Z</time>
      </trkpt>
      <trkpt lat="42.475618" lon="0.868194">
        <ele>2149.72</ele>
        <time>2012-06-20T05:34:17Z</time>
      </trkpt>
      <trkpt lat="42.475641" lon="0.868117">
        <ele>2149.82</ele>
        <time>2012-06-20T05:34:24Z</time>
      </trkpt>
      <trkpt lat="42.475663" lon="0.868007">
        <ele>2150.50</ele>
        <time>2012-06-20T05:34:32Z</time>
      </trkpt>
      <trkpt lat="42.475686" lon="0.867956">
        <ele>2150.92</ele>
        <time>2012-06-20T05:34:37Z</time>
      </trkpt>
      <trkpt lat="42.475713" lon="0.867879">
        <ele>2151.21</ele>
        <time>2012-06-20T05:34:43Z</time>
      </trkpt>
      <trkpt lat="42.475731" lon="0.867854">
        <ele>2151.53</ele>
        <time>2012-06-20T05:34:46Z</time>
      </trkpt>
      <trkpt lat="42.475755" lon="0.867777">
        <ele>2151.45</ele>
        <time>2012-06-20T05:34:52Z</time>
      </trkpt>
      <trkpt lat="42.475789" lon="0.867639">
        <ele>2152.09</ele>
        <time>2012-06-20T05:35:03Z</time>
      </trkpt>
      <trkpt lat="42.475789" lon="0.867576">
        <ele>2152.93</ele>
        <time>2012-06-20T05:35:08Z</time>
      </trkpt>
      <trkpt lat="42.475776" lon="0.867479">
        <ele>2153.96</ele>
        <time>2012-06-20T05:35:15Z</time>
      </trkpt>
      <trkpt lat="42.475771" lon="0.867454">
        <ele>2154.20</ele>
        <time>2012-06-20T05:35:25Z</time>
      </trkpt>
      <trkpt lat="42.475770" lon="0.867444">
        <ele>2153.33</ele>
        <time>2012-06-20T05:35:49Z</time>
      </trkpt>
      <trkpt lat="42.475772" lon="0.867454">
        <ele>2153.04</ele>
        <time>2012-06-20T05:35:58Z</time>
      </trkpt>
      <trkpt lat="42.475770" lon="0.867443">
        <ele>2152.96</ele>
        <time>2012-06-20T05:36:00Z</time>
      </trkpt>
      <trkpt lat="42.475743" lon="0.867399">
        <ele>2153.71</ele>
        <time>2012-06-20T05:36:05Z</time>
      </trkpt>
      <trkpt lat="42.475738" lon="0.867367">
        <ele>2154.41</ele>
        <time>2012-06-20T05:36:08Z</time>
      </trkpt>
      <trkpt lat="42.475718" lon="0.867362">
        <ele>2154.55</ele>
        <time>2012-06-20T05:36:10Z</time>
      </trkpt>
      <trkpt lat="42.475688" lon="0.867372">
        <ele>2154.73</ele>
        <time>2012-06-20T05:36:13Z</time>
      </trkpt>
      <trkpt lat="42.475656" lon="0.867369">
        <ele>2154.81</ele>
        <time>2012-06-20T05:36:16Z</time>
      </trkpt>
      <trkpt lat="42.475572" lon="0.867409">
        <ele>2155.43</ele>
        <time>2012-06-20T05:36:24Z</time>
      </trkpt>
      <trkpt lat="42.475552" lon="0.867424">
        <ele>2155.57</ele>
        <time>2012-06-20T05:36:26Z</time>
      </trkpt>
      <trkpt lat="42.475461" lon="0.867519">
        <ele>2156.49</ele>
        <time>2012-06-20T05:36:36Z</time>
      </trkpt>
      <trkpt lat="42.475435" lon="0.867552">
        <ele>2156.36</ele>
        <time>2012-06-20T05:36:39Z</time>
      </trkpt>
      <trkpt lat="42.475418" lon="0.867566">
        <ele>2156.20</ele>
        <time>2012-06-20T05:36:41Z</time>
      </trkpt>
      <trkpt lat="42.475100" lon="0.867916">
        <ele>2158.92</ele>
        <time>2012-06-20T05:37:19Z</time>
      </trkpt>
      <trkpt lat="42.475063" lon="0.867954">
        <ele>2159.23</ele>
        <time>2012-06-20T05:37:24Z</time>
      </trkpt>
      <trkpt lat="42.474993" lon="0.868062">
        <ele>2160.41</ele>
        <time>2012-06-20T05:37:34Z</time>
      </trkpt>
      <trkpt lat="42.474963" lon="0.868097">
        <ele>2160.94</ele>
        <time>2012-06-20T05:37:38Z</time>
      </trkpt>
      <trkpt lat="42.474892" lon="0.868156">
        <ele>2161.68</ele>
        <time>2012-06-20T05:37:46Z</time>
      </trkpt>
      <trkpt lat="42.474861" lon="0.868188">
        <ele>2161.94</ele>
        <time>2012-06-20T05:37:50Z</time>
      </trkpt>
      <trkpt lat="42.474849" lon="0.868191">
        <ele>2161.93</ele>
        <time>2012-06-20T05:37:51Z</time>
      </trkpt>
      <trkpt lat="42.474635" lon="0.868317">
        <ele>2163.59</ele>
        <time>2012-06-20T05:38:13Z</time>
      </trkpt>
      <trkpt lat="42.474572" lon="0.868363">
        <ele>2163.52</ele>
        <time>2012-06-20T05:38:19Z</time>
      </trkpt>
      <trkpt lat="42.474484" lon="0.868418">
        <ele>2164.51</ele>
        <time>2012-06-20T05:38:28Z</time>
      </trkpt>
      <trkpt lat="42.474425" lon="0.868443">
        <ele>2164.75</ele>
        <time>2012-06-20T05:38:34Z</time>
      </trkpt>
      <trkpt lat="42.474401" lon="0.868446">
        <ele>2164.93</ele>
        <time>2012-06-20T05:38:37Z</time>
      </trkpt>
      <trkpt lat="42.474366" lon="0.868467">
        <ele>2165.02</ele>
        <time>2012-06-20T05:38:42Z</time>
      </trkpt>
      <trkpt lat="42.474325" lon="0.868499">
        <ele>2164.81</ele>
        <time>2012-06-20T05:38:48Z</time>
      </trkpt>
      <trkpt lat="42.474299" lon="0.868558">
        <ele>2165.34</ele>
        <time>2012-06-20T05:38:53Z</time>
      </trkpt>
      <trkpt lat="42.474273" lon="0.868582">
        <ele>2165.26</ele>
        <time>2012-06-20T05:38:56Z</time>
      </trkpt>
      <trkpt lat="42.474209" lon="0.868613">
        <ele>2165.23</ele>
        <time>2012-06-20T05:39:03Z</time>
      </trkpt>
      <trkpt lat="42.474161" lon="0.868639">
        <ele>2165.44</ele>
        <time>2012-06-20T05:39:08Z</time>
      </trkpt>
      <trkpt lat="42.474155" lon="0.868658">
        <ele>2165.65</ele>
        <time>2012-06-20T05:39:10Z</time>
      </trkpt>
      <trkpt lat="42.474131" lon="0.868688">
        <ele>2165.68</ele>
        <time>2012-06-20T05:39:12Z</time>
      </trkpt>
      <trkpt lat="42.474109" lon="0.868701">
        <ele>2166.01</ele>
        <time>2012-06-20T05:39:14Z</time>
      </trkpt>
      <trkpt lat="42.474089" lon="0.868704">
        <ele>2166.32</ele>
        <time>2012-06-20T05:39:16Z</time>
      </trkpt>
      <trkpt lat="42.474067" lon="0.868727">
        <ele>2166.48</ele>
        <time>2012-06-20T05:39:18Z</time>
      </trkpt>
      <trkpt lat="42.474054" lon="0.868732">
        <ele>2166.51</ele>
        <time>2012-06-20T05:39:19Z</time>
      </trkpt>
      <trkpt lat="42.473985" lon="0.868772">
        <ele>2167.61</ele>
        <time>2012-06-20T05:39:26Z</time>
      </trkpt>
      <trkpt lat="42.473948" lon="0.868805">
        <ele>2168.03</ele>
        <time>2012-06-20T05:39:30Z</time>
      </trkpt>
      <trkpt lat="42.473927" lon="0.868816">
        <ele>2168.36</ele>
        <time>2012-06-20T05:39:32Z</time>
      </trkpt>
      <trkpt lat="42.473883" lon="0.868852">
        <ele>2169.28</ele>
        <time>2012-06-20T05:39:37Z</time>
      </trkpt>
      <trkpt lat="42.473866" lon="0.868869">
        <ele>2169.23</ele>
        <time>2012-06-20T05:39:39Z</time>
      </trkpt>
      <trkpt lat="42.473832" lon="0.868908">
        <ele>2169.28</ele>
        <time>2012-06-20T05:39:43Z</time>
      </trkpt>
      <trkpt lat="42.473793" lon="0.868995">
        <ele>2169.12</ele>
        <time>2012-06-20T05:39:50Z</time>
      </trkpt>
      <trkpt lat="42.473755" lon="0.869057">
        <ele>2169.57</ele>
        <time>2012-06-20T05:39:56Z</time>
      </trkpt>
      <trkpt lat="42.473735" lon="0.869105">
        <ele>2169.84</ele>
        <time>2012-06-20T05:40:00Z</time>
      </trkpt>
      <trkpt lat="42.473728" lon="0.869131">
        <ele>2170.17</ele>
        <time>2012-06-20T05:40:02Z</time>
      </trkpt>
      <trkpt lat="42.473731" lon="0.869170">
        <ele>2170.32</ele>
        <time>2012-06-20T05:40:05Z</time>
      </trkpt>
      <trkpt lat="42.473727" lon="0.869194">
        <ele>2170.91</ele>
        <time>2012-06-20T05:40:07Z</time>
      </trkpt>
      <trkpt lat="42.473692" lon="0.869317">
        <ele>2171.93</ele>
        <time>2012-06-20T05:40:16Z</time>
      </trkpt>
      <trkpt lat="42.473683" lon="0.869341">
        <ele>2172.27</ele>
        <time>2012-06-20T05:40:18Z</time>
      </trkpt>
      <trkpt lat="42.473664" lon="0.869375">
        <ele>2172.49</ele>
        <time>2012-06-20T05:40:21Z</time>
      </trkpt>
      <trkpt lat="42.473603" lon="0.869456">
        <ele>2172.37</ele>
        <time>2012-06-20T05:40:29Z</time>
      </trkpt>
      <trkpt lat="42.473587" lon="0.869481">
        <ele>2172.32</ele>
        <time>2012-06-20T05:40:31Z</time>
      </trkpt>
      <trkpt lat="42.473569" lon="0.869499">
        <ele>2172.45</ele>
        <time>2012-06-20T05:40:33Z</time>
      </trkpt>
      <trkpt lat="42.473548" lon="0.869531">
        <ele>2172.55</ele>
        <time>2012-06-20T05:40:36Z</time>
      </trkpt>
      <trkpt lat="42.473513" lon="0.869557">
        <ele>2172.94</ele>
        <time>2012-06-20T05:40:40Z</time>
      </trkpt>
      <trkpt lat="42.473375" lon="0.869616">
        <ele>2173.82</ele>
        <time>2012-06-20T05:40:53Z</time>
      </trkpt>
      <trkpt lat="42.473346" lon="0.869610">
        <ele>2174.21</ele>
        <time>2012-06-20T05:40:56Z</time>
      </trkpt>
      <trkpt lat="42.473267" lon="0.869638">
        <ele>2174.71</ele>
        <time>2012-06-20T05:41:04Z</time>
      </trkpt>
      <trkpt lat="42.473233" lon="0.869638">
        <ele>2175.34</ele>
        <time>2012-06-20T05:41:07Z</time>
      </trkpt>
      <trkpt lat="42.473192" lon="0.869654">
        <ele>2175.78</ele>
        <time>2012-06-20T05:41:11Z</time>
      </trkpt>
      <trkpt lat="42.473165" lon="0.869671">
        <ele>2176.24</ele>
        <time>2012-06-20T05:41:14Z</time>
      </trkpt>
      <trkpt lat="42.473148" lon="0.869675">
        <ele>2176.40</ele>
        <time>2012-06-20T05:41:16Z</time>
      </trkpt>
      <trkpt lat="42.473119" lon="0.869671">
        <ele>2176.49</ele>
        <time>2012-06-20T05:41:19Z</time>
      </trkpt>
      <trkpt lat="42.472998" lon="0.869723">
        <ele>2177.28</ele>
        <time>2012-06-20T05:41:31Z</time>
      </trkpt>
      <trkpt lat="42.472974" lon="0.869720">
        <ele>2177.58</ele>
        <time>2012-06-20T05:41:34Z</time>
      </trkpt>
      <trkpt lat="42.472936" lon="0.869696">
        <ele>2178.11</ele>
        <time>2012-06-20T05:41:39Z</time>
      </trkpt>
      <trkpt lat="42.472897" lon="0.869656">
        <ele>2178.33</ele>
        <time>2012-06-20T05:41:44Z</time>
      </trkpt>
      <trkpt lat="42.472888" lon="0.869651">
        <ele>2178.41</ele>
        <time>2012-06-20T05:41:45Z</time>
      </trkpt>
      <trkpt lat="42.472867" lon="0.869626">
        <ele>2178.71</ele>
        <time>2012-06-20T05:41:48Z</time>
      </trkpt>
      <trkpt lat="42.472859" lon="0.869608">
        <ele>2178.85</ele>
        <time>2012-06-20T05:41:50Z</time>
      </trkpt>
      <trkpt lat="42.472827" lon="0.869574">
        <ele>2179.23</ele>
        <time>2012-06-20T05:41:54Z</time>
      </trkpt>
      <trkpt lat="42.472779" lon="0.869499">
        <ele>2179.91</ele>
        <time>2012-06-20T05:42:02Z</time>
      </trkpt>
      <trkpt lat="42.472767" lon="0.869485">
        <ele>2180.32</ele>
        <time>2012-06-20T05:42:04Z</time>
      </trkpt>
      <trkpt lat="42.472756" lon="0.869455">
        <ele>2180.68</ele>
        <time>2012-06-20T05:42:07Z</time>
      </trkpt>
      <trkpt lat="42.472749" lon="0.869414">
        <ele>2180.70</ele>
        <time>2012-06-20T05:42:10Z</time>
      </trkpt>
      <trkpt lat="42.472719" lon="0.869344">
        <ele>2181.27</ele>
        <time>2012-06-20T05:42:16Z</time>
      </trkpt>
      <trkpt lat="42.472705" lon="0.869271">
        <ele>2181.74</ele>
        <time>2012-06-20T05:42:22Z</time>
      </trkpt>
      <trkpt lat="42.472691" lon="0.869238">
        <ele>2181.80</ele>
        <time>2012-06-20T05:42:25Z</time>
      </trkpt>
      <trkpt lat="42.472650" lon="0.869194">
        <ele>2182.42</ele>
        <time>2012-06-20T05:42:29Z</time>
      </trkpt>
      <trkpt lat="42.472632" lon="0.869154">
        <ele>2182.71</ele>
        <time>2012-06-20T05:42:33Z</time>
      </trkpt>
      <trkpt lat="42.472620" lon="0.869138">
        <ele>2182.95</ele>
        <time>2012-06-20T05:42:35Z</time>
      </trkpt>
      <trkpt lat="42.472601" lon="0.869120">
        <ele>2183.38</ele>
        <time>2012-06-20T05:42:38Z</time>
      </trkpt>
      <trkpt lat="42.472573" lon="0.869105">
        <ele>2183.69</ele>
        <time>2012-06-20T05:42:42Z</time>
      </trkpt>
      <trkpt lat="42.472540" lon="0.869092">
        <ele>2184.59</ele>
        <time>2012-06-20T05:42:47Z</time>
      </trkpt>
      <trkpt lat="42.472512" lon="0.869074">
        <ele>2185.42</ele>
        <time>2012-06-20T05:42:51Z</time>
      </trkpt>
      <trkpt lat="42.472496" lon="0.869066">
        <ele>2185.94</ele>
        <time>2012-06-20T05:42:54Z</time>
      </trkpt>
      <trkpt lat="42.472475" lon="0.869040">
        <ele>2186.70</ele>
        <time>2012-06-20T05:42:58Z</time>
      </trkpt>
      <trkpt lat="42.472451" lon="0.869031">
        <ele>2187.20</ele>
        <time>2012-06-20T05:43:01Z</time>
      </trkpt>
      <trkpt lat="42.472442" lon="0.869040">
        <ele>2187.31</ele>
        <time>2012-06-20T05:43:03Z</time>
      </trkpt>
      <trkpt lat="42.472408" lon="0.869048">
        <ele>2187.63</ele>
        <time>2012-06-20T05:43:07Z</time>
      </trkpt>
      <trkpt lat="42.472377" lon="0.869060">
        <ele>2188.21</ele>
        <time>2012-06-20T05:43:10Z</time>
      </trkpt>
      <trkpt lat="42.472356" lon="0.869073">
        <ele>2188.51</ele>
        <time>2012-06-20T05:43:13Z</time>
      </trkpt>
      <trkpt lat="42.472316" lon="0.869107">
        <ele>2189.60</ele>
        <time>2012-06-20T05:43:18Z</time>
      </trkpt>
      <trkpt lat="42.472305" lon="0.869125">
        <ele>2189.86</ele>
        <time>2012-06-20T05:43:20Z</time>
      </trkpt>
      <trkpt lat="42.472289" lon="0.869134">
        <ele>2190.41</ele>
        <time>2012-06-20T05:43:23Z</time>
      </trkpt>
      <trkpt lat="42.472266" lon="0.869158">
        <ele>2190.71</ele>
        <time>2012-06-20T05:43:27Z</time>
      </trkpt>
      <trkpt lat="42.472257" lon="0.869177">
        <ele>2190.92</ele>
        <time>2012-06-20T05:43:29Z</time>
      </trkpt>
      <trkpt lat="42.472241" lon="0.869195">
        <ele>2191.34</ele>
        <time>2012-06-20T05:43:32Z</time>
      </trkpt>
      <trkpt lat="42.472231" lon="0.869210">
        <ele>2191.60</ele>
        <time>2012-06-20T05:43:34Z</time>
      </trkpt>
      <trkpt lat="42.472223" lon="0.869243">
        <ele>2192.02</ele>
        <time>2012-06-20T05:43:37Z</time>
      </trkpt>
      <trkpt lat="42.472196" lon="0.869308">
        <ele>2192.82</ele>
        <time>2012-06-20T05:43:44Z</time>
      </trkpt>
      <trkpt lat="42.472183" lon="0.869333">
        <ele>2193.41</ele>
        <time>2012-06-20T05:43:47Z</time>
      </trkpt>
      <trkpt lat="42.472163" lon="0.869363">
        <ele>2194.15</ele>
        <time>2012-06-20T05:43:51Z</time>
      </trkpt>
      <trkpt lat="42.472133" lon="0.869385">
        <ele>2195.00</ele>
        <time>2012-06-20T05:43:56Z</time>
      </trkpt>
      <trkpt lat="42.472122" lon="0.869398">
        <ele>2195.24</ele>
        <time>2012-06-20T05:43:58Z</time>
      </trkpt>
      <trkpt lat="42.472100" lon="0.869398">
        <ele>2195.58</ele>
        <time>2012-06-20T05:44:01Z</time>
      </trkpt>
      <trkpt lat="42.472085" lon="0.869379">
        <ele>2195.97</ele>
        <time>2012-06-20T05:44:05Z</time>
      </trkpt>
      <trkpt lat="42.472053" lon="0.869401">
        <ele>2196.66</ele>
        <time>2012-06-20T05:44:10Z</time>
      </trkpt>
      <trkpt lat="42.472033" lon="0.869406">
        <ele>2197.03</ele>
        <time>2012-06-20T05:44:13Z</time>
      </trkpt>
      <trkpt lat="42.472004" lon="0.869394">
        <ele>2197.33</ele>
        <time>2012-06-20T05:44:17Z</time>
      </trkpt>
      <trkpt lat="42.471982" lon="0.869397">
        <ele>2197.99</ele>
        <time>2012-06-20T05:44:20Z</time>
      </trkpt>
      <trkpt lat="42.471927" lon="0.869414">
        <ele>2199.02</ele>
        <time>2012-06-20T05:44:28Z</time>
      </trkpt>
      <trkpt lat="42.471905" lon="0.869412">
        <ele>2198.91</ele>
        <time>2012-06-20T05:44:31Z</time>
      </trkpt>
      <trkpt lat="42.471876" lon="0.869401">
        <ele>2199.28</ele>
        <time>2012-06-20T05:44:35Z</time>
      </trkpt>
      <trkpt lat="42.471852" lon="0.869408">
        <ele>2199.99</ele>
        <time>2012-06-20T05:44:39Z</time>
      </trkpt>
      <trkpt lat="42.471814" lon="0.869426">
        <ele>2201.14</ele>
        <time>2012-06-20T05:44:46Z</time>
      </trkpt>
      <trkpt lat="42.471788" lon="0.869424">
        <ele>2201.79</ele>
        <time>2012-06-20T05:44:50Z</time>
      </trkpt>
      <trkpt lat="42.471763" lon="0.869431">
        <ele>2202.42</ele>
        <time>2012-06-20T05:44:54Z</time>
      </trkpt>
      <trkpt lat="42.471728" lon="0.869435">
        <ele>2202.97</ele>
        <time>2012-06-20T05:44:59Z</time>
      </trkpt>
      <trkpt lat="42.471703" lon="0.869460">
        <ele>2203.79</ele>
        <time>2012-06-20T05:45:03Z</time>
      </trkpt>
      <trkpt lat="42.471681" lon="0.869470">
        <ele>2204.04</ele>
        <time>2012-06-20T05:45:06Z</time>
      </trkpt>
      <trkpt lat="42.471658" lon="0.869485">
        <ele>2204.46</ele>
        <time>2012-06-20T05:45:10Z</time>
      </trkpt>
      <trkpt lat="42.471625" lon="0.869487">
        <ele>2205.61</ele>
        <time>2012-06-20T05:45:17Z</time>
      </trkpt>
      <trkpt lat="42.471604" lon="0.869501">
        <ele>2206.21</ele>
        <time>2012-06-20T05:45:21Z</time>
      </trkpt>
      <trkpt lat="42.471582" lon="0.869488">
        <ele>2206.54</ele>
        <time>2012-06-20T05:45:25Z</time>
      </trkpt>
      <trkpt lat="42.471563" lon="0.869483">
        <ele>2206.85</ele>
        <time>2012-06-20T05:45:28Z</time>
      </trkpt>
      <trkpt lat="42.471545" lon="0.869508">
        <ele>2207.58</ele>
        <time>2012-06-20T05:45:32Z</time>
      </trkpt>
      <trkpt lat="42.471527" lon="0.869540">
        <ele>2208.40</ele>
        <time>2012-06-20T05:45:37Z</time>
      </trkpt>
      <trkpt lat="42.471508" lon="0.869537">
        <ele>2209.07</ele>
        <time>2012-06-20T05:45:41Z</time>
      </trkpt>
      <trkpt lat="42.471492" lon="0.869516">
        <ele>2209.90</ele>
        <time>2012-06-20T05:45:45Z</time>
      </trkpt>
      <trkpt lat="42.471473" lon="0.869522">
        <ele>2210.49</ele>
        <time>2012-06-20T05:45:49Z</time>
      </trkpt>
      <trkpt lat="42.471449" lon="0.869517">
        <ele>2210.86</ele>
        <time>2012-06-20T05:45:54Z</time>
      </trkpt>
      <trkpt lat="42.471431" lon="0.869522">
        <ele>2211.10</ele>
        <time>2012-06-20T05:45:57Z</time>
      </trkpt>
      <trkpt lat="42.471414" lon="0.869535">
        <ele>2211.92</ele>
        <time>2012-06-20T05:46:01Z</time>
      </trkpt>
      <trkpt lat="42.471396" lon="0.869526">
        <ele>2212.61</ele>
        <time>2012-06-20T05:46:06Z</time>
      </trkpt>
      <trkpt lat="42.471385" lon="0.869523">
        <ele>2212.93</ele>
        <time>2012-06-20T05:46:08Z</time>
      </trkpt>
      <trkpt lat="42.471369" lon="0.869525">
        <ele>2213.42</ele>
        <time>2012-06-20T05:46:11Z</time>
      </trkpt>
      <trkpt lat="42.471362" lon="0.869537">
        <ele>2213.03</ele>
        <time>2012-06-20T05:46:13Z</time>
      </trkpt>
      <trkpt lat="42.471358" lon="0.869579">
        <ele>2213.88</ele>
        <time>2012-06-20T05:46:17Z</time>
      </trkpt>
      <trkpt lat="42.471362" lon="0.869603">
        <ele>2213.89</ele>
        <time>2012-06-20T05:46:19Z</time>
      </trkpt>
      <trkpt lat="42.471357" lon="0.869618">
        <ele>2214.40</ele>
        <time>2012-06-20T05:46:22Z</time>
      </trkpt>
      <trkpt lat="42.471340" lon="0.869609">
        <ele>2214.94</ele>
        <time>2012-06-20T05:46:26Z</time>
      </trkpt>
      <trkpt lat="42.471320" lon="0.869625">
        <ele>2215.65</ele>
        <time>2012-06-20T05:46:30Z</time>
      </trkpt>
      <trkpt lat="42.471312" lon="0.869648">
        <ele>2216.20</ele>
        <time>2012-06-20T05:46:33Z</time>
      </trkpt>
      <trkpt lat="42.471284" lon="0.869631">
        <ele>2217.02</ele>
        <time>2012-06-20T05:46:38Z</time>
      </trkpt>
      <trkpt lat="42.471267" lon="0.869609">
        <ele>2217.51</ele>
        <time>2012-06-20T05:46:42Z</time>
      </trkpt>
      <trkpt lat="42.471257" lon="0.869599">
        <ele>2217.85</ele>
        <time>2012-06-20T05:46:44Z</time>
      </trkpt>
      <trkpt lat="42.471226" lon="0.869540">
        <ele>2218.93</ele>
        <time>2012-06-20T05:46:53Z</time>
      </trkpt>
      <trkpt lat="42.471192" lon="0.869554">
        <ele>2220.17</ele>
        <time>2012-06-20T05:46:59Z</time>
      </trkpt>
      <trkpt lat="42.471170" lon="0.869551">
        <ele>2220.66</ele>
        <time>2012-06-20T05:47:04Z</time>
      </trkpt>
      <trkpt lat="42.471142" lon="0.869559">
        <ele>2220.97</ele>
        <time>2012-06-20T05:47:08Z</time>
      </trkpt>
      <trkpt lat="42.471116" lon="0.869550">
        <ele>2222.00</ele>
        <time>2012-06-20T05:47:14Z</time>
      </trkpt>
      <trkpt lat="42.471118" lon="0.869526">
        <ele>2222.11</ele>
        <time>2012-06-20T05:47:29Z</time>
      </trkpt>
      <trkpt lat="42.471085" lon="0.869492">
        <ele>2223.18</ele>
        <time>2012-06-20T05:47:36Z</time>
      </trkpt>
      <trkpt lat="42.471070" lon="0.869486">
        <ele>2223.86</ele>
        <time>2012-06-20T05:47:39Z</time>
      </trkpt>
      <trkpt lat="42.471037" lon="0.869478">
        <ele>2224.22</ele>
        <time>2012-06-20T05:47:44Z</time>
      </trkpt>
      <trkpt lat="42.471018" lon="0.869457">
        <ele>2224.91</ele>
        <time>2012-06-20T05:47:47Z</time>
      </trkpt>
      <trkpt lat="42.470985" lon="0.869378">
        <ele>2225.92</ele>
        <time>2012-06-20T05:47:57Z</time>
      </trkpt>
      <trkpt lat="42.470975" lon="0.869359">
        <ele>2226.17</ele>
        <time>2012-06-20T05:47:59Z</time>
      </trkpt>
      <trkpt lat="42.470950" lon="0.869338">
        <ele>2226.99</ele>
        <time>2012-06-20T05:48:03Z</time>
      </trkpt>
      <trkpt lat="42.470921" lon="0.869321">
        <ele>2227.52</ele>
        <time>2012-06-20T05:48:07Z</time>
      </trkpt>
      <trkpt lat="42.470904" lon="0.869300">
        <ele>2227.92</ele>
        <time>2012-06-20T05:48:10Z</time>
      </trkpt>
      <trkpt lat="42.470890" lon="0.869262">
        <ele>2228.64</ele>
        <time>2012-06-20T05:48:14Z</time>
      </trkpt>
      <trkpt lat="42.470880" lon="0.869246">
        <ele>2229.01</ele>
        <time>2012-06-20T05:48:16Z</time>
      </trkpt>
      <trkpt lat="42.470857" lon="0.869187">
        <ele>2230.09</ele>
        <time>2012-06-20T05:48:25Z</time>
      </trkpt>
      <trkpt lat="42.470841" lon="0.869154">
        <ele>2230.76</ele>
        <time>2012-06-20T05:48:29Z</time>
      </trkpt>
      <trkpt lat="42.470809" lon="0.869147">
        <ele>2231.33</ele>
        <time>2012-06-20T05:48:33Z</time>
      </trkpt>
      <trkpt lat="42.470793" lon="0.869139">
        <ele>2231.51</ele>
        <time>2012-06-20T05:48:37Z</time>
      </trkpt>
      <trkpt lat="42.470794" lon="0.869114">
        <ele>2231.71</ele>
        <time>2012-06-20T05:48:41Z</time>
      </trkpt>
      <trkpt lat="42.470788" lon="0.869100">
        <ele>2231.86</ele>
        <time>2012-06-20T05:48:43Z</time>
      </trkpt>
      <trkpt lat="42.470772" lon="0.869017">
        <ele>2232.90</ele>
        <time>2012-06-20T05:48:52Z</time>
      </trkpt>
      <trkpt lat="42.470769" lon="0.868983">
        <ele>2232.99</ele>
        <time>2012-06-20T05:48:55Z</time>
      </trkpt>
      <trkpt lat="42.470771" lon="0.868951">
        <ele>2233.22</ele>
        <time>2012-06-20T05:48:58Z</time>
      </trkpt>
      <trkpt lat="42.470779" lon="0.868909">
        <ele>2233.92</ele>
        <time>2012-06-20T05:49:03Z</time>
      </trkpt>
      <trkpt lat="42.470779" lon="0.868869">
        <ele>2234.37</ele>
        <time>2012-06-20T05:49:06Z</time>
      </trkpt>
      <trkpt lat="42.470785" lon="0.868830">
        <ele>2234.75</ele>
        <time>2012-06-20T05:49:10Z</time>
      </trkpt>
      <trkpt lat="42.470785" lon="0.868814">
        <ele>2235.10</ele>
        <time>2012-06-20T05:49:12Z</time>
      </trkpt>
      <trkpt lat="42.470746" lon="0.868699">
        <ele>2235.91</ele>
        <time>2012-06-20T05:49:23Z</time>
      </trkpt>
      <trkpt lat="42.470729" lon="0.868674">
        <ele>2236.11</ele>
        <time>2012-06-20T05:49:26Z</time>
      </trkpt>
      <trkpt lat="42.470715" lon="0.868667">
        <ele>2236.36</ele>
        <time>2012-06-20T05:49:28Z</time>
      </trkpt>
      <trkpt lat="42.470707" lon="0.868677">
        <ele>2236.42</ele>
        <time>2012-06-20T05:49:37Z</time>
      </trkpt>
      <trkpt lat="42.470700" lon="0.868660">
        <ele>2236.79</ele>
        <time>2012-06-20T05:49:41Z</time>
      </trkpt>
      <trkpt lat="42.470660" lon="0.868625">
        <ele>2237.23</ele>
        <time>2012-06-20T05:49:46Z</time>
      </trkpt>
      <trkpt lat="42.470639" lon="0.868585">
        <ele>2238.00</ele>
        <time>2012-06-20T05:49:50Z</time>
      </trkpt>
      <trkpt lat="42.470612" lon="0.868553">
        <ele>2238.19</ele>
        <time>2012-06-20T05:49:54Z</time>
      </trkpt>
      <trkpt lat="42.470598" lon="0.868545">
        <ele>2238.37</ele>
        <time>2012-06-20T05:49:56Z</time>
      </trkpt>
      <trkpt lat="42.470575" lon="0.868520">
        <ele>2239.06</ele>
        <time>2012-06-20T05:50:00Z</time>
      </trkpt>
      <trkpt lat="42.470550" lon="0.868507">
        <ele>2239.20</ele>
        <time>2012-06-20T05:50:04Z</time>
      </trkpt>
      <trkpt lat="42.470483" lon="0.868503">
        <ele>2240.52</ele>
        <time>2012-06-20T05:50:11Z</time>
      </trkpt>
      <trkpt lat="42.470464" lon="0.868493">
        <ele>2240.91</ele>
        <time>2012-06-20T05:50:14Z</time>
      </trkpt>
      <trkpt lat="42.470448" lon="0.868492">
        <ele>2241.19</ele>
        <time>2012-06-20T05:50:16Z</time>
      </trkpt>
      <trkpt lat="42.470419" lon="0.868486">
        <ele>2241.41</ele>
        <time>2012-06-20T05:50:20Z</time>
      </trkpt>
      <trkpt lat="42.470369" lon="0.868483">
        <ele>2242.11</ele>
        <time>2012-06-20T05:50:27Z</time>
      </trkpt>
      <trkpt lat="42.470334" lon="0.868492">
        <ele>2243.32</ele>
        <time>2012-06-20T05:50:32Z</time>
      </trkpt>
      <trkpt lat="42.470277" lon="0.868513">
        <ele>2244.00</ele>
        <time>2012-06-20T05:50:39Z</time>
      </trkpt>
      <trkpt lat="42.470244" lon="0.868520">
        <ele>2244.14</ele>
        <time>2012-06-20T05:50:43Z</time>
      </trkpt>
      <trkpt lat="42.470230" lon="0.868526">
        <ele>2244.59</ele>
        <time>2012-06-20T05:50:45Z</time>
      </trkpt>
      <trkpt lat="42.470166" lon="0.868529">
        <ele>2245.20</ele>
        <time>2012-06-20T05:50:53Z</time>
      </trkpt>
      <trkpt lat="42.470132" lon="0.868546">
        <ele>2245.92</ele>
        <time>2012-06-20T05:50:57Z</time>
      </trkpt>
      <trkpt lat="42.470097" lon="0.868571">
        <ele>2246.33</ele>
        <time>2012-06-20T05:51:01Z</time>
      </trkpt>
      <trkpt lat="42.470060" lon="0.868580">
        <ele>2247.01</ele>
        <time>2012-06-20T05:51:06Z</time>
      </trkpt>
      <trkpt lat="42.469997" lon="0.868603">
        <ele>2248.04</ele>
        <time>2012-06-20T05:51:15Z</time>
      </trkpt>
      <trkpt lat="42.469965" lon="0.868612">
        <ele>2248.18</ele>
        <time>2012-06-20T05:51:19Z</time>
      </trkpt>
      <trkpt lat="42.469946" lon="0.868629">
        <ele>2248.43</ele>
        <time>2012-06-20T05:51:23Z</time>
      </trkpt>
      <trkpt lat="42.469931" lon="0.868638">
        <ele>2248.73</ele>
        <time>2012-06-20T05:51:25Z</time>
      </trkpt>
      <trkpt lat="42.469895" lon="0.868656">
        <ele>2249.17</ele>
        <time>2012-06-20T05:51:31Z</time>
      </trkpt>
      <trkpt lat="42.469867" lon="0.868682">
        <ele>2249.93</ele>
        <time>2012-06-20T05:51:36Z</time>
      </trkpt>
      <trkpt lat="42.469853" lon="0.868692">
        <ele>2249.64</ele>
        <time>2012-06-20T05:51:38Z</time>
      </trkpt>
      <trkpt lat="42.469762" lon="0.868739">
        <ele>2250.07</ele>
        <time>2012-06-20T05:51:47Z</time>
      </trkpt>
      <trkpt lat="42.469621" lon="0.868792">
        <ele>2250.74</ele>
        <time>2012-06-20T05:52:02Z</time>
      </trkpt>
      <trkpt lat="42.469568" lon="0.868789">
        <ele>2250.72</ele>
        <time>2012-06-20T05:52:07Z</time>
      </trkpt>
      <trkpt lat="42.469479" lon="0.868828">
        <ele>2251.01</ele>
        <time>2012-06-20T05:52:16Z</time>
      </trkpt>
      <trkpt lat="42.469450" lon="0.868834">
        <ele>2251.23</ele>
        <time>2012-06-20T05:52:19Z</time>
      </trkpt>
      <trkpt lat="42.469426" lon="0.868853">
        <ele>2251.80</ele>
        <time>2012-06-20T05:52:22Z</time>
      </trkpt>
      <trkpt lat="42.469393" lon="0.868889">
        <ele>2252.00</ele>
        <time>2012-06-20T05:52:27Z</time>
      </trkpt>
      <trkpt lat="42.469362" lon="0.868906">
        <ele>2252.79</ele>
        <time>2012-06-20T05:52:31Z</time>
      </trkpt>
      <trkpt lat="42.469345" lon="0.868937">
        <ele>2253.60</ele>
        <time>2012-06-20T05:52:35Z</time>
      </trkpt>
      <trkpt lat="42.469322" lon="0.868953">
        <ele>2253.83</ele>
        <time>2012-06-20T05:52:39Z</time>
      </trkpt>
      <trkpt lat="42.469305" lon="0.868950">
        <ele>2254.16</ele>
        <time>2012-06-20T05:52:41Z</time>
      </trkpt>
      <trkpt lat="42.469276" lon="0.868967">
        <ele>2254.78</ele>
        <time>2012-06-20T05:52:45Z</time>
      </trkpt>
      <trkpt lat="42.469254" lon="0.868983">
        <ele>2255.51</ele>
        <time>2012-06-20T05:52:48Z</time>
      </trkpt>
      <trkpt lat="42.469237" lon="0.868999">
        <ele>2255.63</ele>
        <time>2012-06-20T05:52:50Z</time>
      </trkpt>
      <trkpt lat="42.469214" lon="0.869023">
        <ele>2256.31</ele>
        <time>2012-06-20T05:52:55Z</time>
      </trkpt>
      <trkpt lat="42.469172" lon="0.869045">
        <ele>2257.28</ele>
        <time>2012-06-20T05:53:02Z</time>
      </trkpt>
      <trkpt lat="42.469159" lon="0.869067">
        <ele>2257.56</ele>
        <time>2012-06-20T05:53:05Z</time>
      </trkpt>
      <trkpt lat="42.469132" lon="0.869094">
        <ele>2258.49</ele>
        <time>2012-06-20T05:53:09Z</time>
      </trkpt>
      <trkpt lat="42.469114" lon="0.869137">
        <ele>2258.85</ele>
        <time>2012-06-20T05:53:13Z</time>
      </trkpt>
      <trkpt lat="42.469100" lon="0.869167">
        <ele>2259.13</ele>
        <time>2012-06-20T05:53:18Z</time>
      </trkpt>
      <trkpt lat="42.469072" lon="0.869171">
        <ele>2259.56</ele>
        <time>2012-06-20T05:53:22Z</time>
      </trkpt>
      <trkpt lat="42.469046" lon="0.869191">
        <ele>2259.91</ele>
        <time>2012-06-20T05:53:26Z</time>
      </trkpt>
      <trkpt lat="42.469012" lon="0.869203">
        <ele>2260.53</ele>
        <time>2012-06-20T05:53:30Z</time>
      </trkpt>
      <trkpt lat="42.468989" lon="0.869231">
        <ele>2261.00</ele>
        <time>2012-06-20T05:53:34Z</time>
      </trkpt>
      <trkpt lat="42.468971" lon="0.869248">
        <ele>2261.32</ele>
        <time>2012-06-20T05:53:37Z</time>
      </trkpt>
      <trkpt lat="42.468960" lon="0.869299">
        <ele>2261.81</ele>
        <time>2012-06-20T05:53:41Z</time>
      </trkpt>
      <trkpt lat="42.468933" lon="0.869325">
        <ele>2262.44</ele>
        <time>2012-06-20T05:53:45Z</time>
      </trkpt>
      <trkpt lat="42.468909" lon="0.869352">
        <ele>2262.74</ele>
        <time>2012-06-20T05:53:49Z</time>
      </trkpt>
      <trkpt lat="42.468870" lon="0.869376">
        <ele>2263.63</ele>
        <time>2012-06-20T05:53:54Z</time>
      </trkpt>
      <trkpt lat="42.468852" lon="0.869394">
        <ele>2264.25</ele>
        <time>2012-06-20T05:53:58Z</time>
      </trkpt>
      <trkpt lat="42.468837" lon="0.869406">
        <ele>2264.65</ele>
        <time>2012-06-20T05:54:00Z</time>
      </trkpt>
      <trkpt lat="42.468816" lon="0.869431">
        <ele>2264.82</ele>
        <time>2012-06-20T05:54:03Z</time>
      </trkpt>
      <trkpt lat="42.468771" lon="0.869470">
        <ele>2266.37</ele>
        <time>2012-06-20T05:54:13Z</time>
      </trkpt>
      <trkpt lat="42.468759" lon="0.869481">
        <ele>2266.35</ele>
        <time>2012-06-20T05:54:15Z</time>
      </trkpt>
      <trkpt lat="42.468743" lon="0.869496">
        <ele>2266.30</ele>
        <time>2012-06-20T05:54:18Z</time>
      </trkpt>
      <trkpt lat="42.468702" lon="0.869525">
        <ele>2267.01</ele>
        <time>2012-06-20T05:54:23Z</time>
      </trkpt>
      <trkpt lat="42.468686" lon="0.869534">
        <ele>2267.11</ele>
        <time>2012-06-20T05:54:25Z</time>
      </trkpt>
      <trkpt lat="42.468657" lon="0.869568">
        <ele>2267.52</ele>
        <time>2012-06-20T05:54:29Z</time>
      </trkpt>
      <trkpt lat="42.468650" lon="0.869571">
        <ele>2267.75</ele>
        <time>2012-06-20T05:54:30Z</time>
      </trkpt>
      <trkpt lat="42.468606" lon="0.869619">
        <ele>2268.05</ele>
        <time>2012-06-20T05:54:37Z</time>
      </trkpt>
      <trkpt lat="42.468585" lon="0.869625">
        <ele>2268.32</ele>
        <time>2012-06-20T05:54:40Z</time>
      </trkpt>
      <trkpt lat="42.468575" lon="0.869634">
        <ele>2268.78</ele>
        <time>2012-06-20T05:54:42Z</time>
      </trkpt>
      <trkpt lat="42.468538" lon="0.869654">
        <ele>2269.52</ele>
        <time>2012-06-20T05:54:49Z</time>
      </trkpt>
      <trkpt lat="42.468513" lon="0.869658">
        <ele>2270.02</ele>
        <time>2012-06-20T05:54:53Z</time>
      </trkpt>
      <trkpt lat="42.468494" lon="0.869675">
        <ele>2270.21</ele>
        <time>2012-06-20T05:54:56Z</time>
      </trkpt>
      <trkpt lat="42.468482" lon="0.869684">
        <ele>2270.23</ele>
        <time>2012-06-20T05:54:57Z</time>
      </trkpt>
      <trkpt lat="42.468456" lon="0.869696">
        <ele>2270.61</ele>
        <time>2012-06-20T05:55:00Z</time>
      </trkpt>
      <trkpt lat="42.468438" lon="0.869700">
        <ele>2271.31</ele>
        <time>2012-06-20T05:55:02Z</time>
      </trkpt>
      <trkpt lat="42.468408" lon="0.869712">
        <ele>2271.65</ele>
        <time>2012-06-20T05:55:05Z</time>
      </trkpt>
      <trkpt lat="42.468388" lon="0.869716">
        <ele>2271.82</ele>
        <time>2012-06-20T05:55:08Z</time>
      </trkpt>
      <trkpt lat="42.468353" lon="0.869727">
        <ele>2272.07</ele>
        <time>2012-06-20T05:55:12Z</time>
      </trkpt>
      <trkpt lat="42.468310" lon="0.869732">
        <ele>2272.45</ele>
        <time>2012-06-20T05:55:17Z</time>
      </trkpt>
      <trkpt lat="42.468296" lon="0.869744">
        <ele>2272.74</ele>
        <time>2012-06-20T05:55:19Z</time>
      </trkpt>
      <trkpt lat="42.468255" lon="0.869767">
        <ele>2273.26</ele>
        <time>2012-06-20T05:55:24Z</time>
      </trkpt>
      <trkpt lat="42.468241" lon="0.869786">
        <ele>2273.63</ele>
        <time>2012-06-20T05:55:30Z</time>
      </trkpt>
      <trkpt lat="42.468244" lon="0.869781">
        <ele>2273.16</ele>
        <time>2012-06-20T05:55:35Z</time>
      </trkpt>
      <trkpt lat="42.468258" lon="0.869776">
        <ele>2273.02</ele>
        <time>2012-06-20T05:55:38Z</time>
      </trkpt>
      <trkpt lat="42.468207" lon="0.869786">
        <ele>2273.31</ele>
        <time>2012-06-20T05:55:46Z</time>
      </trkpt>
      <trkpt lat="42.468167" lon="0.869806">
        <ele>2274.01</ele>
        <time>2012-06-20T05:55:51Z</time>
      </trkpt>
      <trkpt lat="42.468104" lon="0.869821">
        <ele>2274.73</ele>
        <time>2012-06-20T05:55:57Z</time>
      </trkpt>
      <trkpt lat="42.468037" lon="0.869852">
        <ele>2274.97</ele>
        <time>2012-06-20T05:56:04Z</time>
      </trkpt>
      <trkpt lat="42.468008" lon="0.869861">
        <ele>2275.28</ele>
        <time>2012-06-20T05:56:08Z</time>
      </trkpt>
      <trkpt lat="42.467975" lon="0.869882">
        <ele>2275.99</ele>
        <time>2012-06-20T05:56:13Z</time>
      </trkpt>
      <trkpt lat="42.467950" lon="0.869904">
        <ele>2276.17</ele>
        <time>2012-06-20T05:56:16Z</time>
      </trkpt>
      <trkpt lat="42.467936" lon="0.869919">
        <ele>2276.27</ele>
        <time>2012-06-20T05:56:19Z</time>
      </trkpt>
      <trkpt lat="42.467888" lon="0.869946">
        <ele>2276.54</ele>
        <time>2012-06-20T05:56:25Z</time>
      </trkpt>
      <trkpt lat="42.467826" lon="0.869960">
        <ele>2277.55</ele>
        <time>2012-06-20T05:56:30Z</time>
      </trkpt>
      <trkpt lat="42.467805" lon="0.869971">
        <ele>2277.70</ele>
        <time>2012-06-20T05:56:32Z</time>
      </trkpt>
      <trkpt lat="42.467796" lon="0.869990">
        <ele>2277.91</ele>
        <time>2012-06-20T05:56:34Z</time>
      </trkpt>
      <trkpt lat="42.467751" lon="0.870029">
        <ele>2278.31</ele>
        <time>2012-06-20T05:56:40Z</time>
      </trkpt>
      <trkpt lat="42.467727" lon="0.870060">
        <ele>2278.65</ele>
        <time>2012-06-20T05:56:44Z</time>
      </trkpt>
      <trkpt lat="42.467703" lon="0.870063">
        <ele>2279.02</ele>
        <time>2012-06-20T05:56:46Z</time>
      </trkpt>
      <trkpt lat="42.467685" lon="0.870079">
        <ele>2279.22</ele>
        <time>2012-06-20T05:56:51Z</time>
      </trkpt>
      <trkpt lat="42.467679" lon="0.870098">
        <ele>2279.17</ele>
        <time>2012-06-20T05:56:55Z</time>
      </trkpt>
      <trkpt lat="42.467641" lon="0.870110">
        <ele>2279.74</ele>
        <time>2012-06-20T05:57:02Z</time>
      </trkpt>
      <trkpt lat="42.467600" lon="0.870150">
        <ele>2280.42</ele>
        <time>2012-06-20T05:57:08Z</time>
      </trkpt>
      <trkpt lat="42.467494" lon="0.870164">
        <ele>2280.93</ele>
        <time>2012-06-20T05:57:19Z</time>
      </trkpt>
      <trkpt lat="42.467485" lon="0.870161">
        <ele>2281.20</ele>
        <time>2012-06-20T05:57:20Z</time>
      </trkpt>
      <trkpt lat="42.467406" lon="0.870142">
        <ele>2281.71</ele>
        <time>2012-06-20T05:57:29Z</time>
      </trkpt>
      <trkpt lat="42.467373" lon="0.870139">
        <ele>2282.03</ele>
        <time>2012-06-20T05:57:33Z</time>
      </trkpt>
      <trkpt lat="42.467343" lon="0.870148">
        <ele>2281.91</ele>
        <time>2012-06-20T05:57:36Z</time>
      </trkpt>
      <trkpt lat="42.467338" lon="0.870162">
        <ele>2282.13</ele>
        <time>2012-06-20T05:57:42Z</time>
      </trkpt>
      <trkpt lat="42.467338" lon="0.870160">
        <ele>2282.27</ele>
        <time>2012-06-20T05:57:53Z</time>
      </trkpt>
      <trkpt lat="42.467313" lon="0.870167">
        <ele>2282.38</ele>
        <time>2012-06-20T05:57:57Z</time>
      </trkpt>
      <trkpt lat="42.467290" lon="0.870144">
        <ele>2282.36</ele>
        <time>2012-06-20T05:58:02Z</time>
      </trkpt>
      <trkpt lat="42.467282" lon="0.870146">
        <ele>2282.33</ele>
        <time>2012-06-20T05:58:05Z</time>
      </trkpt>
      <trkpt lat="42.467281" lon="0.870154">
        <ele>2282.21</ele>
        <time>2012-06-20T05:58:09Z</time>
      </trkpt>
      <trkpt lat="42.467277" lon="0.870152">
        <ele>2282.09</ele>
        <time>2012-06-20T05:58:20Z</time>
      </trkpt>
      <trkpt lat="42.467286" lon="0.870141">
        <ele>2281.82</ele>
        <time>2012-06-20T05:58:25Z</time>
      </trkpt>
      <trkpt lat="42.467249" lon="0.870128">
        <ele>2281.98</ele>
        <time>2012-06-20T05:58:31Z</time>
      </trkpt>
      <trkpt lat="42.467249" lon="0.870142">
        <ele>2281.81</ele>
        <time>2012-06-20T05:58:35Z</time>
      </trkpt>
      <trkpt lat="42.467232" lon="0.870135">
        <ele>2281.61</ele>
        <time>2012-06-20T05:58:44Z</time>
      </trkpt>
      <trkpt lat="42.467204" lon="0.870134">
        <ele>2281.81</ele>
        <time>2012-06-20T05:58:49Z</time>
      </trkpt>
      <trkpt lat="42.467169" lon="0.870124">
        <ele>2281.92</ele>
        <time>2012-06-20T05:58:53Z</time>
      </trkpt>
      <trkpt lat="42.467150" lon="0.870122">
        <ele>2281.71</ele>
        <time>2012-06-20T05:58:55Z</time>
      </trkpt>
      <trkpt lat="42.467123" lon="0.870110">
        <ele>2282.06</ele>
        <time>2012-06-20T05:59:01Z</time>
      </trkpt>
      <trkpt lat="42.467129" lon="0.870107">
        <ele>2282.23</ele>
        <time>2012-06-20T05:59:07Z</time>
      </trkpt>
      <trkpt lat="42.467100" lon="0.870103">
        <ele>2282.15</ele>
        <time>2012-06-20T05:59:11Z</time>
      </trkpt>
      <trkpt lat="42.467101" lon="0.870097">
        <ele>2281.54</ele>
        <time>2012-06-20T05:59:21Z</time>
      </trkpt>
      <trkpt lat="42.467094" lon="0.870096">
        <ele>2281.63</ele>
        <time>2012-06-20T05:59:22Z</time>
      </trkpt>
      <trkpt lat="42.467060" lon="0.870077">
        <ele>2281.85</ele>
        <time>2012-06-20T05:59:27Z</time>
      </trkpt>
      <trkpt lat="42.467045" lon="0.870073">
        <ele>2282.11</ele>
        <time>2012-06-20T05:59:29Z</time>
      </trkpt>
      <trkpt lat="42.467028" lon="0.870052">
        <ele>2282.91</ele>
        <time>2012-06-20T05:59:38Z</time>
      </trkpt>
      <trkpt lat="42.466998" lon="0.870021">
        <ele>2282.83</ele>
        <time>2012-06-20T05:59:45Z</time>
      </trkpt>
      <trkpt lat="42.466944" lon="0.869973">
        <ele>2283.31</ele>
        <time>2012-06-20T05:59:51Z</time>
      </trkpt>
      <trkpt lat="42.466898" lon="0.869943">
        <ele>2283.64</ele>
        <time>2012-06-20T05:59:56Z</time>
      </trkpt>
      <trkpt lat="42.466886" lon="0.869928">
        <ele>2283.63</ele>
        <time>2012-06-20T05:59:58Z</time>
      </trkpt>
      <trkpt lat="42.466867" lon="0.869914">
        <ele>2283.83</ele>
        <time>2012-06-20T06:00:00Z</time>
      </trkpt>
      <trkpt lat="42.466784" lon="0.869877">
        <ele>2285.00</ele>
        <time>2012-06-20T06:00:10Z</time>
      </trkpt>
      <trkpt lat="42.466763" lon="0.869861">
        <ele>2285.14</ele>
        <time>2012-06-20T06:00:13Z</time>
      </trkpt>
      <trkpt lat="42.466735" lon="0.869846">
        <ele>2285.74</ele>
        <time>2012-06-20T06:00:17Z</time>
      </trkpt>
      <trkpt lat="42.466723" lon="0.869829">
        <ele>2285.82</ele>
        <time>2012-06-20T06:00:19Z</time>
      </trkpt>
      <trkpt lat="42.466661" lon="0.869788">
        <ele>2286.81</ele>
        <time>2012-06-20T06:00:27Z</time>
      </trkpt>
      <trkpt lat="42.466634" lon="0.869765">
        <ele>2287.21</ele>
        <time>2012-06-20T06:00:31Z</time>
      </trkpt>
      <trkpt lat="42.466605" lon="0.869759">
        <ele>2287.78</ele>
        <time>2012-06-20T06:00:35Z</time>
      </trkpt>
      <trkpt lat="42.466592" lon="0.869731">
        <ele>2288.59</ele>
        <time>2012-06-20T06:00:39Z</time>
      </trkpt>
      <trkpt lat="42.466564" lon="0.869708">
        <ele>2289.18</ele>
        <time>2012-06-20T06:00:44Z</time>
      </trkpt>
      <trkpt lat="42.466538" lon="0.869674">
        <ele>2289.89</ele>
        <time>2012-06-20T06:00:49Z</time>
      </trkpt>
      <trkpt lat="42.466525" lon="0.869622">
        <ele>2290.74</ele>
        <time>2012-06-20T06:00:55Z</time>
      </trkpt>
      <trkpt lat="42.466517" lon="0.869597">
        <ele>2291.14</ele>
        <time>2012-06-20T06:00:58Z</time>
      </trkpt>
      <trkpt lat="42.466483" lon="0.869587">
        <ele>2292.07</ele>
        <time>2012-06-20T06:01:04Z</time>
      </trkpt>
      <trkpt lat="42.466472" lon="0.869547">
        <ele>2292.57</ele>
        <time>2012-06-20T06:01:09Z</time>
      </trkpt>
      <trkpt lat="42.466466" lon="0.869534">
        <ele>2293.03</ele>
        <time>2012-06-20T06:01:12Z</time>
      </trkpt>
      <trkpt lat="42.466468" lon="0.869498">
        <ele>2294.12</ele>
        <time>2012-06-20T06:01:17Z</time>
      </trkpt>
      <trkpt lat="42.466475" lon="0.869475">
        <ele>2294.21</ele>
        <time>2012-06-20T06:01:20Z</time>
      </trkpt>
      <trkpt lat="42.466479" lon="0.869481">
        <ele>2294.76</ele>
        <time>2012-06-20T06:01:28Z</time>
      </trkpt>
      <trkpt lat="42.466472" lon="0.869500">
        <ele>2294.53</ele>
        <time>2012-06-20T06:01:43Z</time>
      </trkpt>
      <trkpt lat="42.466467" lon="0.869503">
        <ele>2294.39</ele>
        <time>2012-06-20T06:01:49Z</time>
      </trkpt>
      <trkpt lat="42.466466" lon="0.869455">
        <ele>2294.67</ele>
        <time>2012-06-20T06:01:54Z</time>
      </trkpt>
      <trkpt lat="42.466470" lon="0.869439">
        <ele>2294.83</ele>
        <time>2012-06-20T06:01:57Z</time>
      </trkpt>
      <trkpt lat="42.466470" lon="0.869428">
        <ele>2294.96</ele>
        <time>2012-06-20T06:02:00Z</time>
      </trkpt>
      <trkpt lat="42.466454" lon="0.869401">
        <ele>2295.44</ele>
        <time>2012-06-20T06:02:05Z</time>
      </trkpt>
      <trkpt lat="42.466443" lon="0.869365">
        <ele>2296.17</ele>
        <time>2012-06-20T06:02:10Z</time>
      </trkpt>
      <trkpt lat="42.466423" lon="0.869365">
        <ele>2296.57</ele>
        <time>2012-06-20T06:02:13Z</time>
      </trkpt>
      <trkpt lat="42.466399" lon="0.869335">
        <ele>2297.11</ele>
        <time>2012-06-20T06:02:18Z</time>
      </trkpt>
      <trkpt lat="42.466388" lon="0.869334">
        <ele>2297.21</ele>
        <time>2012-06-20T06:02:21Z</time>
      </trkpt>
      <trkpt lat="42.466376" lon="0.869312">
        <ele>2297.67</ele>
        <time>2012-06-20T06:02:24Z</time>
      </trkpt>
      <trkpt lat="42.466364" lon="0.869296">
        <ele>2298.32</ele>
        <time>2012-06-20T06:02:29Z</time>
      </trkpt>
      <trkpt lat="42.466341" lon="0.869303">
        <ele>2298.59</ele>
        <time>2012-06-20T06:02:31Z</time>
      </trkpt>
      <trkpt lat="42.466320" lon="0.869305">
        <ele>2299.12</ele>
        <time>2012-06-20T06:02:34Z</time>
      </trkpt>
      <trkpt lat="42.466274" lon="0.869299">
        <ele>2299.50</ele>
        <time>2012-06-20T06:02:39Z</time>
      </trkpt>
      <trkpt lat="42.466244" lon="0.869335">
        <ele>2300.09</ele>
        <time>2012-06-20T06:02:43Z</time>
      </trkpt>
      <trkpt lat="42.466216" lon="0.869347">
        <ele>2300.46</ele>
        <time>2012-06-20T06:02:47Z</time>
      </trkpt>
      <trkpt lat="42.466189" lon="0.869365">
        <ele>2300.91</ele>
        <time>2012-06-20T06:02:52Z</time>
      </trkpt>
      <trkpt lat="42.466157" lon="0.869372">
        <ele>2301.72</ele>
        <time>2012-06-20T06:02:56Z</time>
      </trkpt>
      <trkpt lat="42.466127" lon="0.869371">
        <ele>2302.30</ele>
        <time>2012-06-20T06:03:00Z</time>
      </trkpt>
      <trkpt lat="42.466103" lon="0.869363">
        <ele>2302.71</ele>
        <time>2012-06-20T06:03:03Z</time>
      </trkpt>
      <trkpt lat="42.466088" lon="0.869368">
        <ele>2303.08</ele>
        <time>2012-06-20T06:03:05Z</time>
      </trkpt>
      <trkpt lat="42.466077" lon="0.869389">
        <ele>2303.48</ele>
        <time>2012-06-20T06:03:08Z</time>
      </trkpt>
      <trkpt lat="42.466058" lon="0.869380">
        <ele>2303.78</ele>
        <time>2012-06-20T06:03:12Z</time>
      </trkpt>
      <trkpt lat="42.466039" lon="0.869382">
        <ele>2304.36</ele>
        <time>2012-06-20T06:03:15Z</time>
      </trkpt>
      <trkpt lat="42.466029" lon="0.869359">
        <ele>2304.68</ele>
        <time>2012-06-20T06:03:19Z</time>
      </trkpt>
      <trkpt lat="42.466008" lon="0.869338">
        <ele>2305.78</ele>
        <time>2012-06-20T06:03:26Z</time>
      </trkpt>
      <trkpt lat="42.465978" lon="0.869349">
        <ele>2306.34</ele>
        <time>2012-06-20T06:03:30Z</time>
      </trkpt>
      <trkpt lat="42.465967" lon="0.869340">
        <ele>2306.83</ele>
        <time>2012-06-20T06:03:35Z</time>
      </trkpt>
      <trkpt lat="42.465933" lon="0.869352">
        <ele>2307.47</ele>
        <time>2012-06-20T06:03:41Z</time>
      </trkpt>
      <trkpt lat="42.465906" lon="0.869358">
        <ele>2307.71</ele>
        <time>2012-06-20T06:03:44Z</time>
      </trkpt>
      <trkpt lat="42.465870" lon="0.869376">
        <ele>2307.91</ele>
        <time>2012-06-20T06:03:48Z</time>
      </trkpt>
      <trkpt lat="42.465866" lon="0.869387">
        <ele>2308.15</ele>
        <time>2012-06-20T06:03:50Z</time>
      </trkpt>
      <trkpt lat="42.465851" lon="0.869393">
        <ele>2308.05</ele>
        <time>2012-06-20T06:03:55Z</time>
      </trkpt>
      <trkpt lat="42.465855" lon="0.869405">
        <ele>2307.47</ele>
        <time>2012-06-20T06:04:01Z</time>
      </trkpt>
      <trkpt lat="42.465852" lon="0.869396">
        <ele>2307.68</ele>
        <time>2012-06-20T06:04:10Z</time>
      </trkpt>
      <trkpt lat="42.465864" lon="0.869392">
        <ele>2307.72</ele>
        <time>2012-06-20T06:04:14Z</time>
      </trkpt>
      <trkpt lat="42.465876" lon="0.869405">
        <ele>2307.87</ele>
        <time>2012-06-20T06:04:24Z</time>
      </trkpt>
      <trkpt lat="42.465863" lon="0.869414">
        <ele>2307.70</ele>
        <time>2012-06-20T06:04:31Z</time>
      </trkpt>
      <trkpt lat="42.465860" lon="0.869427">
        <ele>2307.15</ele>
        <time>2012-06-20T06:04:37Z</time>
      </trkpt>
      <trkpt lat="42.465868" lon="0.869433">
        <ele>2307.45</ele>
        <time>2012-06-20T06:04:42Z</time>
      </trkpt>
      <trkpt lat="42.465866" lon="0.869438">
        <ele>2307.41</ele>
        <time>2012-06-20T06:04:46Z</time>
      </trkpt>
      <trkpt lat="42.465858" lon="0.869439">
        <ele>2307.81</ele>
        <time>2012-06-20T06:04:56Z</time>
      </trkpt>
      <trkpt lat="42.465871" lon="0.869440">
        <ele>2307.75</ele>
        <time>2012-06-20T06:05:02Z</time>
      </trkpt>
      <trkpt lat="42.465866" lon="0.869441">
        <ele>2307.53</ele>
        <time>2012-06-20T06:05:21Z</time>
      </trkpt>
      <trkpt lat="42.465878" lon="0.869383">
        <ele>2307.55</ele>
        <time>2012-06-20T06:05:36Z</time>
      </trkpt>
      <trkpt lat="42.465869" lon="0.869397">
        <ele>2307.57</ele>
        <time>2012-06-20T06:06:01Z</time>
      </trkpt>
      <trkpt lat="42.465879" lon="0.869372">
        <ele>2307.54</ele>
        <time>2012-06-20T06:06:09Z</time>
      </trkpt>
      <trkpt lat="42.465876" lon="0.869387">
        <ele>2307.68</ele>
        <time>2012-06-20T06:06:31Z</time>
      </trkpt>
      <trkpt lat="42.465879" lon="0.869361">
        <ele>2308.27</ele>
        <time>2012-06-20T06:07:27Z</time>
      </trkpt>
      <trkpt lat="42.465872" lon="0.869361">
        <ele>2308.48</ele>
        <time>2012-06-20T06:07:35Z</time>
      </trkpt>
      <trkpt lat="42.465867" lon="0.869374">
        <ele>2307.96</ele>
        <time>2012-06-20T06:07:42Z</time>
      </trkpt>
      <trkpt lat="42.465850" lon="0.869401">
        <ele>2308.62</ele>
        <time>2012-06-20T06:07:46Z</time>
      </trkpt>
      <trkpt lat="42.465828" lon="0.869394">
        <ele>2309.21</ele>
        <time>2012-06-20T06:07:50Z</time>
      </trkpt>
      <trkpt lat="42.465796" lon="0.869398">
        <ele>2309.65</ele>
        <time>2012-06-20T06:07:54Z</time>
      </trkpt>
      <trkpt lat="42.465780" lon="0.869393">
        <ele>2310.50</ele>
        <time>2012-06-20T06:07:57Z</time>
      </trkpt>
      <trkpt lat="42.465765" lon="0.869406">
        <ele>2310.73</ele>
        <time>2012-06-20T06:08:00Z</time>
      </trkpt>
      <trkpt lat="42.465758" lon="0.869428">
        <ele>2311.52</ele>
        <time>2012-06-20T06:08:04Z</time>
      </trkpt>
      <trkpt lat="42.465752" lon="0.869430">
        <ele>2312.39</ele>
        <time>2012-06-20T06:08:07Z</time>
      </trkpt>
      <trkpt lat="42.465735" lon="0.869410">
        <ele>2313.01</ele>
        <time>2012-06-20T06:08:10Z</time>
      </trkpt>
      <trkpt lat="42.465679" lon="0.869440">
        <ele>2314.27</ele>
        <time>2012-06-20T06:08:19Z</time>
      </trkpt>
      <trkpt lat="42.465662" lon="0.869505">
        <ele>2315.45</ele>
        <time>2012-06-20T06:08:26Z</time>
      </trkpt>
      <trkpt lat="42.465648" lon="0.869539">
        <ele>2315.89</ele>
        <time>2012-06-20T06:08:29Z</time>
      </trkpt>
      <trkpt lat="42.465629" lon="0.869550">
        <ele>2316.82</ele>
        <time>2012-06-20T06:08:33Z</time>
      </trkpt>
      <trkpt lat="42.465606" lon="0.869544">
        <ele>2317.51</ele>
        <time>2012-06-20T06:08:37Z</time>
      </trkpt>
      <trkpt lat="42.465595" lon="0.869516">
        <ele>2318.82</ele>
        <time>2012-06-20T06:08:41Z</time>
      </trkpt>
      <trkpt lat="42.465571" lon="0.869504">
        <ele>2319.29</ele>
        <time>2012-06-20T06:08:44Z</time>
      </trkpt>
      <trkpt lat="42.465547" lon="0.869502">
        <ele>2319.87</ele>
        <time>2012-06-20T06:08:48Z</time>
      </trkpt>
      <trkpt lat="42.465512" lon="0.869536">
        <ele>2320.66</ele>
        <time>2012-06-20T06:08:53Z</time>
      </trkpt>
      <trkpt lat="42.465498" lon="0.869567">
        <ele>2321.30</ele>
        <time>2012-06-20T06:08:56Z</time>
      </trkpt>
      <trkpt lat="42.465482" lon="0.869577">
        <ele>2321.97</ele>
        <time>2012-06-20T06:08:59Z</time>
      </trkpt>
      <trkpt lat="42.465436" lon="0.869637">
        <ele>2322.82</ele>
        <time>2012-06-20T06:09:07Z</time>
      </trkpt>
      <trkpt lat="42.465427" lon="0.869655">
        <ele>2323.12</ele>
        <time>2012-06-20T06:09:09Z</time>
      </trkpt>
      <trkpt lat="42.465407" lon="0.869678">
        <ele>2323.41</ele>
        <time>2012-06-20T06:09:12Z</time>
      </trkpt>
      <trkpt lat="42.465327" lon="0.869721">
        <ele>2324.02</ele>
        <time>2012-06-20T06:09:20Z</time>
      </trkpt>
      <trkpt lat="42.465284" lon="0.869757">
        <ele>2324.81</ele>
        <time>2012-06-20T06:09:25Z</time>
      </trkpt>
      <trkpt lat="42.465264" lon="0.869778">
        <ele>2325.12</ele>
        <time>2012-06-20T06:09:27Z</time>
      </trkpt>
      <trkpt lat="42.465234" lon="0.869821">
        <ele>2325.85</ele>
        <time>2012-06-20T06:09:32Z</time>
      </trkpt>
      <trkpt lat="42.465219" lon="0.869845">
        <ele>2326.43</ele>
        <time>2012-06-20T06:09:34Z</time>
      </trkpt>
      <trkpt lat="42.465201" lon="0.869892">
        <ele>2327.30</ele>
        <time>2012-06-20T06:09:38Z</time>
      </trkpt>
      <trkpt lat="42.465190" lon="0.869910">
        <ele>2327.64</ele>
        <time>2012-06-20T06:09:40Z</time>
      </trkpt>
      <trkpt lat="42.465182" lon="0.869942">
        <ele>2327.84</ele>
        <time>2012-06-20T06:09:43Z</time>
      </trkpt>
      <trkpt lat="42.465169" lon="0.869949">
        <ele>2327.75</ele>
        <time>2012-06-20T06:09:45Z</time>
      </trkpt>
      <trkpt lat="42.465155" lon="0.869976">
        <ele>2328.38</ele>
        <time>2012-06-20T06:09:48Z</time>
      </trkpt>
      <trkpt lat="42.465148" lon="0.870006">
        <ele>2328.99</ele>
        <time>2012-06-20T06:09:51Z</time>
      </trkpt>
      <trkpt lat="42.465091" lon="0.870080">
        <ele>2330.12</ele>
        <time>2012-06-20T06:09:59Z</time>
      </trkpt>
      <trkpt lat="42.465085" lon="0.870089">
        <ele>2330.11</ele>
        <time>2012-06-20T06:10:00Z</time>
      </trkpt>
      <trkpt lat="42.465059" lon="0.870115">
        <ele>2331.17</ele>
        <time>2012-06-20T06:10:04Z</time>
      </trkpt>
      <trkpt lat="42.464991" lon="0.870192">
        <ele>2332.52</ele>
        <time>2012-06-20T06:10:13Z</time>
      </trkpt>
      <trkpt lat="42.464986" lon="0.870206">
        <ele>2332.68</ele>
        <time>2012-06-20T06:10:14Z</time>
      </trkpt>
      <trkpt lat="42.464960" lon="0.870246">
        <ele>2333.18</ele>
        <time>2012-06-20T06:10:18Z</time>
      </trkpt>
      <trkpt lat="42.464938" lon="0.870267">
        <ele>2333.55</ele>
        <time>2012-06-20T06:10:21Z</time>
      </trkpt>
      <trkpt lat="42.464870" lon="0.870340">
        <ele>2334.75</ele>
        <time>2012-06-20T06:10:30Z</time>
      </trkpt>
      <trkpt lat="42.464851" lon="0.870373">
        <ele>2335.29</ele>
        <time>2012-06-20T06:10:33Z</time>
      </trkpt>
      <trkpt lat="42.464838" lon="0.870390">
        <ele>2335.49</ele>
        <time>2012-06-20T06:10:35Z</time>
      </trkpt>
      <trkpt lat="42.464801" lon="0.870429">
        <ele>2336.14</ele>
        <time>2012-06-20T06:10:40Z</time>
      </trkpt>
      <trkpt lat="42.464694" lon="0.870504">
        <ele>2337.83</ele>
        <time>2012-06-20T06:10:53Z</time>
      </trkpt>
      <trkpt lat="42.464687" lon="0.870513">
        <ele>2337.91</ele>
        <time>2012-06-20T06:10:54Z</time>
      </trkpt>
      <trkpt lat="42.464660" lon="0.870527">
        <ele>2338.06</ele>
        <time>2012-06-20T06:10:57Z</time>
      </trkpt>
      <trkpt lat="42.464640" lon="0.870557">
        <ele>2338.12</ele>
        <time>2012-06-20T06:11:00Z</time>
      </trkpt>
      <trkpt lat="42.464592" lon="0.870612">
        <ele>2338.85</ele>
        <time>2012-06-20T06:11:06Z</time>
      </trkpt>
      <trkpt lat="42.464546" lon="0.870653">
        <ele>2340.12</ele>
        <time>2012-06-20T06:11:12Z</time>
      </trkpt>
      <trkpt lat="42.464512" lon="0.870649">
        <ele>2340.59</ele>
        <time>2012-06-20T06:11:16Z</time>
      </trkpt>
      <trkpt lat="42.464482" lon="0.870642">
        <ele>2341.57</ele>
        <time>2012-06-20T06:11:21Z</time>
      </trkpt>
      <trkpt lat="42.464452" lon="0.870624">
        <ele>2342.65</ele>
        <time>2012-06-20T06:11:26Z</time>
      </trkpt>
      <trkpt lat="42.464436" lon="0.870629">
        <ele>2343.15</ele>
        <time>2012-06-20T06:11:29Z</time>
      </trkpt>
      <trkpt lat="42.464403" lon="0.870624">
        <ele>2344.50</ele>
        <time>2012-06-20T06:11:35Z</time>
      </trkpt>
      <trkpt lat="42.464380" lon="0.870632">
        <ele>2345.01</ele>
        <time>2012-06-20T06:11:39Z</time>
      </trkpt>
      <trkpt lat="42.464351" lon="0.870636">
        <ele>2346.81</ele>
        <time>2012-06-20T06:11:45Z</time>
      </trkpt>
      <trkpt lat="42.464322" lon="0.870649">
        <ele>2348.08</ele>
        <time>2012-06-20T06:11:51Z</time>
      </trkpt>
      <trkpt lat="42.464306" lon="0.870645">
        <ele>2348.81</ele>
        <time>2012-06-20T06:11:55Z</time>
      </trkpt>
      <trkpt lat="42.464272" lon="0.870658">
        <ele>2350.14</ele>
        <time>2012-06-20T06:12:03Z</time>
      </trkpt>
      <trkpt lat="42.464247" lon="0.870659">
        <ele>2350.82</ele>
        <time>2012-06-20T06:12:08Z</time>
      </trkpt>
      <trkpt lat="42.464225" lon="0.870672">
        <ele>2351.82</ele>
        <time>2012-06-20T06:12:13Z</time>
      </trkpt>
      <trkpt lat="42.464214" lon="0.870689">
        <ele>2352.34</ele>
        <time>2012-06-20T06:12:15Z</time>
      </trkpt>
      <trkpt lat="42.464197" lon="0.870675">
        <ele>2353.12</ele>
        <time>2012-06-20T06:12:19Z</time>
      </trkpt>
      <trkpt lat="42.464182" lon="0.870661">
        <ele>2353.63</ele>
        <time>2012-06-20T06:12:23Z</time>
      </trkpt>
      <trkpt lat="42.464125" lon="0.870666">
        <ele>2355.09</ele>
        <time>2012-06-20T06:12:33Z</time>
      </trkpt>
      <trkpt lat="42.464091" lon="0.870680">
        <ele>2356.62</ele>
        <time>2012-06-20T06:12:39Z</time>
      </trkpt>
      <trkpt lat="42.464072" lon="0.870704">
        <ele>2357.51</ele>
        <time>2012-06-20T06:12:43Z</time>
      </trkpt>
      <trkpt lat="42.464053" lon="0.870707">
        <ele>2358.37</ele>
        <time>2012-06-20T06:12:46Z</time>
      </trkpt>
      <trkpt lat="42.464004" lon="0.870727">
        <ele>2359.84</ele>
        <time>2012-06-20T06:12:55Z</time>
      </trkpt>
      <trkpt lat="42.463987" lon="0.870724">
        <ele>2360.49</ele>
        <time>2012-06-20T06:12:58Z</time>
      </trkpt>
      <trkpt lat="42.463954" lon="0.870713">
        <ele>2361.45</ele>
        <time>2012-06-20T06:13:03Z</time>
      </trkpt>
      <trkpt lat="42.463941" lon="0.870721">
        <ele>2362.07</ele>
        <time>2012-06-20T06:13:05Z</time>
      </trkpt>
      <trkpt lat="42.463912" lon="0.870735">
        <ele>2362.39</ele>
        <time>2012-06-20T06:13:09Z</time>
      </trkpt>
      <trkpt lat="42.463902" lon="0.870756">
        <ele>2362.49</ele>
        <time>2012-06-20T06:13:11Z</time>
      </trkpt>
      <trkpt lat="42.463879" lon="0.870767">
        <ele>2363.16</ele>
        <time>2012-06-20T06:13:15Z</time>
      </trkpt>
      <trkpt lat="42.463851" lon="0.870765">
        <ele>2363.86</ele>
        <time>2012-06-20T06:13:19Z</time>
      </trkpt>
      <trkpt lat="42.463797" lon="0.870776">
        <ele>2365.11</ele>
        <time>2012-06-20T06:13:28Z</time>
      </trkpt>
      <trkpt lat="42.463769" lon="0.870798">
        <ele>2365.61</ele>
        <time>2012-06-20T06:13:31Z</time>
      </trkpt>
      <trkpt lat="42.463744" lon="0.870781">
        <ele>2365.86</ele>
        <time>2012-06-20T06:13:34Z</time>
      </trkpt>
      <trkpt lat="42.463713" lon="0.870767">
        <ele>2366.67</ele>
        <time>2012-06-20T06:13:38Z</time>
      </trkpt>
      <trkpt lat="42.463692" lon="0.870767">
        <ele>2366.93</ele>
        <time>2012-06-20T06:13:40Z</time>
      </trkpt>
      <trkpt lat="42.463666" lon="0.870771">
        <ele>2367.83</ele>
        <time>2012-06-20T06:13:44Z</time>
      </trkpt>
      <trkpt lat="42.463649" lon="0.870767">
        <ele>2368.13</ele>
        <time>2012-06-20T06:13:46Z</time>
      </trkpt>
      <trkpt lat="42.463618" lon="0.870764">
        <ele>2368.49</ele>
        <time>2012-06-20T06:13:49Z</time>
      </trkpt>
      <trkpt lat="42.463605" lon="0.870769">
        <ele>2368.41</ele>
        <time>2012-06-20T06:13:50Z</time>
      </trkpt>
      <trkpt lat="42.463572" lon="0.870775">
        <ele>2369.08</ele>
        <time>2012-06-20T06:13:55Z</time>
      </trkpt>
      <trkpt lat="42.463548" lon="0.870786">
        <ele>2369.61</ele>
        <time>2012-06-20T06:14:00Z</time>
      </trkpt>
      <trkpt lat="42.463513" lon="0.870783">
        <ele>2370.82</ele>
        <time>2012-06-20T06:14:05Z</time>
      </trkpt>
      <trkpt lat="42.463484" lon="0.870798">
        <ele>2371.61</ele>
        <time>2012-06-20T06:14:09Z</time>
      </trkpt>
      <trkpt lat="42.463462" lon="0.870813">
        <ele>2372.14</ele>
        <time>2012-06-20T06:14:12Z</time>
      </trkpt>
      <trkpt lat="42.463436" lon="0.870820">
        <ele>2372.69</ele>
        <time>2012-06-20T06:14:15Z</time>
      </trkpt>
      <trkpt lat="42.463405" lon="0.870817">
        <ele>2373.18</ele>
        <time>2012-06-20T06:14:19Z</time>
      </trkpt>
      <trkpt lat="42.463394" lon="0.870805">
        <ele>2374.09</ele>
        <time>2012-06-20T06:14:22Z</time>
      </trkpt>
      <trkpt lat="42.463345" lon="0.870822">
        <ele>2375.40</ele>
        <time>2012-06-20T06:14:28Z</time>
      </trkpt>
      <trkpt lat="42.463316" lon="0.870819">
        <ele>2375.92</ele>
        <time>2012-06-20T06:14:32Z</time>
      </trkpt>
      <trkpt lat="42.463307" lon="0.870800">
        <ele>2376.16</ele>
        <time>2012-06-20T06:14:33Z</time>
      </trkpt>
      <trkpt lat="42.463282" lon="0.870815">
        <ele>2376.47</ele>
        <time>2012-06-20T06:14:36Z</time>
      </trkpt>
      <trkpt lat="42.463260" lon="0.870813">
        <ele>2377.06</ele>
        <time>2012-06-20T06:14:38Z</time>
      </trkpt>
      <trkpt lat="42.463235" lon="0.870823">
        <ele>2377.22</ele>
        <time>2012-06-20T06:14:41Z</time>
      </trkpt>
      <trkpt lat="42.463221" lon="0.870841">
        <ele>2377.51</ele>
        <time>2012-06-20T06:14:43Z</time>
      </trkpt>
      <trkpt lat="42.463199" lon="0.870847">
        <ele>2378.17</ele>
        <time>2012-06-20T06:14:45Z</time>
      </trkpt>
      <trkpt lat="42.463175" lon="0.870847">
        <ele>2378.57</ele>
        <time>2012-06-20T06:14:48Z</time>
      </trkpt>
      <trkpt lat="42.463148" lon="0.870855">
        <ele>2379.33</ele>
        <time>2012-06-20T06:14:51Z</time>
      </trkpt>
      <trkpt lat="42.463133" lon="0.870865">
        <ele>2379.61</ele>
        <time>2012-06-20T06:14:53Z</time>
      </trkpt>
      <trkpt lat="42.463090" lon="0.870882">
        <ele>2380.78</ele>
        <time>2012-06-20T06:15:00Z</time>
      </trkpt>
      <trkpt lat="42.463056" lon="0.870886">
        <ele>2382.18</ele>
        <time>2012-06-20T06:15:07Z</time>
      </trkpt>
      <trkpt lat="42.463034" lon="0.870884">
        <ele>2383.18</ele>
        <time>2012-06-20T06:15:10Z</time>
      </trkpt>
      <trkpt lat="42.463001" lon="0.870885">
        <ele>2384.18</ele>
        <time>2012-06-20T06:15:17Z</time>
      </trkpt>
      <trkpt lat="42.462983" lon="0.870904">
        <ele>2384.54</ele>
        <time>2012-06-20T06:15:19Z</time>
      </trkpt>
      <trkpt lat="42.462964" lon="0.870906">
        <ele>2385.02</ele>
        <time>2012-06-20T06:15:22Z</time>
      </trkpt>
      <trkpt lat="42.462943" lon="0.870915">
        <ele>2385.81</ele>
        <time>2012-06-20T06:15:27Z</time>
      </trkpt>
      <trkpt lat="42.462917" lon="0.870915">
        <ele>2386.99</ele>
        <time>2012-06-20T06:15:31Z</time>
      </trkpt>
      <trkpt lat="42.462894" lon="0.870920">
        <ele>2387.88</ele>
        <time>2012-06-20T06:15:36Z</time>
      </trkpt>
      <trkpt lat="42.462880" lon="0.870934">
        <ele>2388.52</ele>
        <time>2012-06-20T06:15:39Z</time>
      </trkpt>
      <trkpt lat="42.462869" lon="0.870918">
        <ele>2388.63</ele>
        <time>2012-06-20T06:15:41Z</time>
      </trkpt>
      <trkpt lat="42.462845" lon="0.870920">
        <ele>2389.42</ele>
        <time>2012-06-20T06:15:45Z</time>
      </trkpt>
      <trkpt lat="42.462830" lon="0.870915">
        <ele>2389.82</ele>
        <time>2012-06-20T06:15:48Z</time>
      </trkpt>
      <trkpt lat="42.462813" lon="0.870921">
        <ele>2390.71</ele>
        <time>2012-06-20T06:15:54Z</time>
      </trkpt>
      <trkpt lat="42.462790" lon="0.870915">
        <ele>2391.29</ele>
        <time>2012-06-20T06:15:58Z</time>
      </trkpt>
      <trkpt lat="42.462763" lon="0.870933">
        <ele>2392.28</ele>
        <time>2012-06-20T06:16:02Z</time>
      </trkpt>
      <trkpt lat="42.462752" lon="0.870942">
        <ele>2392.42</ele>
        <time>2012-06-20T06:16:03Z</time>
      </trkpt>
      <trkpt lat="42.462735" lon="0.870946">
        <ele>2393.01</ele>
        <time>2012-06-20T06:16:07Z</time>
      </trkpt>
      <trkpt lat="42.462715" lon="0.870945">
        <ele>2393.94</ele>
        <time>2012-06-20T06:16:10Z</time>
      </trkpt>
      <trkpt lat="42.462689" lon="0.870941">
        <ele>2395.20</ele>
        <time>2012-06-20T06:16:15Z</time>
      </trkpt>
      <trkpt lat="42.462667" lon="0.870952">
        <ele>2395.15</ele>
        <time>2012-06-20T06:16:18Z</time>
      </trkpt>
      <trkpt lat="42.462656" lon="0.870967">
        <ele>2395.52</ele>
        <time>2012-06-20T06:16:20Z</time>
      </trkpt>
      <trkpt lat="42.462630" lon="0.871016">
        <ele>2396.45</ele>
        <time>2012-06-20T06:16:25Z</time>
      </trkpt>
      <trkpt lat="42.462619" lon="0.871049">
        <ele>2396.56</ele>
        <time>2012-06-20T06:16:28Z</time>
      </trkpt>
      <trkpt lat="42.462606" lon="0.871061">
        <ele>2396.67</ele>
        <time>2012-06-20T06:16:29Z</time>
      </trkpt>
      <trkpt lat="42.462587" lon="0.871071">
        <ele>2396.67</ele>
        <time>2012-06-20T06:16:32Z</time>
      </trkpt>
      <trkpt lat="42.462571" lon="0.871096">
        <ele>2396.84</ele>
        <time>2012-06-20T06:16:35Z</time>
      </trkpt>
      <trkpt lat="42.462554" lon="0.871117">
        <ele>2397.13</ele>
        <time>2012-06-20T06:16:38Z</time>
      </trkpt>
      <trkpt lat="42.462548" lon="0.871131">
        <ele>2397.11</ele>
        <time>2012-06-20T06:16:39Z</time>
      </trkpt>
      <trkpt lat="42.462488" lon="0.871211">
        <ele>2398.59</ele>
        <time>2012-06-20T06:16:48Z</time>
      </trkpt>
      <trkpt lat="42.462464" lon="0.871287">
        <ele>2399.01</ele>
        <time>2012-06-20T06:16:54Z</time>
      </trkpt>
      <trkpt lat="42.462447" lon="0.871352">
        <ele>2399.59</ele>
        <time>2012-06-20T06:16:59Z</time>
      </trkpt>
      <trkpt lat="42.462442" lon="0.871404">
        <ele>2399.92</ele>
        <time>2012-06-20T06:17:03Z</time>
      </trkpt>
      <trkpt lat="42.462445" lon="0.871422">
        <ele>2400.26</ele>
        <time>2012-06-20T06:17:05Z</time>
      </trkpt>
      <trkpt lat="42.462438" lon="0.871468">
        <ele>2400.41</ele>
        <time>2012-06-20T06:17:09Z</time>
      </trkpt>
      <trkpt lat="42.462440" lon="0.871520">
        <ele>2401.12</ele>
        <time>2012-06-20T06:17:13Z</time>
      </trkpt>
      <trkpt lat="42.462434" lon="0.871569">
        <ele>2401.69</ele>
        <time>2012-06-20T06:17:17Z</time>
      </trkpt>
      <trkpt lat="42.462439" lon="0.871608">
        <ele>2402.41</ele>
        <time>2012-06-20T06:17:21Z</time>
      </trkpt>
      <trkpt lat="42.462434" lon="0.871657">
        <ele>2403.33</ele>
        <time>2012-06-20T06:17:26Z</time>
      </trkpt>
      <trkpt lat="42.462433" lon="0.871694">
        <ele>2404.01</ele>
        <time>2012-06-20T06:17:29Z</time>
      </trkpt>
      <trkpt lat="42.462441" lon="0.871766">
        <ele>2404.99</ele>
        <time>2012-06-20T06:17:37Z</time>
      </trkpt>
      <trkpt lat="42.462442" lon="0.871796">
        <ele>2405.76</ele>
        <time>2012-06-20T06:17:42Z</time>
      </trkpt>
      <trkpt lat="42.462451" lon="0.871780">
        <ele>2406.26</ele>
        <time>2012-06-20T06:17:49Z</time>
      </trkpt>
      <trkpt lat="42.462446" lon="0.871788">
        <ele>2406.19</ele>
        <time>2012-06-20T06:18:00Z</time>
      </trkpt>
      <trkpt lat="42.462438" lon="0.871828">
        <ele>2406.74</ele>
        <time>2012-06-20T06:18:04Z</time>
      </trkpt>
      <trkpt lat="42.462439" lon="0.871864">
        <ele>2407.32</ele>
        <time>2012-06-20T06:18:08Z</time>
      </trkpt>
      <trkpt lat="42.462432" lon="0.871891">
        <ele>2408.04</ele>
        <time>2012-06-20T06:18:11Z</time>
      </trkpt>
      <trkpt lat="42.462419" lon="0.871925">
        <ele>2408.99</ele>
        <time>2012-06-20T06:18:15Z</time>
      </trkpt>
      <trkpt lat="42.462417" lon="0.871944">
        <ele>2409.21</ele>
        <time>2012-06-20T06:18:17Z</time>
      </trkpt>
      <trkpt lat="42.462416" lon="0.871984">
        <ele>2410.03</ele>
        <time>2012-06-20T06:18:22Z</time>
      </trkpt>
      <trkpt lat="42.462410" lon="0.872025">
        <ele>2411.31</ele>
        <time>2012-06-20T06:18:28Z</time>
      </trkpt>
      <trkpt lat="42.462403" lon="0.872058">
        <ele>2412.19</ele>
        <time>2012-06-20T06:18:32Z</time>
      </trkpt>
      <trkpt lat="42.462388" lon="0.872140">
        <ele>2414.49</ele>
        <time>2012-06-20T06:18:42Z</time>
      </trkpt>
      <trkpt lat="42.462377" lon="0.872177">
        <ele>2415.22</ele>
        <time>2012-06-20T06:18:46Z</time>
      </trkpt>
      <trkpt lat="42.462362" lon="0.872208">
        <ele>2415.74</ele>
        <time>2012-06-20T06:18:50Z</time>
      </trkpt>
      <trkpt lat="42.462359" lon="0.872244">
        <ele>2416.76</ele>
        <time>2012-06-20T06:18:54Z</time>
      </trkpt>
      <trkpt lat="42.462366" lon="0.872251">
        <ele>2417.66</ele>
        <time>2012-06-20T06:19:15Z</time>
      </trkpt>
      <trkpt lat="42.462355" lon="0.872288">
        <ele>2418.39</ele>
        <time>2012-06-20T06:19:20Z</time>
      </trkpt>
      <trkpt lat="42.462351" lon="0.872309">
        <ele>2418.77</ele>
        <time>2012-06-20T06:19:23Z</time>
      </trkpt>
      <trkpt lat="42.462325" lon="0.872346">
        <ele>2419.96</ele>
        <time>2012-06-20T06:19:28Z</time>
      </trkpt>
      <trkpt lat="42.462317" lon="0.872350">
        <ele>2420.52</ele>
        <time>2012-06-20T06:19:30Z</time>
      </trkpt>
      <trkpt lat="42.462295" lon="0.872386">
        <ele>2421.51</ele>
        <time>2012-06-20T06:19:34Z</time>
      </trkpt>
      <trkpt lat="42.462279" lon="0.872396">
        <ele>2422.30</ele>
        <time>2012-06-20T06:19:36Z</time>
      </trkpt>
      <trkpt lat="42.462259" lon="0.872423">
        <ele>2422.56</ele>
        <time>2012-06-20T06:19:39Z</time>
      </trkpt>
      <trkpt lat="42.462205" lon="0.872449">
        <ele>2423.70</ele>
        <time>2012-06-20T06:19:46Z</time>
      </trkpt>
      <trkpt lat="42.462185" lon="0.872470">
        <ele>2424.34</ele>
        <time>2012-06-20T06:19:49Z</time>
      </trkpt>
      <trkpt lat="42.462164" lon="0.872473">
        <ele>2424.77</ele>
        <time>2012-06-20T06:19:52Z</time>
      </trkpt>
      <trkpt lat="42.462162" lon="0.872455">
        <ele>2425.14</ele>
        <time>2012-06-20T06:19:53Z</time>
      </trkpt>
      <trkpt lat="42.462137" lon="0.872460">
        <ele>2425.45</ele>
        <time>2012-06-20T06:19:56Z</time>
      </trkpt>
      <trkpt lat="42.462106" lon="0.872459">
        <ele>2425.71</ele>
        <time>2012-06-20T06:19:59Z</time>
      </trkpt>
      <trkpt lat="42.462074" lon="0.872446">
        <ele>2425.85</ele>
        <time>2012-06-20T06:20:03Z</time>
      </trkpt>
      <trkpt lat="42.462057" lon="0.872443">
        <ele>2426.51</ele>
        <time>2012-06-20T06:20:06Z</time>
      </trkpt>
      <trkpt lat="42.462005" lon="0.872460">
        <ele>2427.91</ele>
        <time>2012-06-20T06:20:13Z</time>
      </trkpt>
      <trkpt lat="42.461991" lon="0.872474">
        <ele>2428.23</ele>
        <time>2012-06-20T06:20:15Z</time>
      </trkpt>
      <trkpt lat="42.461955" lon="0.872474">
        <ele>2429.03</ele>
        <time>2012-06-20T06:20:20Z</time>
      </trkpt>
      <trkpt lat="42.461924" lon="0.872485">
        <ele>2429.79</ele>
        <time>2012-06-20T06:20:24Z</time>
      </trkpt>
      <trkpt lat="42.461898" lon="0.872468">
        <ele>2430.53</ele>
        <time>2012-06-20T06:20:28Z</time>
      </trkpt>
      <trkpt lat="42.461876" lon="0.872481">
        <ele>2431.16</ele>
        <time>2012-06-20T06:20:31Z</time>
      </trkpt>
      <trkpt lat="42.461846" lon="0.872493">
        <ele>2431.97</ele>
        <time>2012-06-20T06:20:36Z</time>
      </trkpt>
      <trkpt lat="42.461841" lon="0.872512">
        <ele>2432.23</ele>
        <time>2012-06-20T06:20:41Z</time>
      </trkpt>
      <trkpt lat="42.461844" lon="0.872521">
        <ele>2431.87</ele>
        <time>2012-06-20T06:20:44Z</time>
      </trkpt>
      <trkpt lat="42.461843" lon="0.872516">
        <ele>2431.14</ele>
        <time>2012-06-20T06:20:53Z</time>
      </trkpt>
      <trkpt lat="42.461835" lon="0.872513">
        <ele>2431.53</ele>
        <time>2012-06-20T06:21:08Z</time>
      </trkpt>
      <trkpt lat="42.461838" lon="0.872496">
        <ele>2431.71</ele>
        <time>2012-06-20T06:21:16Z</time>
      </trkpt>
      <trkpt lat="42.461825" lon="0.872524">
        <ele>2431.94</ele>
        <time>2012-06-20T06:21:21Z</time>
      </trkpt>
      <trkpt lat="42.461796" lon="0.872542">
        <ele>2432.99</ele>
        <time>2012-06-20T06:21:25Z</time>
      </trkpt>
      <trkpt lat="42.461760" lon="0.872551">
        <ele>2433.42</ele>
        <time>2012-06-20T06:21:29Z</time>
      </trkpt>
      <trkpt lat="42.461720" lon="0.872576">
        <ele>2433.93</ele>
        <time>2012-06-20T06:21:34Z</time>
      </trkpt>
      <trkpt lat="42.461679" lon="0.872571">
        <ele>2434.74</ele>
        <time>2012-06-20T06:21:39Z</time>
      </trkpt>
      <trkpt lat="42.461634" lon="0.872587">
        <ele>2435.72</ele>
        <time>2012-06-20T06:21:44Z</time>
      </trkpt>
      <trkpt lat="42.461586" lon="0.872621">
        <ele>2436.67</ele>
        <time>2012-06-20T06:21:50Z</time>
      </trkpt>
      <trkpt lat="42.461529" lon="0.872627">
        <ele>2438.29</ele>
        <time>2012-06-20T06:21:57Z</time>
      </trkpt>
      <trkpt lat="42.461445" lon="0.872560">
        <ele>2439.82</ele>
        <time>2012-06-20T06:22:10Z</time>
      </trkpt>
      <trkpt lat="42.461403" lon="0.872523">
        <ele>2440.53</ele>
        <time>2012-06-20T06:22:17Z</time>
      </trkpt>
      <trkpt lat="42.461381" lon="0.872493">
        <ele>2441.01</ele>
        <time>2012-06-20T06:22:21Z</time>
      </trkpt>
      <trkpt lat="42.461364" lon="0.872482">
        <ele>2441.07</ele>
        <time>2012-06-20T06:22:23Z</time>
      </trkpt>
      <trkpt lat="42.461343" lon="0.872474">
        <ele>2441.15</ele>
        <time>2012-06-20T06:22:26Z</time>
      </trkpt>
      <trkpt lat="42.461337" lon="0.872478">
        <ele>2441.33</ele>
        <time>2012-06-20T06:22:43Z</time>
      </trkpt>
      <trkpt lat="42.461331" lon="0.872474">
        <ele>2440.92</ele>
        <time>2012-06-20T06:22:48Z</time>
      </trkpt>
      <trkpt lat="42.461345" lon="0.872446">
        <ele>2441.18</ele>
        <time>2012-06-20T06:22:52Z</time>
      </trkpt>
      <trkpt lat="42.461339" lon="0.872383">
        <ele>2441.72</ele>
        <time>2012-06-20T06:22:57Z</time>
      </trkpt>
      <trkpt lat="42.461321" lon="0.872334">
        <ele>2442.13</ele>
        <time>2012-06-20T06:23:02Z</time>
      </trkpt>
      <trkpt lat="42.461313" lon="0.872286">
        <ele>2442.49</ele>
        <time>2012-06-20T06:23:06Z</time>
      </trkpt>
      <trkpt lat="42.461296" lon="0.872260">
        <ele>2443.08</ele>
        <time>2012-06-20T06:23:09Z</time>
      </trkpt>
      <trkpt lat="42.461268" lon="0.872233">
        <ele>2443.62</ele>
        <time>2012-06-20T06:23:13Z</time>
      </trkpt>
      <trkpt lat="42.461244" lon="0.872201">
        <ele>2444.21</ele>
        <time>2012-06-20T06:23:17Z</time>
      </trkpt>
      <trkpt lat="42.461225" lon="0.872185">
        <ele>2444.61</ele>
        <time>2012-06-20T06:23:20Z</time>
      </trkpt>
      <trkpt lat="42.461208" lon="0.872166">
        <ele>2445.08</ele>
        <time>2012-06-20T06:23:23Z</time>
      </trkpt>
      <trkpt lat="42.461189" lon="0.872148">
        <ele>2445.54</ele>
        <time>2012-06-20T06:23:26Z</time>
      </trkpt>
      <trkpt lat="42.461149" lon="0.872093">
        <ele>2446.68</ele>
        <time>2012-06-20T06:23:33Z</time>
      </trkpt>
      <trkpt lat="42.461125" lon="0.872064">
        <ele>2447.34</ele>
        <time>2012-06-20T06:23:37Z</time>
      </trkpt>
      <trkpt lat="42.461091" lon="0.872046">
        <ele>2447.26</ele>
        <time>2012-06-20T06:23:41Z</time>
      </trkpt>
      <trkpt lat="42.461083" lon="0.872033">
        <ele>2447.82</ele>
        <time>2012-06-20T06:23:43Z</time>
      </trkpt>
      <trkpt lat="42.461065" lon="0.871978">
        <ele>2449.12</ele>
        <time>2012-06-20T06:23:49Z</time>
      </trkpt>
      <trkpt lat="42.461064" lon="0.871928">
        <ele>2449.46</ele>
        <time>2012-06-20T06:23:54Z</time>
      </trkpt>
      <trkpt lat="42.461056" lon="0.871898">
        <ele>2449.81</ele>
        <time>2012-06-20T06:23:58Z</time>
      </trkpt>
      <trkpt lat="42.461053" lon="0.871918">
        <ele>2450.21</ele>
        <time>2012-06-20T06:24:04Z</time>
      </trkpt>
      <trkpt lat="42.461046" lon="0.871899">
        <ele>2450.05</ele>
        <time>2012-06-20T06:24:18Z</time>
      </trkpt>
      <trkpt lat="42.461063" lon="0.871837">
        <ele>2450.53</ele>
        <time>2012-06-20T06:24:28Z</time>
      </trkpt>
      <trkpt lat="42.461100" lon="0.871749">
        <ele>2450.41</ele>
        <time>2012-06-20T06:24:36Z</time>
      </trkpt>
      <trkpt lat="42.461106" lon="0.871728">
        <ele>2450.62</ele>
        <time>2012-06-20T06:24:38Z</time>
      </trkpt>
      <trkpt lat="42.461131" lon="0.871662">
        <ele>2451.65</ele>
        <time>2012-06-20T06:24:44Z</time>
      </trkpt>
      <trkpt lat="42.461132" lon="0.871651">
        <ele>2451.78</ele>
        <time>2012-06-20T06:24:45Z</time>
      </trkpt>
      <trkpt lat="42.461145" lon="0.871612">
        <ele>2452.14</ele>
        <time>2012-06-20T06:24:49Z</time>
      </trkpt>
      <trkpt lat="42.461145" lon="0.871586">
        <ele>2452.35</ele>
        <time>2012-06-20T06:24:51Z</time>
      </trkpt>
      <trkpt lat="42.461154" lon="0.871540">
        <ele>2452.70</ele>
        <time>2012-06-20T06:24:55Z</time>
      </trkpt>
      <trkpt lat="42.461171" lon="0.871507">
        <ele>2453.51</ele>
        <time>2012-06-20T06:24:59Z</time>
      </trkpt>
      <trkpt lat="42.461191" lon="0.871463">
        <ele>2454.61</ele>
        <time>2012-06-20T06:25:04Z</time>
      </trkpt>
      <trkpt lat="42.461201" lon="0.871419">
        <ele>2455.35</ele>
        <time>2012-06-20T06:25:09Z</time>
      </trkpt>
      <trkpt lat="42.461210" lon="0.871399">
        <ele>2455.43</ele>
        <time>2012-06-20T06:25:11Z</time>
      </trkpt>
      <trkpt lat="42.461217" lon="0.871336">
        <ele>2456.57</ele>
        <time>2012-06-20T06:25:18Z</time>
      </trkpt>
      <trkpt lat="42.461218" lon="0.871312">
        <ele>2456.88</ele>
        <time>2012-06-20T06:25:21Z</time>
      </trkpt>
      <trkpt lat="42.461234" lon="0.871274">
        <ele>2457.45</ele>
        <time>2012-06-20T06:25:25Z</time>
      </trkpt>
      <trkpt lat="42.461245" lon="0.871230">
        <ele>2457.46</ele>
        <time>2012-06-20T06:25:29Z</time>
      </trkpt>
      <trkpt lat="42.461268" lon="0.871178">
        <ele>2457.56</ele>
        <time>2012-06-20T06:25:33Z</time>
      </trkpt>
      <trkpt lat="42.461282" lon="0.871133">
        <ele>2457.78</ele>
        <time>2012-06-20T06:25:38Z</time>
      </trkpt>
      <trkpt lat="42.461297" lon="0.871096">
        <ele>2459.14</ele>
        <time>2012-06-20T06:25:44Z</time>
      </trkpt>
      <trkpt lat="42.461315" lon="0.871072">
        <ele>2459.92</ele>
        <time>2012-06-20T06:25:49Z</time>
      </trkpt>
      <trkpt lat="42.461327" lon="0.871033">
        <ele>2461.11</ele>
        <time>2012-06-20T06:25:55Z</time>
      </trkpt>
      <trkpt lat="42.461293" lon="0.871019">
        <ele>2462.27</ele>
        <time>2012-06-20T06:26:01Z</time>
      </trkpt>
      <trkpt lat="42.461255" lon="0.871016">
        <ele>2463.26</ele>
        <time>2012-06-20T06:26:06Z</time>
      </trkpt>
      <trkpt lat="42.461254" lon="0.870986">
        <ele>2463.90</ele>
        <time>2012-06-20T06:26:11Z</time>
      </trkpt>
      <trkpt lat="42.461246" lon="0.870954">
        <ele>2464.92</ele>
        <time>2012-06-20T06:26:16Z</time>
      </trkpt>
      <trkpt lat="42.461242" lon="0.870920">
        <ele>2466.19</ele>
        <time>2012-06-20T06:26:21Z</time>
      </trkpt>
      <trkpt lat="42.461238" lon="0.870902">
        <ele>2466.63</ele>
        <time>2012-06-20T06:26:24Z</time>
      </trkpt>
      <trkpt lat="42.461241" lon="0.870885">
        <ele>2467.26</ele>
        <time>2012-06-20T06:26:27Z</time>
      </trkpt>
      <trkpt lat="42.461231" lon="0.870849">
        <ele>2469.11</ele>
        <time>2012-06-20T06:26:34Z</time>
      </trkpt>
      <trkpt lat="42.461236" lon="0.870822">
        <ele>2469.42</ele>
        <time>2012-06-20T06:26:38Z</time>
      </trkpt>
      <trkpt lat="42.461228" lon="0.870811">
        <ele>2469.40</ele>
        <time>2012-06-20T06:26:40Z</time>
      </trkpt>
      <trkpt lat="42.461225" lon="0.870754">
        <ele>2471.81</ele>
        <time>2012-06-20T06:26:52Z</time>
      </trkpt>
      <trkpt lat="42.461207" lon="0.870732">
        <ele>2472.91</ele>
        <time>2012-06-20T06:26:58Z</time>
      </trkpt>
      <trkpt lat="42.461184" lon="0.870730">
        <ele>2473.66</ele>
        <time>2012-06-20T06:27:04Z</time>
      </trkpt>
      <trkpt lat="42.461157" lon="0.870719">
        <ele>2474.99</ele>
        <time>2012-06-20T06:27:10Z</time>
      </trkpt>
      <trkpt lat="42.461135" lon="0.870729">
        <ele>2475.95</ele>
        <time>2012-06-20T06:27:14Z</time>
      </trkpt>
      <trkpt lat="42.461115" lon="0.870734">
        <ele>2477.69</ele>
        <time>2012-06-20T06:27:20Z</time>
      </trkpt>
      <trkpt lat="42.461091" lon="0.870716">
        <ele>2478.36</ele>
        <time>2012-06-20T06:27:27Z</time>
      </trkpt>
      <trkpt lat="42.461078" lon="0.870703">
        <ele>2479.18</ele>
        <time>2012-06-20T06:27:31Z</time>
      </trkpt>
      <trkpt lat="42.461063" lon="0.870692">
        <ele>2480.26</ele>
        <time>2012-06-20T06:27:36Z</time>
      </trkpt>
      <trkpt lat="42.461051" lon="0.870696">
        <ele>2481.05</ele>
        <time>2012-06-20T06:27:39Z</time>
      </trkpt>
      <trkpt lat="42.461054" lon="0.870713">
        <ele>2480.92</ele>
        <time>2012-06-20T06:28:00Z</time>
      </trkpt>
      <trkpt lat="42.461045" lon="0.870687">
        <ele>2481.51</ele>
        <time>2012-06-20T06:28:03Z</time>
      </trkpt>
      <trkpt lat="42.461032" lon="0.870662">
        <ele>2481.98</ele>
        <time>2012-06-20T06:28:07Z</time>
      </trkpt>
      <trkpt lat="42.461011" lon="0.870630">
        <ele>2482.87</ele>
        <time>2012-06-20T06:28:13Z</time>
      </trkpt>
      <trkpt lat="42.460985" lon="0.870597">
        <ele>2484.15</ele>
        <time>2012-06-20T06:28:19Z</time>
      </trkpt>
      <trkpt lat="42.460969" lon="0.870568">
        <ele>2485.00</ele>
        <time>2012-06-20T06:28:23Z</time>
      </trkpt>
      <trkpt lat="42.460971" lon="0.870530">
        <ele>2485.97</ele>
        <time>2012-06-20T06:28:29Z</time>
      </trkpt>
      <trkpt lat="42.460984" lon="0.870511">
        <ele>2486.09</ele>
        <time>2012-06-20T06:28:33Z</time>
      </trkpt>
      <trkpt lat="42.460986" lon="0.870485">
        <ele>2487.15</ele>
        <time>2012-06-20T06:28:37Z</time>
      </trkpt>
      <trkpt lat="42.460992" lon="0.870456">
        <ele>2488.22</ele>
        <time>2012-06-20T06:28:41Z</time>
      </trkpt>
      <trkpt lat="42.460979" lon="0.870432">
        <ele>2488.79</ele>
        <time>2012-06-20T06:28:45Z</time>
      </trkpt>
      <trkpt lat="42.460962" lon="0.870371">
        <ele>2490.22</ele>
        <time>2012-06-20T06:28:54Z</time>
      </trkpt>
      <trkpt lat="42.460993" lon="0.870308">
        <ele>2491.91</ele>
        <time>2012-06-20T06:29:05Z</time>
      </trkpt>
      <trkpt lat="42.461005" lon="0.870292">
        <ele>2492.58</ele>
        <time>2012-06-20T06:29:08Z</time>
      </trkpt>
      <trkpt lat="42.461009" lon="0.870259">
        <ele>2493.11</ele>
        <time>2012-06-20T06:29:12Z</time>
      </trkpt>
      <trkpt lat="42.460993" lon="0.870242">
        <ele>2493.89</ele>
        <time>2012-06-20T06:29:16Z</time>
      </trkpt>
      <trkpt lat="42.460988" lon="0.870212">
        <ele>2494.99</ele>
        <time>2012-06-20T06:29:22Z</time>
      </trkpt>
      <trkpt lat="42.460990" lon="0.870218">
        <ele>2495.37</ele>
        <time>2012-06-20T06:29:36Z</time>
      </trkpt>
      <trkpt lat="42.461011" lon="0.870195">
        <ele>2496.68</ele>
        <time>2012-06-20T06:29:44Z</time>
      </trkpt>
      <trkpt lat="42.461023" lon="0.870187">
        <ele>2496.90</ele>
        <time>2012-06-20T06:29:46Z</time>
      </trkpt>
      <trkpt lat="42.461043" lon="0.870165">
        <ele>2497.72</ele>
        <time>2012-06-20T06:29:51Z</time>
      </trkpt>
      <trkpt lat="42.461041" lon="0.870141">
        <ele>2498.20</ele>
        <time>2012-06-20T06:29:54Z</time>
      </trkpt>
      <trkpt lat="42.461031" lon="0.870118">
        <ele>2498.52</ele>
        <time>2012-06-20T06:29:57Z</time>
      </trkpt>
      <trkpt lat="42.461030" lon="0.870090">
        <ele>2499.11</ele>
        <time>2012-06-20T06:30:01Z</time>
      </trkpt>
      <trkpt lat="42.461041" lon="0.870057">
        <ele>2500.06</ele>
        <time>2012-06-20T06:30:06Z</time>
      </trkpt>
      <trkpt lat="42.461035" lon="0.870026">
        <ele>2500.96</ele>
        <time>2012-06-20T06:30:11Z</time>
      </trkpt>
      <trkpt lat="42.461060" lon="0.869985">
        <ele>2502.27</ele>
        <time>2012-06-20T06:30:18Z</time>
      </trkpt>
      <trkpt lat="42.461045" lon="0.869937">
        <ele>2503.40</ele>
        <time>2012-06-20T06:30:24Z</time>
      </trkpt>
      <trkpt lat="42.461036" lon="0.869893">
        <ele>2504.53</ele>
        <time>2012-06-20T06:30:30Z</time>
      </trkpt>
      <trkpt lat="42.461030" lon="0.869879">
        <ele>2504.86</ele>
        <time>2012-06-20T06:30:32Z</time>
      </trkpt>
      <trkpt lat="42.461018" lon="0.869847">
        <ele>2505.57</ele>
        <time>2012-06-20T06:30:38Z</time>
      </trkpt>
      <trkpt lat="42.461011" lon="0.869815">
        <ele>2506.56</ele>
        <time>2012-06-20T06:30:44Z</time>
      </trkpt>
      <trkpt lat="42.461010" lon="0.869776">
        <ele>2507.76</ele>
        <time>2012-06-20T06:30:50Z</time>
      </trkpt>
      <trkpt lat="42.461034" lon="0.869758">
        <ele>2508.71</ele>
        <time>2012-06-20T06:30:57Z</time>
      </trkpt>
      <trkpt lat="42.461044" lon="0.869749">
        <ele>2509.01</ele>
        <time>2012-06-20T06:30:59Z</time>
      </trkpt>
      <trkpt lat="42.461052" lon="0.869711">
        <ele>2510.03</ele>
        <time>2012-06-20T06:31:04Z</time>
      </trkpt>
      <trkpt lat="42.461036" lon="0.869678">
        <ele>2510.67</ele>
        <time>2012-06-20T06:31:10Z</time>
      </trkpt>
      <trkpt lat="42.461030" lon="0.869652">
        <ele>2511.64</ele>
        <time>2012-06-20T06:31:15Z</time>
      </trkpt>
      <trkpt lat="42.461042" lon="0.869635">
        <ele>2512.80</ele>
        <time>2012-06-20T06:31:32Z</time>
      </trkpt>
      <trkpt lat="42.461046" lon="0.869623">
        <ele>2513.04</ele>
        <time>2012-06-20T06:31:34Z</time>
      </trkpt>
      <trkpt lat="42.461045" lon="0.869582">
        <ele>2514.03</ele>
        <time>2012-06-20T06:31:40Z</time>
      </trkpt>
      <trkpt lat="42.461030" lon="0.869550">
        <ele>2515.13</ele>
        <time>2012-06-20T06:31:45Z</time>
      </trkpt>
      <trkpt lat="42.461026" lon="0.869529">
        <ele>2515.85</ele>
        <time>2012-06-20T06:31:48Z</time>
      </trkpt>
      <trkpt lat="42.461016" lon="0.869496">
        <ele>2516.75</ele>
        <time>2012-06-20T06:31:53Z</time>
      </trkpt>
      <trkpt lat="42.461016" lon="0.869471">
        <ele>2517.71</ele>
        <time>2012-06-20T06:31:57Z</time>
      </trkpt>
      <trkpt lat="42.461026" lon="0.869457">
        <ele>2518.01</ele>
        <time>2012-06-20T06:32:00Z</time>
      </trkpt>
      <trkpt lat="42.461046" lon="0.869409">
        <ele>2519.94</ele>
        <time>2012-06-20T06:32:09Z</time>
      </trkpt>
      <trkpt lat="42.461050" lon="0.869383">
        <ele>2520.86</ele>
        <time>2012-06-20T06:32:13Z</time>
      </trkpt>
      <trkpt lat="42.461036" lon="0.869369">
        <ele>2521.45</ele>
        <time>2012-06-20T06:32:16Z</time>
      </trkpt>
      <trkpt lat="42.461032" lon="0.869354">
        <ele>2521.59</ele>
        <time>2012-06-20T06:32:18Z</time>
      </trkpt>
      <trkpt lat="42.461039" lon="0.869328">
        <ele>2523.08</ele>
        <time>2012-06-20T06:32:33Z</time>
      </trkpt>
      <trkpt lat="42.461040" lon="0.869302">
        <ele>2523.69</ele>
        <time>2012-06-20T06:32:36Z</time>
      </trkpt>
      <trkpt lat="42.461029" lon="0.869263">
        <ele>2524.33</ele>
        <time>2012-06-20T06:32:41Z</time>
      </trkpt>
      <trkpt lat="42.461030" lon="0.869228">
        <ele>2525.40</ele>
        <time>2012-06-20T06:32:46Z</time>
      </trkpt>
      <trkpt lat="42.461020" lon="0.869202">
        <ele>2526.01</ele>
        <time>2012-06-20T06:32:49Z</time>
      </trkpt>
      <trkpt lat="42.461014" lon="0.869184">
        <ele>2526.53</ele>
        <time>2012-06-20T06:32:52Z</time>
      </trkpt>
      <trkpt lat="42.461056" lon="0.869136">
        <ele>2528.41</ele>
        <time>2012-06-20T06:33:03Z</time>
      </trkpt>
      <trkpt lat="42.461079" lon="0.869113">
        <ele>2529.56</ele>
        <time>2012-06-20T06:33:09Z</time>
      </trkpt>
      <trkpt lat="42.461102" lon="0.869077">
        <ele>2530.85</ele>
        <time>2012-06-20T06:33:17Z</time>
      </trkpt>
      <trkpt lat="42.461118" lon="0.868997">
        <ele>2532.95</ele>
        <time>2012-06-20T06:33:29Z</time>
      </trkpt>
      <trkpt lat="42.461116" lon="0.868976">
        <ele>2534.28</ele>
        <time>2012-06-20T06:33:33Z</time>
      </trkpt>
      <trkpt lat="42.461132" lon="0.868960">
        <ele>2534.55</ele>
        <time>2012-06-20T06:33:36Z</time>
      </trkpt>
      <trkpt lat="42.461153" lon="0.868928">
        <ele>2535.61</ele>
        <time>2012-06-20T06:33:42Z</time>
      </trkpt>
      <trkpt lat="42.461180" lon="0.868894">
        <ele>2537.03</ele>
        <time>2012-06-20T06:33:49Z</time>
      </trkpt>
      <trkpt lat="42.461189" lon="0.868852">
        <ele>2537.78</ele>
        <time>2012-06-20T06:33:55Z</time>
      </trkpt>
      <trkpt lat="42.461208" lon="0.868825">
        <ele>2538.51</ele>
        <time>2012-06-20T06:34:00Z</time>
      </trkpt>
      <trkpt lat="42.461227" lon="0.868806">
        <ele>2539.03</ele>
        <time>2012-06-20T06:34:04Z</time>
      </trkpt>
      <trkpt lat="42.461239" lon="0.868780">
        <ele>2539.81</ele>
        <time>2012-06-20T06:34:09Z</time>
      </trkpt>
      <trkpt lat="42.461253" lon="0.868736">
        <ele>2541.03</ele>
        <time>2012-06-20T06:34:17Z</time>
      </trkpt>
      <trkpt lat="42.461260" lon="0.868716">
        <ele>2542.20</ele>
        <time>2012-06-20T06:34:21Z</time>
      </trkpt>
      <trkpt lat="42.461268" lon="0.868688">
        <ele>2543.07</ele>
        <time>2012-06-20T06:34:26Z</time>
      </trkpt>
      <trkpt lat="42.461272" lon="0.868667">
        <ele>2543.97</ele>
        <time>2012-06-20T06:34:31Z</time>
      </trkpt>
      <trkpt lat="42.461279" lon="0.868652">
        <ele>2544.58</ele>
        <time>2012-06-20T06:34:34Z</time>
      </trkpt>
      <trkpt lat="42.461291" lon="0.868646">
        <ele>2545.23</ele>
        <time>2012-06-20T06:34:55Z</time>
      </trkpt>
      <trkpt lat="42.461300" lon="0.868612">
        <ele>2545.85</ele>
        <time>2012-06-20T06:35:01Z</time>
      </trkpt>
      <trkpt lat="42.461318" lon="0.868592">
        <ele>2546.46</ele>
        <time>2012-06-20T06:35:05Z</time>
      </trkpt>
      <trkpt lat="42.461336" lon="0.868570">
        <ele>2547.74</ele>
        <time>2012-06-20T06:35:10Z</time>
      </trkpt>
      <trkpt lat="42.461347" lon="0.868511">
        <ele>2549.52</ele>
        <time>2012-06-20T06:35:21Z</time>
      </trkpt>
      <trkpt lat="42.461340" lon="0.868485">
        <ele>2550.81</ele>
        <time>2012-06-20T06:35:26Z</time>
      </trkpt>
      <trkpt lat="42.461348" lon="0.868460">
        <ele>2551.46</ele>
        <time>2012-06-20T06:35:31Z</time>
      </trkpt>
      <trkpt lat="42.461354" lon="0.868460">
        <ele>2552.34</ele>
        <time>2012-06-20T06:35:39Z</time>
      </trkpt>
      <trkpt lat="42.461306" lon="0.868382">
        <ele>2555.59</ele>
        <time>2012-06-20T06:36:22Z</time>
      </trkpt>
      <trkpt lat="42.461281" lon="0.868350">
        <ele>2556.73</ele>
        <time>2012-06-20T06:36:30Z</time>
      </trkpt>
      <trkpt lat="42.461294" lon="0.868337">
        <ele>2557.49</ele>
        <time>2012-06-20T06:36:38Z</time>
      </trkpt>
      <trkpt lat="42.461289" lon="0.868295">
        <ele>2558.54</ele>
        <time>2012-06-20T06:36:44Z</time>
      </trkpt>
      <trkpt lat="42.461277" lon="0.868279">
        <ele>2559.26</ele>
        <time>2012-06-20T06:36:47Z</time>
      </trkpt>
      <trkpt lat="42.461258" lon="0.868271">
        <ele>2560.09</ele>
        <time>2012-06-20T06:36:51Z</time>
      </trkpt>
      <trkpt lat="42.461248" lon="0.868231">
        <ele>2561.97</ele>
        <time>2012-06-20T06:36:58Z</time>
      </trkpt>
      <trkpt lat="42.461205" lon="0.868171">
        <ele>2564.52</ele>
        <time>2012-06-20T06:37:11Z</time>
      </trkpt>
      <trkpt lat="42.461214" lon="0.868154">
        <ele>2565.41</ele>
        <time>2012-06-20T06:37:17Z</time>
      </trkpt>
      <trkpt lat="42.461180" lon="0.868117">
        <ele>2566.69</ele>
        <time>2012-06-20T06:37:25Z</time>
      </trkpt>
      <trkpt lat="42.461164" lon="0.868105">
        <ele>2567.19</ele>
        <time>2012-06-20T06:38:03Z</time>
      </trkpt>
      <trkpt lat="42.461142" lon="0.868085">
        <ele>2568.30</ele>
        <time>2012-06-20T06:38:07Z</time>
      </trkpt>
      <trkpt lat="42.461125" lon="0.868063">
        <ele>2569.18</ele>
        <time>2012-06-20T06:38:12Z</time>
      </trkpt>
      <trkpt lat="42.461100" lon="0.868061">
        <ele>2570.04</ele>
        <time>2012-06-20T06:38:16Z</time>
      </trkpt>
      <trkpt lat="42.461070" lon="0.868046">
        <ele>2571.64</ele>
        <time>2012-06-20T06:38:23Z</time>
      </trkpt>
      <trkpt lat="42.461039" lon="0.868035">
        <ele>2573.20</ele>
        <time>2012-06-20T06:38:31Z</time>
      </trkpt>
      <trkpt lat="42.461018" lon="0.868024">
        <ele>2574.49</ele>
        <time>2012-06-20T06:38:36Z</time>
      </trkpt>
      <trkpt lat="42.461000" lon="0.867994">
        <ele>2576.07</ele>
        <time>2012-06-20T06:38:45Z</time>
      </trkpt>
      <trkpt lat="42.460985" lon="0.867975">
        <ele>2577.32</ele>
        <time>2012-06-20T06:38:51Z</time>
      </trkpt>
      <trkpt lat="42.460986" lon="0.867954">
        <ele>2578.51</ele>
        <time>2012-06-20T06:38:57Z</time>
      </trkpt>
      <trkpt lat="42.461004" lon="0.867948">
        <ele>2579.49</ele>
        <time>2012-06-20T06:39:01Z</time>
      </trkpt>
      <trkpt lat="42.461012" lon="0.867922">
        <ele>2580.60</ele>
        <time>2012-06-20T06:39:07Z</time>
      </trkpt>
      <trkpt lat="42.461024" lon="0.867910">
        <ele>2581.66</ele>
        <time>2012-06-20T06:39:12Z</time>
      </trkpt>
      <trkpt lat="42.461025" lon="0.867887">
        <ele>2581.89</ele>
        <time>2012-06-20T06:39:17Z</time>
      </trkpt>
      <trkpt lat="42.461002" lon="0.867877">
        <ele>2582.79</ele>
        <time>2012-06-20T06:39:22Z</time>
      </trkpt>
      <trkpt lat="42.460990" lon="0.867864">
        <ele>2583.54</ele>
        <time>2012-06-20T06:39:26Z</time>
      </trkpt>
      <trkpt lat="42.460998" lon="0.867851">
        <ele>2584.34</ele>
        <time>2012-06-20T06:39:31Z</time>
      </trkpt>
      <trkpt lat="42.461007" lon="0.867841">
        <ele>2585.04</ele>
        <time>2012-06-20T06:39:34Z</time>
      </trkpt>
      <trkpt lat="42.461005" lon="0.867817">
        <ele>2585.48</ele>
        <time>2012-06-20T06:39:39Z</time>
      </trkpt>
      <trkpt lat="42.460985" lon="0.867787">
        <ele>2587.31</ele>
        <time>2012-06-20T06:39:48Z</time>
      </trkpt>
      <trkpt lat="42.460971" lon="0.867748">
        <ele>2588.81</ele>
        <time>2012-06-20T06:39:57Z</time>
      </trkpt>
      <trkpt lat="42.460952" lon="0.867723">
        <ele>2590.68</ele>
        <time>2012-06-20T06:40:05Z</time>
      </trkpt>
      <trkpt lat="42.460964" lon="0.867701">
        <ele>2591.73</ele>
        <time>2012-06-20T06:40:12Z</time>
      </trkpt>
      <trkpt lat="42.460987" lon="0.867670">
        <ele>2593.13</ele>
        <time>2012-06-20T06:40:21Z</time>
      </trkpt>
      <trkpt lat="42.461005" lon="0.867658">
        <ele>2595.06</ele>
        <time>2012-06-20T06:40:38Z</time>
      </trkpt>
      <trkpt lat="42.461019" lon="0.867653">
        <ele>2595.32</ele>
        <time>2012-06-20T06:40:41Z</time>
      </trkpt>
      <trkpt lat="42.461019" lon="0.867635">
        <ele>2595.95</ele>
        <time>2012-06-20T06:40:45Z</time>
      </trkpt>
      <trkpt lat="42.460990" lon="0.867600">
        <ele>2597.33</ele>
        <time>2012-06-20T06:40:53Z</time>
      </trkpt>
      <trkpt lat="42.460986" lon="0.867577">
        <ele>2598.21</ele>
        <time>2012-06-20T06:40:59Z</time>
      </trkpt>
      <trkpt lat="42.461000" lon="0.867561">
        <ele>2599.62</ele>
        <time>2012-06-20T06:41:05Z</time>
      </trkpt>
      <trkpt lat="42.460977" lon="0.867534">
        <ele>2600.50</ele>
        <time>2012-06-20T06:41:11Z</time>
      </trkpt>
      <trkpt lat="42.460984" lon="0.867522">
        <ele>2601.21</ele>
        <time>2012-06-20T06:41:15Z</time>
      </trkpt>
      <trkpt lat="42.461003" lon="0.867517">
        <ele>2602.24</ele>
        <time>2012-06-20T06:41:26Z</time>
      </trkpt>
      <trkpt lat="42.461018" lon="0.867487">
        <ele>2603.49</ele>
        <time>2012-06-20T06:41:32Z</time>
      </trkpt>
      <trkpt lat="42.461007" lon="0.867453">
        <ele>2604.79</ele>
        <time>2012-06-20T06:41:40Z</time>
      </trkpt>
      <trkpt lat="42.461057" lon="0.867435">
        <ele>2606.24</ele>
        <time>2012-06-20T06:41:49Z</time>
      </trkpt>
      <trkpt lat="42.461089" lon="0.867416">
        <ele>2607.25</ele>
        <time>2012-06-20T06:41:55Z</time>
      </trkpt>
      <trkpt lat="42.461094" lon="0.867399">
        <ele>2608.03</ele>
        <time>2012-06-20T06:41:59Z</time>
      </trkpt>
      <trkpt lat="42.461078" lon="0.867374">
        <ele>2608.95</ele>
        <time>2012-06-20T06:42:04Z</time>
      </trkpt>
      <trkpt lat="42.461060" lon="0.867360">
        <ele>2609.74</ele>
        <time>2012-06-20T06:42:08Z</time>
      </trkpt>
      <trkpt lat="42.461047" lon="0.867336">
        <ele>2610.62</ele>
        <time>2012-06-20T06:42:13Z</time>
      </trkpt>
      <trkpt lat="42.461054" lon="0.867316">
        <ele>2611.11</ele>
        <time>2012-06-20T06:42:17Z</time>
      </trkpt>
      <trkpt lat="42.461042" lon="0.867295">
        <ele>2612.01</ele>
        <time>2012-06-20T06:42:21Z</time>
      </trkpt>
      <trkpt lat="42.461002" lon="0.867206">
        <ele>2614.20</ele>
        <time>2012-06-20T06:42:36Z</time>
      </trkpt>
      <trkpt lat="42.460988" lon="0.867183">
        <ele>2614.83</ele>
        <time>2012-06-20T06:42:41Z</time>
      </trkpt>
      <trkpt lat="42.460970" lon="0.867128">
        <ele>2616.78</ele>
        <time>2012-06-20T06:43:02Z</time>
      </trkpt>
      <trkpt lat="42.460962" lon="0.867116">
        <ele>2617.47</ele>
        <time>2012-06-20T06:43:04Z</time>
      </trkpt>
      <trkpt lat="42.460964" lon="0.867120">
        <ele>2617.34</ele>
        <time>2012-06-20T06:43:26Z</time>
      </trkpt>
      <trkpt lat="42.460954" lon="0.867119">
        <ele>2617.47</ele>
        <time>2012-06-20T06:43:29Z</time>
      </trkpt>
      <trkpt lat="42.460958" lon="0.867115">
        <ele>2617.71</ele>
        <time>2012-06-20T06:43:46Z</time>
      </trkpt>
      <trkpt lat="42.460952" lon="0.867075">
        <ele>2618.64</ele>
        <time>2012-06-20T06:43:51Z</time>
      </trkpt>
      <trkpt lat="42.460947" lon="0.867057">
        <ele>2619.18</ele>
        <time>2012-06-20T06:43:55Z</time>
      </trkpt>
      <trkpt lat="42.460941" lon="0.867049">
        <ele>2619.41</ele>
        <time>2012-06-20T06:43:59Z</time>
      </trkpt>
      <trkpt lat="42.460944" lon="0.867018">
        <ele>2620.31</ele>
        <time>2012-06-20T06:44:04Z</time>
      </trkpt>
      <trkpt lat="42.460933" lon="0.866997">
        <ele>2621.33</ele>
        <time>2012-06-20T06:44:08Z</time>
      </trkpt>
      <trkpt lat="42.460915" lon="0.866926">
        <ele>2623.99</ele>
        <time>2012-06-20T06:44:19Z</time>
      </trkpt>
      <trkpt lat="42.460904" lon="0.866900">
        <ele>2624.86</ele>
        <time>2012-06-20T06:44:23Z</time>
      </trkpt>
      <trkpt lat="42.460889" lon="0.866844">
        <ele>2625.47</ele>
        <time>2012-06-20T06:44:31Z</time>
      </trkpt>
      <trkpt lat="42.460886" lon="0.866813">
        <ele>2626.90</ele>
        <time>2012-06-20T06:44:37Z</time>
      </trkpt>
      <trkpt lat="42.460906" lon="0.866810">
        <ele>2627.55</ele>
        <time>2012-06-20T06:44:42Z</time>
      </trkpt>
      <trkpt lat="42.460927" lon="0.866814">
        <ele>2628.62</ele>
        <time>2012-06-20T06:44:47Z</time>
      </trkpt>
      <trkpt lat="42.460935" lon="0.866810">
        <ele>2629.46</ele>
        <time>2012-06-20T06:44:53Z</time>
      </trkpt>
      <trkpt lat="42.460952" lon="0.866800">
        <ele>2629.91</ele>
        <time>2012-06-20T06:44:57Z</time>
      </trkpt>
      <trkpt lat="42.460955" lon="0.866771">
        <ele>2630.92</ele>
        <time>2012-06-20T06:45:02Z</time>
      </trkpt>
      <trkpt lat="42.460946" lon="0.866749">
        <ele>2631.41</ele>
        <time>2012-06-20T06:45:05Z</time>
      </trkpt>
      <trkpt lat="42.460967" lon="0.866748">
        <ele>2632.34</ele>
        <time>2012-06-20T06:45:11Z</time>
      </trkpt>
      <trkpt lat="42.460979" lon="0.866743">
        <ele>2632.47</ele>
        <time>2012-06-20T06:45:20Z</time>
      </trkpt>
      <trkpt lat="42.461015" lon="0.866737">
        <ele>2633.39</ele>
        <time>2012-06-20T06:45:27Z</time>
      </trkpt>
      <trkpt lat="42.461026" lon="0.866711">
        <ele>2634.44</ele>
        <time>2012-06-20T06:45:31Z</time>
      </trkpt>
      <trkpt lat="42.461041" lon="0.866701">
        <ele>2635.57</ele>
        <time>2012-06-20T06:45:35Z</time>
      </trkpt>
      <trkpt lat="42.461070" lon="0.866699">
        <ele>2636.62</ele>
        <time>2012-06-20T06:45:40Z</time>
      </trkpt>
      <trkpt lat="42.461098" lon="0.866690">
        <ele>2637.27</ele>
        <time>2012-06-20T06:45:45Z</time>
      </trkpt>
      <trkpt lat="42.461108" lon="0.866685">
        <ele>2637.87</ele>
        <time>2012-06-20T06:45:48Z</time>
      </trkpt>
      <trkpt lat="42.461114" lon="0.866676">
        <ele>2638.18</ele>
        <time>2012-06-20T06:45:51Z</time>
      </trkpt>
      <trkpt lat="42.461137" lon="0.866664">
        <ele>2638.81</ele>
        <time>2012-06-20T06:45:56Z</time>
      </trkpt>
      <trkpt lat="42.461150" lon="0.866642">
        <ele>2640.01</ele>
        <time>2012-06-20T06:46:01Z</time>
      </trkpt>
      <trkpt lat="42.461161" lon="0.866628">
        <ele>2640.85</ele>
        <time>2012-06-20T06:46:04Z</time>
      </trkpt>
      <trkpt lat="42.461160" lon="0.866607">
        <ele>2641.48</ele>
        <time>2012-06-20T06:46:07Z</time>
      </trkpt>
      <trkpt lat="42.461149" lon="0.866576">
        <ele>2641.95</ele>
        <time>2012-06-20T06:46:12Z</time>
      </trkpt>
      <trkpt lat="42.461152" lon="0.866553">
        <ele>2642.83</ele>
        <time>2012-06-20T06:46:16Z</time>
      </trkpt>
      <trkpt lat="42.461145" lon="0.866535">
        <ele>2643.10</ele>
        <time>2012-06-20T06:46:19Z</time>
      </trkpt>
      <trkpt lat="42.461157" lon="0.866527">
        <ele>2644.59</ele>
        <time>2012-06-20T06:46:24Z</time>
      </trkpt>
      <trkpt lat="42.461160" lon="0.866507">
        <ele>2644.96</ele>
        <time>2012-06-20T06:46:28Z</time>
      </trkpt>
      <trkpt lat="42.461163" lon="0.866499">
        <ele>2645.81</ele>
        <time>2012-06-20T06:46:38Z</time>
      </trkpt>
      <trkpt lat="42.461185" lon="0.866498">
        <ele>2646.13</ele>
        <time>2012-06-20T06:46:42Z</time>
      </trkpt>
      <trkpt lat="42.461195" lon="0.866481">
        <ele>2646.70</ele>
        <time>2012-06-20T06:46:46Z</time>
      </trkpt>
      <trkpt lat="42.461208" lon="0.866478">
        <ele>2647.11</ele>
        <time>2012-06-20T06:46:50Z</time>
      </trkpt>
      <trkpt lat="42.461224" lon="0.866469">
        <ele>2648.18</ele>
        <time>2012-06-20T06:46:55Z</time>
      </trkpt>
      <trkpt lat="42.461228" lon="0.866460">
        <ele>2648.11</ele>
        <time>2012-06-20T06:46:59Z</time>
      </trkpt>
      <trkpt lat="42.461223" lon="0.866559">
        <ele>2645.33</ele>
        <time>2012-06-20T12:06:57Z</time>
      </trkpt>
      <trkpt lat="42.461189" lon="0.866720">
        <ele>2640.37</ele>
        <time>2012-06-20T12:06:58Z</time>
      </trkpt>
      <trkpt lat="42.461124" lon="0.866890">
        <ele>2634.49</ele>
        <time>2012-06-20T12:06:59Z</time>
      </trkpt>
      <trkpt lat="42.461074" lon="0.867064">
        <ele>2628.41</ele>
        <time>2012-06-20T12:07:00Z</time>
      </trkpt>
      <trkpt lat="42.461103" lon="0.867285">
        <ele>2618.42</ele>
        <time>2012-06-20T12:07:01Z</time>
      </trkpt>
      <trkpt lat="42.461128" lon="0.867436">
        <ele>2611.25</ele>
        <time>2012-06-20T12:07:02Z</time>
      </trkpt>
      <trkpt lat="42.461253" lon="0.867500">
        <ele>2605.86</ele>
        <time>2012-06-20T12:07:03Z</time>
      </trkpt>
      <trkpt lat="42.461321" lon="0.867674">
        <ele>2595.68</ele>
        <time>2012-06-20T12:07:04Z</time>
      </trkpt>
      <trkpt lat="42.461259" lon="0.867801">
        <ele>2592.95</ele>
        <time>2012-06-20T12:07:05Z</time>
      </trkpt>
      <trkpt lat="42.461362" lon="0.867906">
        <ele>2583.85</ele>
        <time>2012-06-20T12:07:06Z</time>
      </trkpt>
      <trkpt lat="42.461354" lon="0.868112">
        <ele>2574.60</ele>
        <time>2012-06-20T12:07:07Z</time>
      </trkpt>
      <trkpt lat="42.461331" lon="0.868286">
        <ele>2567.19</ele>
        <time>2012-06-20T12:07:08Z</time>
      </trkpt>
      <trkpt lat="42.461342" lon="0.868483">
        <ele>2558.97</ele>
        <time>2012-06-20T12:07:09Z</time>
      </trkpt>
      <trkpt lat="42.461275" lon="0.868643">
        <ele>2554.91</ele>
        <time>2012-06-20T12:07:10Z</time>
      </trkpt>
      <trkpt lat="42.461210" lon="0.868810">
        <ele>2549.23</ele>
        <time>2012-06-20T12:07:11Z</time>
      </trkpt>
      <trkpt lat="42.461127" lon="0.868984">
        <ele>2542.96</ele>
        <time>2012-06-20T12:07:12Z</time>
      </trkpt>
      <trkpt lat="42.461068" lon="0.869131">
        <ele>2538.13</ele>
        <time>2012-06-20T12:07:13Z</time>
      </trkpt>
      <trkpt lat="42.461072" lon="0.869338">
        <ele>2531.80</ele>
        <time>2012-06-20T12:07:14Z</time>
      </trkpt>
      <trkpt lat="42.461061" lon="0.869537">
        <ele>2525.01</ele>
        <time>2012-06-20T12:07:15Z</time>
      </trkpt>
      <trkpt lat="42.461105" lon="0.869675">
        <ele>2519.75</ele>
        <time>2012-06-20T12:07:16Z</time>
      </trkpt>
      <trkpt lat="42.461091" lon="0.869849">
        <ele>2514.41</ele>
        <time>2012-06-20T12:07:17Z</time>
      </trkpt>
      <trkpt lat="42.461048" lon="0.870026">
        <ele>2509.86</ele>
        <time>2012-06-20T12:07:18Z</time>
      </trkpt>
      <trkpt lat="42.461036" lon="0.870241">
        <ele>2503.66</ele>
        <time>2012-06-20T12:07:19Z</time>
      </trkpt>
      <trkpt lat="42.461030" lon="0.870431">
        <ele>2498.12</ele>
        <time>2012-06-20T12:07:20Z</time>
      </trkpt>
      <trkpt lat="42.461067" lon="0.870643">
        <ele>2490.79</ele>
        <time>2012-06-20T12:07:21Z</time>
      </trkpt>
      <trkpt lat="42.461157" lon="0.870747">
        <ele>2484.53</ele>
        <time>2012-06-20T12:07:22Z</time>
      </trkpt>
      <trkpt lat="42.461260" lon="0.870808">
        <ele>2479.49</ele>
        <time>2012-06-20T12:07:23Z</time>
      </trkpt>
      <trkpt lat="42.461294" lon="0.870996">
        <ele>2472.51</ele>
        <time>2012-06-20T12:07:24Z</time>
      </trkpt>
      <trkpt lat="42.461243" lon="0.871164">
        <ele>2469.81</ele>
        <time>2012-06-20T12:07:25Z</time>
      </trkpt>
      <trkpt lat="42.461274" lon="0.871377">
        <ele>2465.41</ele>
        <time>2012-06-20T12:07:26Z</time>
      </trkpt>
      <trkpt lat="42.461302" lon="0.871542">
        <ele>2462.90</ele>
        <time>2012-06-20T12:07:27Z</time>
      </trkpt>
      <trkpt lat="42.461309" lon="0.871723">
        <ele>2461.14</ele>
        <time>2012-06-20T12:07:28Z</time>
      </trkpt>
      <trkpt lat="42.461327" lon="0.871968">
        <ele>2459.22</ele>
        <time>2012-06-20T12:07:29Z</time>
      </trkpt>
      <trkpt lat="42.461348" lon="0.872103">
        <ele>2456.39</ele>
        <time>2012-06-20T12:07:30Z</time>
      </trkpt>
      <trkpt lat="42.461385" lon="0.872325">
        <ele>2451.82</ele>
        <time>2012-06-20T12:07:31Z</time>
      </trkpt>
      <trkpt lat="42.461361" lon="0.872567">
        <ele>2449.02</ele>
        <time>2012-06-20T12:07:32Z</time>
      </trkpt>
      <trkpt lat="42.461339" lon="0.872693">
        <ele>2448.85</ele>
        <time>2012-06-20T12:07:33Z</time>
      </trkpt>
      <trkpt lat="42.461302" lon="0.872883">
        <ele>2449.79</ele>
        <time>2012-06-20T12:07:34Z</time>
      </trkpt>
      <trkpt lat="42.461234" lon="0.873115">
        <ele>2451.29</ele>
        <time>2012-06-20T12:07:35Z</time>
      </trkpt>
      <trkpt lat="42.461201" lon="0.873208">
        <ele>2451.90</ele>
        <time>2012-06-20T12:07:36Z</time>
      </trkpt>
      <trkpt lat="42.461107" lon="0.873521">
        <ele>2451.67</ele>
        <time>2012-06-20T12:07:37Z</time>
      </trkpt>
      <trkpt lat="42.461037" lon="0.873851">
        <ele>2450.81</ele>
        <time>2012-06-20T12:07:39Z</time>
      </trkpt>
      <trkpt lat="42.460999" lon="0.874091">
        <ele>2454.32</ele>
        <time>2012-06-20T12:07:40Z</time>
      </trkpt>
      <trkpt lat="42.460898" lon="0.874269">
        <ele>2459.22</ele>
        <time>2012-06-20T12:07:41Z</time>
      </trkpt>
      <trkpt lat="42.460836" lon="0.874421">
        <ele>2464.95</ele>
        <time>2012-06-20T12:07:42Z</time>
      </trkpt>
      <trkpt lat="42.460767" lon="0.874601">
        <ele>2471.71</ele>
        <time>2012-06-20T12:07:43Z</time>
      </trkpt>
      <trkpt lat="42.460652" lon="0.874705">
        <ele>2474.14</ele>
        <time>2012-06-20T12:07:44Z</time>
      </trkpt>
      <trkpt lat="42.460582" lon="0.874859">
        <ele>2477.62</ele>
        <time>2012-06-20T12:07:45Z</time>
      </trkpt>
      <trkpt lat="42.460554" lon="0.874932">
        <ele>2479.23</ele>
        <time>2012-06-20T12:07:46Z</time>
      </trkpt>
      <trkpt lat="42.460433" lon="0.875133">
        <ele>2481.32</ele>
        <time>2012-06-20T12:07:47Z</time>
      </trkpt>
      <trkpt lat="42.460351" lon="0.875242">
        <ele>2482.66</ele>
        <time>2012-06-20T12:07:48Z</time>
      </trkpt>
      <trkpt lat="42.460263" lon="0.875493">
        <ele>2483.66</ele>
        <time>2012-06-20T12:07:49Z</time>
      </trkpt>
      <trkpt lat="42.460237" lon="0.875618">
        <ele>2483.66</ele>
        <time>2012-06-20T12:07:50Z</time>
      </trkpt>
      <trkpt lat="42.460197" lon="0.875810">
        <ele>2482.18</ele>
        <time>2012-06-20T12:07:51Z</time>
      </trkpt>
      <trkpt lat="42.460166" lon="0.876028">
        <ele>2481.81</ele>
        <time>2012-06-20T12:07:52Z</time>
      </trkpt>
      <trkpt lat="42.460154" lon="0.876169">
        <ele>2482.31</ele>
        <time>2012-06-20T12:07:53Z</time>
      </trkpt>
      <trkpt lat="42.460126" lon="0.876447">
        <ele>2484.39</ele>
        <time>2012-06-20T12:07:54Z</time>
      </trkpt>
      <trkpt lat="42.460113" lon="0.876546">
        <ele>2485.09</ele>
        <time>2012-06-20T12:07:55Z</time>
      </trkpt>
      <trkpt lat="42.460003" lon="0.876885">
        <ele>2489.83</ele>
        <time>2012-06-20T12:07:56Z</time>
      </trkpt>
      <trkpt lat="42.459943" lon="0.877071">
        <ele>2493.76</ele>
        <time>2012-06-20T12:07:57Z</time>
      </trkpt>
      <trkpt lat="42.459872" lon="0.877246">
        <ele>2497.23</ele>
        <time>2012-06-20T12:07:58Z</time>
      </trkpt>
      <trkpt lat="42.459801" lon="0.877402">
        <ele>2501.44</ele>
        <time>2012-06-20T12:07:59Z</time>
      </trkpt>
      <trkpt lat="42.459781" lon="0.877582">
        <ele>2505.84</ele>
        <time>2012-06-20T12:08:00Z</time>
      </trkpt>
      <trkpt lat="42.459740" lon="0.877751">
        <ele>2511.26</ele>
        <time>2012-06-20T12:08:01Z</time>
      </trkpt>
      <trkpt lat="42.459724" lon="0.877942">
        <ele>2515.01</ele>
        <time>2012-06-20T12:08:02Z</time>
      </trkpt>
      <trkpt lat="42.459643" lon="0.878137">
        <ele>2520.97</ele>
        <time>2012-06-20T12:08:03Z</time>
      </trkpt>
      <trkpt lat="42.459589" lon="0.878308">
        <ele>2527.04</ele>
        <time>2012-06-20T12:08:04Z</time>
      </trkpt>
      <trkpt lat="42.459584" lon="0.878493">
        <ele>2530.87</ele>
        <time>2012-06-20T12:08:05Z</time>
      </trkpt>
      <trkpt lat="42.459610" lon="0.878707">
        <ele>2533.81</ele>
        <time>2012-06-20T12:08:06Z</time>
      </trkpt>
      <trkpt lat="42.459606" lon="0.878859">
        <ele>2536.81</ele>
        <time>2012-06-20T12:08:07Z</time>
      </trkpt>
      <trkpt lat="42.459684" lon="0.879048">
        <ele>2536.89</ele>
        <time>2012-06-20T12:08:08Z</time>
      </trkpt>
      <trkpt lat="42.459732" lon="0.879150">
        <ele>2536.98</ele>
        <time>2012-06-20T12:08:09Z</time>
      </trkpt>
      <trkpt lat="42.459807" lon="0.879285">
        <ele>2536.12</ele>
        <time>2012-06-20T12:08:10Z</time>
      </trkpt>
      <trkpt lat="42.459829" lon="0.879587">
        <ele>2533.32</ele>
        <time>2012-06-20T12:08:11Z</time>
      </trkpt>
      <trkpt lat="42.459856" lon="0.879723">
        <ele>2531.29</ele>
        <time>2012-06-20T12:08:12Z</time>
      </trkpt>
      <trkpt lat="42.459950" lon="0.879836">
        <ele>2525.55</ele>
        <time>2012-06-20T12:08:13Z</time>
      </trkpt>
      <trkpt lat="42.459969" lon="0.880059">
        <ele>2522.55</ele>
        <time>2012-06-20T12:08:14Z</time>
      </trkpt>
      <trkpt lat="42.459998" lon="0.880269">
        <ele>2519.94</ele>
        <time>2012-06-20T12:08:15Z</time>
      </trkpt>
      <trkpt lat="42.460097" lon="0.880393">
        <ele>2515.06</ele>
        <time>2012-06-20T12:08:16Z</time>
      </trkpt>
      <trkpt lat="42.460217" lon="0.880434">
        <ele>2509.84</ele>
        <time>2012-06-20T12:08:17Z</time>
      </trkpt>
      <trkpt lat="42.460372" lon="0.880479">
        <ele>2502.71</ele>
        <time>2012-06-20T12:08:18Z</time>
      </trkpt>
      <trkpt lat="42.460506" lon="0.880495">
        <ele>2495.64</ele>
        <time>2012-06-20T12:08:19Z</time>
      </trkpt>
      <trkpt lat="42.460619" lon="0.880566">
        <ele>2488.58</ele>
        <time>2012-06-20T12:08:20Z</time>
      </trkpt>
      <trkpt lat="42.460772" lon="0.880608">
        <ele>2480.72</ele>
        <time>2012-06-20T12:08:21Z</time>
      </trkpt>
      <trkpt lat="42.460912" lon="0.880688">
        <ele>2473.46</ele>
        <time>2012-06-20T12:08:22Z</time>
      </trkpt>
      <trkpt lat="42.461059" lon="0.880719">
        <ele>2465.21</ele>
        <time>2012-06-20T12:08:23Z</time>
      </trkpt>
      <trkpt lat="42.461194" lon="0.880746">
        <ele>2458.59</ele>
        <time>2012-06-20T12:08:24Z</time>
      </trkpt>
      <trkpt lat="42.461352" lon="0.880818">
        <ele>2449.95</ele>
        <time>2012-06-20T12:08:25Z</time>
      </trkpt>
      <trkpt lat="42.461428" lon="0.880962">
        <ele>2444.51</ele>
        <time>2012-06-20T12:08:26Z</time>
      </trkpt>
      <trkpt lat="42.461551" lon="0.881063">
        <ele>2438.86</ele>
        <time>2012-06-20T12:08:27Z</time>
      </trkpt>
      <trkpt lat="42.461605" lon="0.881071">
        <ele>2438.24</ele>
        <time>2012-06-20T12:08:28Z</time>
      </trkpt>
      <trkpt lat="42.461724" lon="0.881101">
        <ele>2436.81</ele>
        <time>2012-06-20T12:08:29Z</time>
      </trkpt>
      <trkpt lat="42.461902" lon="0.881202">
        <ele>2434.43</ele>
        <time>2012-06-20T12:08:30Z</time>
      </trkpt>
      <trkpt lat="42.462072" lon="0.881389">
        <ele>2436.55</ele>
        <time>2012-06-20T12:08:31Z</time>
      </trkpt>
      <trkpt lat="42.462186" lon="0.881335">
        <ele>2439.96</ele>
        <time>2012-06-20T12:08:32Z</time>
      </trkpt>
      <trkpt lat="42.462311" lon="0.881308">
        <ele>2444.18</ele>
        <time>2012-06-20T12:08:33Z</time>
      </trkpt>
      <trkpt lat="42.462439" lon="0.881354">
        <ele>2450.62</ele>
        <time>2012-06-20T12:08:34Z</time>
      </trkpt>
      <trkpt lat="42.462488" lon="0.881397">
        <ele>2454.46</ele>
        <time>2012-06-20T12:08:35Z</time>
      </trkpt>
      <trkpt lat="42.462601" lon="0.881418">
        <ele>2460.19</ele>
        <time>2012-06-20T12:08:36Z</time>
      </trkpt>
      <trkpt lat="42.462696" lon="0.881311">
        <ele>2461.62</ele>
        <time>2012-06-20T12:08:37Z</time>
      </trkpt>
      <trkpt lat="42.462834" lon="0.881359">
        <ele>2470.33</ele>
        <time>2012-06-20T12:08:38Z</time>
      </trkpt>
      <trkpt lat="42.462969" lon="0.881419">
        <ele>2477.74</ele>
        <time>2012-06-20T12:08:39Z</time>
      </trkpt>
      <trkpt lat="42.463065" lon="0.881408">
        <ele>2482.52</ele>
        <time>2012-06-20T12:08:40Z</time>
      </trkpt>
      <trkpt lat="42.463201" lon="0.881461">
        <ele>2486.13</ele>
        <time>2012-06-20T12:08:41Z</time>
      </trkpt>
      <trkpt lat="42.463293" lon="0.881581">
        <ele>2491.62</ele>
        <time>2012-06-20T12:08:42Z</time>
      </trkpt>
      <trkpt lat="42.463341" lon="0.881582">
        <ele>2493.98</ele>
        <time>2012-06-20T12:08:43Z</time>
      </trkpt>
      <trkpt lat="42.463431" lon="0.881644">
        <ele>2498.49</ele>
        <time>2012-06-20T12:08:44Z</time>
      </trkpt>
      <trkpt lat="42.463517" lon="0.881749">
        <ele>2504.80</ele>
        <time>2012-06-20T12:08:45Z</time>
      </trkpt>
      <trkpt lat="42.463636" lon="0.881808">
        <ele>2514.39</ele>
        <time>2012-06-20T12:08:46Z</time>
      </trkpt>
      <trkpt lat="42.463784" lon="0.881904">
        <ele>2524.57</ele>
        <time>2012-06-20T12:08:47Z</time>
      </trkpt>
      <trkpt lat="42.463896" lon="0.882020">
        <ele>2529.32</ele>
        <time>2012-06-20T12:08:48Z</time>
      </trkpt>
      <trkpt lat="42.464011" lon="0.882124">
        <ele>2535.43</ele>
        <time>2012-06-20T12:08:49Z</time>
      </trkpt>
      <trkpt lat="42.464132" lon="0.882208">
        <ele>2538.27</ele>
        <time>2012-06-20T12:08:50Z</time>
      </trkpt>
      <trkpt lat="42.464226" lon="0.882308">
        <ele>2542.17</ele>
        <time>2012-06-20T12:08:51Z</time>
      </trkpt>
      <trkpt lat="42.464368" lon="0.882366">
        <ele>2544.91</ele>
        <time>2012-06-20T12:08:52Z</time>
      </trkpt>
      <trkpt lat="42.464493" lon="0.882303">
        <ele>2548.23</ele>
        <time>2012-06-20T12:08:53Z</time>
      </trkpt>
      <trkpt lat="42.464617" lon="0.882369">
        <ele>2549.85</ele>
        <time>2012-06-20T12:08:54Z</time>
      </trkpt>
      <trkpt lat="42.464737" lon="0.882502">
        <ele>2552.64</ele>
        <time>2012-06-20T12:08:55Z</time>
      </trkpt>
      <trkpt lat="42.464916" lon="0.882743">
        <ele>2552.89</ele>
        <time>2012-06-20T12:08:57Z</time>
      </trkpt>
      <trkpt lat="42.464975" lon="0.882816">
        <ele>2554.15</ele>
        <time>2012-06-20T12:08:58Z</time>
      </trkpt>
      <trkpt lat="42.465168" lon="0.883049">
        <ele>2553.29</ele>
        <time>2012-06-20T12:08:59Z</time>
      </trkpt>
      <trkpt lat="42.465362" lon="0.883283">
        <ele>2550.53</ele>
        <time>2012-06-20T12:09:01Z</time>
      </trkpt>
      <trkpt lat="42.465486" lon="0.883484">
        <ele>2548.31</ele>
        <time>2012-06-20T12:09:02Z</time>
      </trkpt>
      <trkpt lat="42.465567" lon="0.883652">
        <ele>2545.92</ele>
        <time>2012-06-20T12:09:03Z</time>
      </trkpt>
      <trkpt lat="42.465632" lon="0.883790">
        <ele>2544.36</ele>
        <time>2012-06-20T12:09:04Z</time>
      </trkpt>
      <trkpt lat="42.465717" lon="0.883931">
        <ele>2542.36</ele>
        <time>2012-06-20T12:09:05Z</time>
      </trkpt>
      <trkpt lat="42.465841" lon="0.884106">
        <ele>2541.68</ele>
        <time>2012-06-20T12:09:06Z</time>
      </trkpt>
      <trkpt lat="42.465924" lon="0.884302">
        <ele>2543.52</ele>
        <time>2012-06-20T12:09:07Z</time>
      </trkpt>
      <trkpt lat="42.465986" lon="0.884485">
        <ele>2545.55</ele>
        <time>2012-06-20T12:09:08Z</time>
      </trkpt>
      <trkpt lat="42.466056" lon="0.884577">
        <ele>2549.28</ele>
        <time>2012-06-20T12:09:09Z</time>
      </trkpt>
      <trkpt lat="42.466124" lon="0.884647">
        <ele>2553.73</ele>
        <time>2012-06-20T12:09:10Z</time>
      </trkpt>
      <trkpt lat="42.466175" lon="0.884751">
        <ele>2558.20</ele>
        <time>2012-06-20T12:09:11Z</time>
      </trkpt>
      <trkpt lat="42.466195" lon="0.884834">
        <ele>2561.76</ele>
        <time>2012-06-20T12:09:12Z</time>
      </trkpt>
      <trkpt lat="42.466217" lon="0.884921">
        <ele>2564.24</ele>
        <time>2012-06-20T12:09:13Z</time>
      </trkpt>
      <trkpt lat="42.466392" lon="0.885128">
        <ele>2578.21</ele>
        <time>2012-06-20T12:09:14Z</time>
      </trkpt>
      <trkpt lat="42.466513" lon="0.885258">
        <ele>2587.58</ele>
        <time>2012-06-20T12:09:15Z</time>
      </trkpt>
      <trkpt lat="42.466653" lon="0.885385">
        <ele>2594.74</ele>
        <time>2012-06-20T12:09:16Z</time>
      </trkpt>
      <trkpt lat="42.466736" lon="0.885507">
        <ele>2598.32</ele>
        <time>2012-06-20T12:09:17Z</time>
      </trkpt>
      <trkpt lat="42.466845" lon="0.885664">
        <ele>2602.39</ele>
        <time>2012-06-20T12:09:18Z</time>
      </trkpt>
      <trkpt lat="42.466983" lon="0.885745">
        <ele>2605.03</ele>
        <time>2012-06-20T12:09:19Z</time>
      </trkpt>
      <trkpt lat="42.467109" lon="0.885764">
        <ele>2605.82</ele>
        <time>2012-06-20T12:09:20Z</time>
      </trkpt>
      <trkpt lat="42.467246" lon="0.885862">
        <ele>2605.13</ele>
        <time>2012-06-20T12:09:21Z</time>
      </trkpt>
      <trkpt lat="42.467379" lon="0.885903">
        <ele>2603.36</ele>
        <time>2012-06-20T12:09:22Z</time>
      </trkpt>
      <trkpt lat="42.467520" lon="0.885916">
        <ele>2600.98</ele>
        <time>2012-06-20T12:09:23Z</time>
      </trkpt>
      <trkpt lat="42.467674" lon="0.885930">
        <ele>2595.33</ele>
        <time>2012-06-20T12:09:24Z</time>
      </trkpt>
      <trkpt lat="42.467780" lon="0.886006">
        <ele>2590.66</ele>
        <time>2012-06-20T12:09:25Z</time>
      </trkpt>
      <trkpt lat="42.467922" lon="0.886053">
        <ele>2581.65</ele>
        <time>2012-06-20T12:09:26Z</time>
      </trkpt>
      <trkpt lat="42.468036" lon="0.886135">
        <ele>2573.55</ele>
        <time>2012-06-20T12:09:27Z</time>
      </trkpt>
      <trkpt lat="42.468103" lon="0.886257">
        <ele>2568.97</ele>
        <time>2012-06-20T12:09:28Z</time>
      </trkpt>
      <trkpt lat="42.468211" lon="0.886311">
        <ele>2562.86</ele>
        <time>2012-06-20T12:09:29Z</time>
      </trkpt>
      <trkpt lat="42.468324" lon="0.886472">
        <ele>2556.92</ele>
        <time>2012-06-20T12:09:30Z</time>
      </trkpt>
      <trkpt lat="42.468449" lon="0.886500">
        <ele>2552.18</ele>
        <time>2012-06-20T12:09:31Z</time>
      </trkpt>
      <trkpt lat="42.468575" lon="0.886587">
        <ele>2548.10</ele>
        <time>2012-06-20T12:09:32Z</time>
      </trkpt>
      <trkpt lat="42.468710" lon="0.886617">
        <ele>2544.83</ele>
        <time>2012-06-20T12:09:33Z</time>
      </trkpt>
      <trkpt lat="42.468826" lon="0.886664">
        <ele>2543.09</ele>
        <time>2012-06-20T12:09:34Z</time>
      </trkpt>
      <trkpt lat="42.468988" lon="0.886683">
        <ele>2541.04</ele>
        <time>2012-06-20T12:09:35Z</time>
      </trkpt>
      <trkpt lat="42.469114" lon="0.886763">
        <ele>2539.05</ele>
        <time>2012-06-20T12:09:36Z</time>
      </trkpt>
      <trkpt lat="42.469258" lon="0.886800">
        <ele>2537.42</ele>
        <time>2012-06-20T12:09:37Z</time>
      </trkpt>
      <trkpt lat="42.469395" lon="0.886883">
        <ele>2537.41</ele>
        <time>2012-06-20T12:09:38Z</time>
      </trkpt>
      <trkpt lat="42.469570" lon="0.887024">
        <ele>2537.94</ele>
        <time>2012-06-20T12:09:40Z</time>
      </trkpt>
      <trkpt lat="42.469786" lon="0.887185">
        <ele>2537.13</ele>
        <time>2012-06-20T12:09:41Z</time>
      </trkpt>
      <trkpt lat="42.469867" lon="0.887368">
        <ele>2536.79</ele>
        <time>2012-06-20T12:09:42Z</time>
      </trkpt>
      <trkpt lat="42.470083" lon="0.887454">
        <ele>2536.37</ele>
        <time>2012-06-20T12:09:44Z</time>
      </trkpt>
      <trkpt lat="42.470490" lon="0.887547">
        <ele>2536.34</ele>
        <time>2012-06-20T12:09:47Z</time>
      </trkpt>
      <trkpt lat="42.470689" lon="0.887568">
        <ele>2534.89</ele>
        <time>2012-06-20T12:09:48Z</time>
      </trkpt>
      <trkpt lat="42.471022" lon="0.887375">
        <ele>2548.66</ele>
        <time>2012-06-20T12:09:50Z</time>
      </trkpt>
      <trkpt lat="42.471209" lon="0.887146">
        <ele>2550.57</ele>
        <time>2012-06-20T12:09:52Z</time>
      </trkpt>
      <trkpt lat="42.471536" lon="0.887049">
        <ele>2550.51</ele>
        <time>2012-06-20T12:09:54Z</time>
      </trkpt>
      <trkpt lat="42.471679" lon="0.887089">
        <ele>2551.01</ele>
        <time>2012-06-20T12:09:55Z</time>
      </trkpt>
      <trkpt lat="42.471851" lon="0.887178">
        <ele>2554.88</ele>
        <time>2012-06-20T12:09:56Z</time>
      </trkpt>
      <trkpt lat="42.471931" lon="0.887348">
        <ele>2559.67</ele>
        <time>2012-06-20T12:09:57Z</time>
      </trkpt>
      <trkpt lat="42.471987" lon="0.887368">
        <ele>2562.18</ele>
        <time>2012-06-20T12:09:58Z</time>
      </trkpt>
      <trkpt lat="42.472183" lon="0.887499">
        <ele>2570.26</ele>
        <time>2012-06-20T12:09:59Z</time>
      </trkpt>
      <trkpt lat="42.472283" lon="0.887622">
        <ele>2575.59</ele>
        <time>2012-06-20T12:10:00Z</time>
      </trkpt>
      <trkpt lat="42.472372" lon="0.887791">
        <ele>2581.37</ele>
        <time>2012-06-20T12:10:01Z</time>
      </trkpt>
      <trkpt lat="42.472462" lon="0.887908">
        <ele>2584.22</ele>
        <time>2012-06-20T12:10:02Z</time>
      </trkpt>
      <trkpt lat="42.472623" lon="0.887968">
        <ele>2592.80</ele>
        <time>2012-06-20T12:10:03Z</time>
      </trkpt>
      <trkpt lat="42.472782" lon="0.887908">
        <ele>2602.46</ele>
        <time>2012-06-20T12:10:04Z</time>
      </trkpt>
      <trkpt lat="42.472848" lon="0.887872">
        <ele>2606.87</ele>
        <time>2012-06-20T12:10:05Z</time>
      </trkpt>
      <trkpt lat="42.473035" lon="0.887769">
        <ele>2612.08</ele>
        <time>2012-06-20T12:10:06Z</time>
      </trkpt>
      <trkpt lat="42.473594" lon="0.887880">
        <ele>2623.20</ele>
        <time>2012-06-20T12:10:10Z</time>
      </trkpt>
      <trkpt lat="42.473946" lon="0.887908">
        <ele>2629.34</ele>
        <time>2012-06-20T12:10:12Z</time>
      </trkpt>
      <trkpt lat="42.474319" lon="0.888104">
        <ele>2640.94</ele>
        <time>2012-06-20T12:10:15Z</time>
      </trkpt>
      <trkpt lat="42.474677" lon="0.888512">
        <ele>2657.77</ele>
        <time>2012-06-20T12:10:18Z</time>
      </trkpt>
      <trkpt lat="42.474823" lon="0.888643">
        <ele>2665.91</ele>
        <time>2012-06-20T12:10:19Z</time>
      </trkpt>
      <trkpt lat="42.474885" lon="0.888652">
        <ele>2668.31</ele>
        <time>2012-06-20T12:10:20Z</time>
      </trkpt>
      <trkpt lat="42.475103" lon="0.888808">
        <ele>2678.43</ele>
        <time>2012-06-20T12:10:21Z</time>
      </trkpt>
      <trkpt lat="42.475246" lon="0.888871">
        <ele>2685.19</ele>
        <time>2012-06-20T12:10:22Z</time>
      </trkpt>
      <trkpt lat="42.475449" lon="0.889107">
        <ele>2696.27</ele>
        <time>2012-06-20T12:10:24Z</time>
      </trkpt>
      <trkpt lat="42.475585" lon="0.889117">
        <ele>2701.09</ele>
        <time>2012-06-20T12:10:25Z</time>
      </trkpt>
      <trkpt lat="42.475719" lon="0.889253">
        <ele>2708.22</ele>
        <time>2012-06-20T12:10:26Z</time>
      </trkpt>
      <trkpt lat="42.475803" lon="0.889280">
        <ele>2712.05</ele>
        <time>2012-06-20T12:10:27Z</time>
      </trkpt>
      <trkpt lat="42.475980" lon="0.889372">
        <ele>2721.11</ele>
        <time>2012-06-20T12:10:28Z</time>
      </trkpt>
      <trkpt lat="42.476097" lon="0.889309">
        <ele>2726.41</ele>
        <time>2012-06-20T12:10:29Z</time>
      </trkpt>
      <trkpt lat="42.476203" lon="0.889411">
        <ele>2732.29</ele>
        <time>2012-06-20T12:10:30Z</time>
      </trkpt>
      <trkpt lat="42.476338" lon="0.889470">
        <ele>2736.06</ele>
        <time>2012-06-20T12:10:31Z</time>
      </trkpt>
      <trkpt lat="42.476515" lon="0.889420">
        <ele>2742.33</ele>
        <time>2012-06-20T12:10:32Z</time>
      </trkpt>
      <trkpt lat="42.476670" lon="0.889504">
        <ele>2748.11</ele>
        <time>2012-06-20T12:10:33Z</time>
      </trkpt>
      <trkpt lat="42.476705" lon="0.889663">
        <ele>2749.03</ele>
        <time>2012-06-20T12:10:34Z</time>
      </trkpt>
      <trkpt lat="42.476756" lon="0.890065">
        <ele>2752.99</ele>
        <time>2012-06-20T12:10:36Z</time>
      </trkpt>
      <trkpt lat="42.476865" lon="0.890013">
        <ele>2753.00</ele>
        <time>2012-06-20T12:10:37Z</time>
      </trkpt>
      <trkpt lat="42.476760" lon="0.889795">
        <ele>2750.01</ele>
        <time>2012-06-20T12:10:38Z</time>
      </trkpt>
      <trkpt lat="42.476743" lon="0.889551">
        <ele>2748.53</ele>
        <time>2012-06-20T12:10:39Z</time>
      </trkpt>
      <trkpt lat="42.476734" lon="0.889581">
        <ele>2748.24</ele>
        <time>2012-06-20T12:10:40Z</time>
      </trkpt>
      <trkpt lat="42.476828" lon="0.889625">
        <ele>2748.68</ele>
        <time>2012-06-20T12:10:41Z</time>
      </trkpt>
      <trkpt lat="42.476827" lon="0.890015">
        <ele>2752.42</ele>
        <time>2012-06-20T12:10:43Z</time>
      </trkpt>
      <trkpt lat="42.476928" lon="0.890085">
        <ele>2750.05</ele>
        <time>2012-06-20T12:10:44Z</time>
      </trkpt>
      <trkpt lat="42.477019" lon="0.890371">
        <ele>2744.77</ele>
        <time>2012-06-20T12:10:46Z</time>
      </trkpt>
      <trkpt lat="42.477116" lon="0.890551">
        <ele>2740.46</ele>
        <time>2012-06-20T12:10:47Z</time>
      </trkpt>
      <trkpt lat="42.477304" lon="0.890745">
        <ele>2731.28</ele>
        <time>2012-06-20T12:10:48Z</time>
      </trkpt>
      <trkpt lat="42.477622" lon="0.891330">
        <ele>2713.51</ele>
        <time>2012-06-20T12:10:52Z</time>
      </trkpt>
      <trkpt lat="42.477941" lon="0.891770">
        <ele>2705.82</ele>
        <time>2012-06-20T12:10:55Z</time>
      </trkpt>
      <trkpt lat="42.478174" lon="0.892063">
        <ele>2707.26</ele>
        <time>2012-06-20T12:10:57Z</time>
      </trkpt>
      <trkpt lat="42.478249" lon="0.892203">
        <ele>2709.11</ele>
        <time>2012-06-20T12:10:58Z</time>
      </trkpt>
      <trkpt lat="42.478467" lon="0.892480">
        <ele>2709.16</ele>
        <time>2012-06-20T12:11:00Z</time>
      </trkpt>
      <trkpt lat="42.478554" lon="0.892628">
        <ele>2708.24</ele>
        <time>2012-06-20T12:11:01Z</time>
      </trkpt>
      <trkpt lat="42.478728" lon="0.892695">
        <ele>2703.45</ele>
        <time>2012-06-20T12:11:02Z</time>
      </trkpt>
      <trkpt lat="42.478902" lon="0.892701">
        <ele>2693.88</ele>
        <time>2012-06-20T12:11:03Z</time>
      </trkpt>
      <trkpt lat="42.478971" lon="0.892753">
        <ele>2692.36</ele>
        <time>2012-06-20T12:11:04Z</time>
      </trkpt>
      <trkpt lat="42.479657" lon="0.892251">
        <ele>2670.30</ele>
        <time>2012-06-20T12:11:09Z</time>
      </trkpt>
      <trkpt lat="42.479738" lon="0.892260">
        <ele>2667.40</ele>
        <time>2012-06-20T12:11:10Z</time>
      </trkpt>
      <trkpt lat="42.479935" lon="0.892095">
        <ele>2660.12</ele>
        <time>2012-06-20T12:11:11Z</time>
      </trkpt>
      <trkpt lat="42.480078" lon="0.892071">
        <ele>2654.89</ele>
        <time>2012-06-20T12:11:12Z</time>
      </trkpt>
      <trkpt lat="42.480191" lon="0.892002">
        <ele>2649.59</ele>
        <time>2012-06-20T12:11:13Z</time>
      </trkpt>
      <trkpt lat="42.480401" lon="0.891989">
        <ele>2641.49</ele>
        <time>2012-06-20T12:11:14Z</time>
      </trkpt>
      <trkpt lat="42.480525" lon="0.891965">
        <ele>2635.18</ele>
        <time>2012-06-20T12:11:15Z</time>
      </trkpt>
      <trkpt lat="42.480612" lon="0.891950">
        <ele>2632.30</ele>
        <time>2012-06-20T12:11:16Z</time>
      </trkpt>
      <trkpt lat="42.480806" lon="0.891937">
        <ele>2623.68</ele>
        <time>2012-06-20T12:11:17Z</time>
      </trkpt>
      <trkpt lat="42.480950" lon="0.891935">
        <ele>2617.41</ele>
        <time>2012-06-20T12:11:18Z</time>
      </trkpt>
      <trkpt lat="42.481105" lon="0.891890">
        <ele>2611.69</ele>
        <time>2012-06-20T12:11:19Z</time>
      </trkpt>
      <trkpt lat="42.481362" lon="0.891749">
        <ele>2603.96</ele>
        <time>2012-06-20T12:11:21Z</time>
      </trkpt>
      <trkpt lat="42.481437" lon="0.891587">
        <ele>2597.65</ele>
        <time>2012-06-20T12:11:22Z</time>
      </trkpt>
      <trkpt lat="42.481832" lon="0.891327">
        <ele>2584.64</ele>
        <time>2012-06-20T12:11:25Z</time>
      </trkpt>
      <trkpt lat="42.482057" lon="0.891249">
        <ele>2578.44</ele>
        <time>2012-06-20T12:11:27Z</time>
      </trkpt>
      <trkpt lat="42.482209" lon="0.891194">
        <ele>2575.52</ele>
        <time>2012-06-20T12:11:28Z</time>
      </trkpt>
      <trkpt lat="42.482465" lon="0.891007">
        <ele>2570.80</ele>
        <time>2012-06-20T12:11:30Z</time>
      </trkpt>
      <trkpt lat="42.482719" lon="0.890924">
        <ele>2566.41</ele>
        <time>2012-06-20T12:11:31Z</time>
      </trkpt>
      <trkpt lat="42.482739" lon="0.890806">
        <ele>2564.63</ele>
        <time>2012-06-20T12:11:32Z</time>
      </trkpt>
      <trkpt lat="42.483182" lon="0.890310">
        <ele>2559.21</ele>
        <time>2012-06-20T12:11:36Z</time>
      </trkpt>
      <trkpt lat="42.483341" lon="0.890200">
        <ele>2558.79</ele>
        <time>2012-06-20T12:11:37Z</time>
      </trkpt>
      <trkpt lat="42.483371" lon="0.890116">
        <ele>2557.72</ele>
        <time>2012-06-20T12:11:38Z</time>
      </trkpt>
      <trkpt lat="42.483491" lon="0.889978">
        <ele>2556.90</ele>
        <time>2012-06-20T12:11:39Z</time>
      </trkpt>
      <trkpt lat="42.483606" lon="0.889882">
        <ele>2554.49</ele>
        <time>2012-06-20T12:11:40Z</time>
      </trkpt>
      <trkpt lat="42.483980" lon="0.889391">
        <ele>2547.61</ele>
        <time>2012-06-20T12:11:43Z</time>
      </trkpt>
      <trkpt lat="42.484261" lon="0.889214">
        <ele>2540.98</ele>
        <time>2012-06-20T12:11:45Z</time>
      </trkpt>
      <trkpt lat="42.484763" lon="0.889169">
        <ele>2532.76</ele>
        <time>2012-06-20T12:11:48Z</time>
      </trkpt>
      <trkpt lat="42.485054" lon="0.889176">
        <ele>2534.30</ele>
        <time>2012-06-20T12:11:50Z</time>
      </trkpt>
      <trkpt lat="42.485344" lon="0.889066">
        <ele>2538.52</ele>
        <time>2012-06-20T12:11:52Z</time>
      </trkpt>
      <trkpt lat="42.485449" lon="0.889025">
        <ele>2541.93</ele>
        <time>2012-06-20T12:11:53Z</time>
      </trkpt>
      <trkpt lat="42.485696" lon="0.888974">
        <ele>2547.61</ele>
        <time>2012-06-20T12:11:55Z</time>
      </trkpt>
      <trkpt lat="42.486019" lon="0.888869">
        <ele>2556.89</ele>
        <time>2012-06-20T12:11:57Z</time>
      </trkpt>
      <trkpt lat="42.486382" lon="0.888489">
        <ele>2569.40</ele>
        <time>2012-06-20T12:12:00Z</time>
      </trkpt>
      <trkpt lat="42.486451" lon="0.888617">
        <ele>2575.52</ele>
        <time>2012-06-20T12:12:01Z</time>
      </trkpt>
      <trkpt lat="42.486556" lon="0.888513">
        <ele>2577.50</ele>
        <time>2012-06-20T12:12:02Z</time>
      </trkpt>
      <trkpt lat="42.486675" lon="0.888462">
        <ele>2578.93</ele>
        <time>2012-06-20T12:12:03Z</time>
      </trkpt>
      <trkpt lat="42.486813" lon="0.888345">
        <ele>2582.21</ele>
        <time>2012-06-20T12:12:04Z</time>
      </trkpt>
      <trkpt lat="42.487032" lon="0.888166">
        <ele>2590.42</ele>
        <time>2012-06-20T12:12:06Z</time>
      </trkpt>
      <trkpt lat="42.487184" lon="0.888035">
        <ele>2591.90</ele>
        <time>2012-06-20T12:12:07Z</time>
      </trkpt>
      <trkpt lat="42.487345" lon="0.887924">
        <ele>2598.61</ele>
        <time>2012-06-20T12:12:08Z</time>
      </trkpt>
      <trkpt lat="42.487504" lon="0.887866">
        <ele>2605.89</ele>
        <time>2012-06-20T12:12:09Z</time>
      </trkpt>
      <trkpt lat="42.487758" lon="0.887662">
        <ele>2619.26</ele>
        <time>2012-06-20T12:12:11Z</time>
      </trkpt>
      <trkpt lat="42.487744" lon="0.887521">
        <ele>2623.12</ele>
        <time>2012-06-20T12:12:12Z</time>
      </trkpt>
      <trkpt lat="42.487835" lon="0.887402">
        <ele>2625.59</ele>
        <time>2012-06-20T12:12:13Z</time>
      </trkpt>
      <trkpt lat="42.487942" lon="0.887292">
        <ele>2620.72</ele>
        <time>2012-06-20T12:12:14Z</time>
      </trkpt>
      <trkpt lat="42.488075" lon="0.886982">
        <ele>2619.77</ele>
        <time>2012-06-20T12:12:16Z</time>
      </trkpt>
      <trkpt lat="42.488089" lon="0.886724">
        <ele>2618.80</ele>
        <time>2012-06-20T12:12:17Z</time>
      </trkpt>
      <trkpt lat="42.488033" lon="0.886647">
        <ele>2616.82</ele>
        <time>2012-06-20T12:12:18Z</time>
      </trkpt>
      <trkpt lat="42.488158" lon="0.886175">
        <ele>2604.89</ele>
        <time>2012-06-20T12:12:20Z</time>
      </trkpt>
      <trkpt lat="42.488111" lon="0.886022">
        <ele>2598.15</ele>
        <time>2012-06-20T12:12:21Z</time>
      </trkpt>
      <trkpt lat="42.488078" lon="0.885580">
        <ele>2584.67</ele>
        <time>2012-06-20T12:12:23Z</time>
      </trkpt>
      <trkpt lat="42.488021" lon="0.885246">
        <ele>2571.74</ele>
        <time>2012-06-20T12:12:25Z</time>
      </trkpt>
      <trkpt lat="42.487933" lon="0.885259">
        <ele>2568.39</ele>
        <time>2012-06-20T12:12:26Z</time>
      </trkpt>
      <trkpt lat="42.487632" lon="0.885072">
        <ele>2552.91</ele>
        <time>2012-06-20T12:12:28Z</time>
      </trkpt>
      <trkpt lat="42.487564" lon="0.884956">
        <ele>2546.30</ele>
        <time>2012-06-20T12:12:29Z</time>
      </trkpt>
      <trkpt lat="42.487361" lon="0.884559">
        <ele>2533.74</ele>
        <time>2012-06-20T12:12:31Z</time>
      </trkpt>
      <trkpt lat="42.487296" lon="0.884520">
        <ele>2530.84</ele>
        <time>2012-06-20T12:12:32Z</time>
      </trkpt>
      <trkpt lat="42.487342" lon="0.884241">
        <ele>2523.13</ele>
        <time>2012-06-20T12:12:33Z</time>
      </trkpt>
      <trkpt lat="42.487404" lon="0.884093">
        <ele>2515.41</ele>
        <time>2012-06-20T12:12:34Z</time>
      </trkpt>
      <trkpt lat="42.487331" lon="0.883894">
        <ele>2504.92</ele>
        <time>2012-06-20T12:12:35Z</time>
      </trkpt>
      <trkpt lat="42.487269" lon="0.883790">
        <ele>2499.13</ele>
        <time>2012-06-20T12:12:36Z</time>
      </trkpt>
      <trkpt lat="42.487298" lon="0.883589">
        <ele>2493.85</ele>
        <time>2012-06-20T12:12:37Z</time>
      </trkpt>
      <trkpt lat="42.487201" lon="0.883390">
        <ele>2487.51</ele>
        <time>2012-06-20T12:12:38Z</time>
      </trkpt>
      <trkpt lat="42.487089" lon="0.883184">
        <ele>2480.83</ele>
        <time>2012-06-20T12:12:40Z</time>
      </trkpt>
      <trkpt lat="42.486870" lon="0.883075">
        <ele>2471.78</ele>
        <time>2012-06-20T12:12:41Z</time>
      </trkpt>
      <trkpt lat="42.486820" lon="0.883159">
        <ele>2468.86</ele>
        <time>2012-06-20T12:12:42Z</time>
      </trkpt>
      <trkpt lat="42.486547" lon="0.883434">
        <ele>2453.42</ele>
        <time>2012-06-20T12:12:44Z</time>
      </trkpt>
      <trkpt lat="42.486484" lon="0.883396">
        <ele>2450.51</ele>
        <time>2012-06-20T12:12:45Z</time>
      </trkpt>
      <trkpt lat="42.486298" lon="0.883583">
        <ele>2441.43</ele>
        <time>2012-06-20T12:12:46Z</time>
      </trkpt>
      <trkpt lat="42.486191" lon="0.883516">
        <ele>2438.57</ele>
        <time>2012-06-20T12:12:47Z</time>
      </trkpt>
      <trkpt lat="42.486126" lon="0.883492">
        <ele>2435.24</ele>
        <time>2012-06-20T12:12:48Z</time>
      </trkpt>
      <trkpt lat="42.486014" lon="0.883480">
        <ele>2428.41</ele>
        <time>2012-06-20T12:12:49Z</time>
      </trkpt>
      <trkpt lat="42.485853" lon="0.883431">
        <ele>2422.23</ele>
        <time>2012-06-20T12:12:50Z</time>
      </trkpt>
      <trkpt lat="42.485627" lon="0.883425">
        <ele>2413.09</ele>
        <time>2012-06-20T12:12:52Z</time>
      </trkpt>
      <trkpt lat="42.485541" lon="0.883273">
        <ele>2410.61</ele>
        <time>2012-06-20T12:12:53Z</time>
      </trkpt>
      <trkpt lat="42.485398" lon="0.883097">
        <ele>2403.97</ele>
        <time>2012-06-20T12:12:54Z</time>
      </trkpt>
      <trkpt lat="42.485311" lon="0.882993">
        <ele>2393.87</ele>
        <time>2012-06-20T12:12:55Z</time>
      </trkpt>
      <trkpt lat="42.485396" lon="0.882856">
        <ele>2388.16</ele>
        <time>2012-06-20T12:12:56Z</time>
      </trkpt>
      <trkpt lat="42.485416" lon="0.882718">
        <ele>2385.27</ele>
        <time>2012-06-20T12:12:57Z</time>
      </trkpt>
      <trkpt lat="42.485290" lon="0.882546">
        <ele>2376.54</ele>
        <time>2012-06-20T12:12:58Z</time>
      </trkpt>
      <trkpt lat="42.485178" lon="0.882520">
        <ele>2373.22</ele>
        <time>2012-06-20T12:12:59Z</time>
      </trkpt>
      <trkpt lat="42.485057" lon="0.882505">
        <ele>2369.82</ele>
        <time>2012-06-20T12:13:00Z</time>
      </trkpt>
      <trkpt lat="42.484706" lon="0.882612">
        <ele>2360.70</ele>
        <time>2012-06-20T12:13:02Z</time>
      </trkpt>
      <trkpt lat="42.484577" lon="0.882703">
        <ele>2353.91</ele>
        <time>2012-06-20T12:13:03Z</time>
      </trkpt>
      <trkpt lat="42.484457" lon="0.882828">
        <ele>2350.17</ele>
        <time>2012-06-20T12:13:04Z</time>
      </trkpt>
      <trkpt lat="42.484151" lon="0.882935">
        <ele>2346.78</ele>
        <time>2012-06-20T12:13:06Z</time>
      </trkpt>
      <trkpt lat="42.484015" lon="0.882608">
        <ele>2339.53</ele>
        <time>2012-06-20T12:13:08Z</time>
      </trkpt>
      <trkpt lat="42.483941" lon="0.882548">
        <ele>2336.69</ele>
        <time>2012-06-20T12:13:09Z</time>
      </trkpt>
      <trkpt lat="42.483750" lon="0.882484">
        <ele>2329.95</ele>
        <time>2012-06-20T12:13:10Z</time>
      </trkpt>
      <trkpt lat="42.483725" lon="0.882417">
        <ele>2324.15</ele>
        <time>2012-06-20T12:13:11Z</time>
      </trkpt>
      <trkpt lat="42.483814" lon="0.882111">
        <ele>2311.61</ele>
        <time>2012-06-20T12:13:12Z</time>
      </trkpt>
      <trkpt lat="42.483705" lon="0.882121">
        <ele>2308.72</ele>
        <time>2012-06-20T12:13:13Z</time>
      </trkpt>
      <trkpt lat="42.483731" lon="0.881913">
        <ele>2302.07</ele>
        <time>2012-06-20T12:13:14Z</time>
      </trkpt>
      <trkpt lat="42.483600" lon="0.881874">
        <ele>2295.32</ele>
        <time>2012-06-20T12:13:15Z</time>
      </trkpt>
      <trkpt lat="42.483581" lon="0.881827">
        <ele>2289.53</ele>
        <time>2012-06-20T12:13:16Z</time>
      </trkpt>
      <trkpt lat="42.483533" lon="0.881674">
        <ele>2286.66</ele>
        <time>2012-06-20T12:13:17Z</time>
      </trkpt>
      <trkpt lat="42.483363" lon="0.881604">
        <ele>2283.33</ele>
        <time>2012-06-20T12:13:18Z</time>
      </trkpt>
      <trkpt lat="42.483057" lon="0.881465">
        <ele>2280.01</ele>
        <time>2012-06-20T12:13:20Z</time>
      </trkpt>
      <trkpt lat="42.482993" lon="0.881367">
        <ele>2278.01</ele>
        <time>2012-06-20T12:13:21Z</time>
      </trkpt>
      <trkpt lat="42.482926" lon="0.881096">
        <ele>2272.28</ele>
        <time>2012-06-20T12:13:22Z</time>
      </trkpt>
      <trkpt lat="42.482952" lon="0.880934">
        <ele>2268.85</ele>
        <time>2012-06-20T12:13:23Z</time>
      </trkpt>
      <trkpt lat="42.483059" lon="0.880710">
        <ele>2262.68</ele>
        <time>2012-06-20T12:13:25Z</time>
      </trkpt>
      <trkpt lat="42.482977" lon="0.880520">
        <ele>2255.94</ele>
        <time>2012-06-20T12:13:26Z</time>
      </trkpt>
      <trkpt lat="42.482778" lon="0.880309">
        <ele>2249.18</ele>
        <time>2012-06-20T12:13:27Z</time>
      </trkpt>
      <trkpt lat="42.482763" lon="0.880209">
        <ele>2245.90</ele>
        <time>2012-06-20T12:13:28Z</time>
      </trkpt>
      <trkpt lat="42.482448" lon="0.879830">
        <ele>2240.56</ele>
        <time>2012-06-20T12:13:31Z</time>
      </trkpt>
      <trkpt lat="42.482452" lon="0.879617">
        <ele>2237.16</ele>
        <time>2012-06-20T12:13:32Z</time>
      </trkpt>
      <trkpt lat="42.482309" lon="0.879395">
        <ele>2230.49</ele>
        <time>2012-06-20T12:13:33Z</time>
      </trkpt>
      <trkpt lat="42.482286" lon="0.879283">
        <ele>2227.09</ele>
        <time>2012-06-20T12:13:34Z</time>
      </trkpt>
      <trkpt lat="42.482353" lon="0.879144">
        <ele>2224.12</ele>
        <time>2012-06-20T12:13:35Z</time>
      </trkpt>
      <trkpt lat="42.482357" lon="0.878926">
        <ele>2217.41</ele>
        <time>2012-06-20T12:13:36Z</time>
      </trkpt>
      <trkpt lat="42.482418" lon="0.878599">
        <ele>2207.87</ele>
        <time>2012-06-20T12:13:37Z</time>
      </trkpt>
      <trkpt lat="42.482506" lon="0.878495">
        <ele>2205.42</ele>
        <time>2012-06-20T12:13:38Z</time>
      </trkpt>
      <trkpt lat="42.482623" lon="0.878175">
        <ele>2199.23</ele>
        <time>2012-06-20T12:13:40Z</time>
      </trkpt>
      <trkpt lat="42.482662" lon="0.877977">
        <ele>2195.82</ele>
        <time>2012-06-20T12:13:41Z</time>
      </trkpt>
      <trkpt lat="42.482698" lon="0.877611">
        <ele>2189.51</ele>
        <time>2012-06-20T12:13:43Z</time>
      </trkpt>
      <trkpt lat="42.482689" lon="0.877277">
        <ele>2183.32</ele>
        <time>2012-06-20T12:13:44Z</time>
      </trkpt>
      <trkpt lat="42.482701" lon="0.877003">
        <ele>2180.49</ele>
        <time>2012-06-20T12:13:46Z</time>
      </trkpt>
      <trkpt lat="42.482825" lon="0.876426">
        <ele>2171.39</ele>
        <time>2012-06-20T12:13:49Z</time>
      </trkpt>
      <trkpt lat="42.482818" lon="0.876155">
        <ele>2165.07</ele>
        <time>2012-06-20T12:13:50Z</time>
      </trkpt>
      <trkpt lat="42.482996" lon="0.876162">
        <ele>2156.99</ele>
        <time>2012-06-20T12:13:51Z</time>
      </trkpt>
      <trkpt lat="42.483171" lon="0.875884">
        <ele>2143.93</ele>
        <time>2012-06-20T12:13:53Z</time>
      </trkpt>
      <trkpt lat="42.483244" lon="0.875837">
        <ele>2141.05</ele>
        <time>2012-06-20T12:13:54Z</time>
      </trkpt>
      <trkpt lat="42.483285" lon="0.875662">
        <ele>2137.67</ele>
        <time>2012-06-20T12:13:55Z</time>
      </trkpt>
      <trkpt lat="42.483241" lon="0.875110">
        <ele>2132.39</ele>
        <time>2012-06-20T12:13:58Z</time>
      </trkpt>
      <trkpt lat="42.483189" lon="0.874852">
        <ele>2130.50</ele>
        <time>2012-06-20T12:13:59Z</time>
      </trkpt>
      <trkpt lat="42.483080" lon="0.874526">
        <ele>2126.63</ele>
        <time>2012-06-20T12:14:01Z</time>
      </trkpt>
      <trkpt lat="42.482973" lon="0.874357">
        <ele>2124.23</ele>
        <time>2012-06-20T12:14:02Z</time>
      </trkpt>
      <trkpt lat="42.482761" lon="0.874239">
        <ele>2121.36</ele>
        <time>2012-06-20T12:14:03Z</time>
      </trkpt>
      <trkpt lat="42.482457" lon="0.874181">
        <ele>2116.51</ele>
        <time>2012-06-20T12:14:05Z</time>
      </trkpt>
      <trkpt lat="42.482007" lon="0.874051">
        <ele>2114.11</ele>
        <time>2012-06-20T12:14:08Z</time>
      </trkpt>
      <trkpt lat="42.481725" lon="0.873985">
        <ele>2115.58</ele>
        <time>2012-06-20T12:14:10Z</time>
      </trkpt>
      <trkpt lat="42.481574" lon="0.873831">
        <ele>2112.63</ele>
        <time>2012-06-20T12:14:12Z</time>
      </trkpt>
      <trkpt lat="42.481382" lon="0.873777">
        <ele>2109.88</ele>
        <time>2012-06-20T12:14:13Z</time>
      </trkpt>
      <trkpt lat="42.480810" lon="0.873763">
        <ele>2101.69</ele>
        <time>2012-06-20T12:14:17Z</time>
      </trkpt>
      <trkpt lat="42.480668" lon="0.873789">
        <ele>2098.79</ele>
        <time>2012-06-20T12:14:18Z</time>
      </trkpt>
      <trkpt lat="42.480414" lon="0.873783">
        <ele>2092.42</ele>
        <time>2012-06-20T12:14:19Z</time>
      </trkpt>
      <trkpt lat="42.480256" lon="0.873783">
        <ele>2089.70</ele>
        <time>2012-06-20T12:14:20Z</time>
      </trkpt>
      <trkpt lat="42.480001" lon="0.873725">
        <ele>2083.82</ele>
        <time>2012-06-20T12:14:22Z</time>
      </trkpt>
      <trkpt lat="42.479521" lon="0.873716">
        <ele>2075.22</ele>
        <time>2012-06-20T12:14:25Z</time>
      </trkpt>
      <trkpt lat="42.479355" lon="0.873662">
        <ele>2071.31</ele>
        <time>2012-06-20T12:14:26Z</time>
      </trkpt>
      <trkpt lat="42.479179" lon="0.873612">
        <ele>2070.36</ele>
        <time>2012-06-20T12:14:28Z</time>
      </trkpt>
      <trkpt lat="42.478940" lon="0.873394">
        <ele>2068.99</ele>
        <time>2012-06-20T12:14:30Z</time>
      </trkpt>
      <trkpt lat="42.478738" lon="0.873287">
        <ele>2067.59</ele>
        <time>2012-06-20T12:14:31Z</time>
      </trkpt>
      <trkpt lat="42.478544" lon="0.873252">
        <ele>2065.03</ele>
        <time>2012-06-20T12:14:32Z</time>
      </trkpt>
      <trkpt lat="42.478569" lon="0.873022">
        <ele>2063.17</ele>
        <time>2012-06-20T12:14:33Z</time>
      </trkpt>
      <trkpt lat="42.478500" lon="0.872788">
        <ele>2060.76</ele>
        <time>2012-06-20T12:14:35Z</time>
      </trkpt>
      <trkpt lat="42.478375" lon="0.872570">
        <ele>2058.87</ele>
        <time>2012-06-20T12:14:36Z</time>
      </trkpt>
      <trkpt lat="42.478168" lon="0.872367">
        <ele>2055.08</ele>
        <time>2012-06-20T12:14:38Z</time>
      </trkpt>
      <trkpt lat="42.478225" lon="0.872154">
        <ele>2050.13</ele>
        <time>2012-06-20T12:14:39Z</time>
      </trkpt>
      <trkpt lat="42.478516" lon="0.871932">
        <ele>2044.51</ele>
        <time>2012-06-20T12:14:41Z</time>
      </trkpt>
      <trkpt lat="42.478737" lon="0.871659">
        <ele>2040.11</ele>
        <time>2012-06-20T12:14:43Z</time>
      </trkpt>
      <trkpt lat="42.478858" lon="0.871515">
        <ele>2038.69</ele>
        <time>2012-06-20T12:14:44Z</time>
      </trkpt>
      <trkpt lat="42.479141" lon="0.871387">
        <ele>2036.26</ele>
        <time>2012-06-20T12:14:46Z</time>
      </trkpt>
      <trkpt lat="42.479254" lon="0.871221">
        <ele>2033.38</ele>
        <time>2012-06-20T12:14:47Z</time>
      </trkpt>
      <trkpt lat="42.479194" lon="0.871070">
        <ele>2031.93</ele>
        <time>2012-06-20T12:14:48Z</time>
      </trkpt>
      <trkpt lat="42.478937" lon="0.870939">
        <ele>2029.09</ele>
        <time>2012-06-20T12:14:50Z</time>
      </trkpt>
      <trkpt lat="42.478796" lon="0.870897">
        <ele>2026.12</ele>
        <time>2012-06-20T12:14:51Z</time>
      </trkpt>
      <trkpt lat="42.478547" lon="0.870909">
        <ele>2021.83</ele>
        <time>2012-06-20T12:14:53Z</time>
      </trkpt>
      <trkpt lat="42.478242" lon="0.870983">
        <ele>2015.50</ele>
        <time>2012-06-20T12:14:55Z</time>
      </trkpt>
      <trkpt lat="42.478068" lon="0.871002">
        <ele>2012.72</ele>
        <time>2012-06-20T12:14:56Z</time>
      </trkpt>
      <trkpt lat="42.477848" lon="0.870923">
        <ele>2010.71</ele>
        <time>2012-06-20T12:14:57Z</time>
      </trkpt>
      <trkpt lat="42.477797" lon="0.870635">
        <ele>2010.88</ele>
        <time>2012-06-20T12:14:59Z</time>
      </trkpt>
      <trkpt lat="42.477598" lon="0.870076">
        <ele>2008.33</ele>
        <time>2012-06-20T12:15:01Z</time>
      </trkpt>
      <trkpt lat="42.477568" lon="0.869381">
        <ele>2005.59</ele>
        <time>2012-06-20T12:15:06Z</time>
      </trkpt>
      <trkpt lat="42.477864" lon="0.868531">
        <ele>2006.97</ele>
        <time>2012-06-20T12:15:08Z</time>
      </trkpt>
      <trkpt lat="42.478081" lon="0.868098">
        <ele>2006.44</ele>
        <time>2012-06-20T12:15:10Z</time>
      </trkpt>
      <trkpt lat="42.478256" lon="0.867885">
        <ele>2007.44</ele>
        <time>2012-06-20T12:15:12Z</time>
      </trkpt>
    </trkseg>
  </trk>
</gpx>
